<?xml version="1.0" encoding="UTF-8" standalone="no" ?>
<gpx xmlns="http://www.topografix.com/GPX/1/1" xmlns:xsi="http://www.w3.org/2001/XMLSchema-instance" xsi:schemaLocation="http://www.topografix.com/GPX/1/1 http://www.topografix.com/GPX/1/1/gpx.xsd" version="1.1" creator="VisuGPX - https://www.visugpx.com">
  <metadata>
    <name>cols  de Caguo Ven et de Babaou en boucle de Collobrières</name>
    <desc><![CDATA[Au départ de Collobrières (83) prendre la direction de Pierrefeu du Var, tourner à gauche et monter en direction de La Londe par Camp Long.
A la londe suivre la route des plages, puis le Pas de la Griotte, Bormes les Mimosas, col de Caguo Ven, col de Babaou, enfin descendre en direction de Collbrières]]></desc>
  </metadata>
  <trk>
    <name><![CDATA[cols de Cago Ben et Babaou ]]></name>
    <cmt><![CDATA[par Normes les Mimosas]]></cmt>
    <desc><![CDATA[comment ...]]></desc>
    <trkseg>
      <trkpt lat="43.23819" lon="6.30945">
        <ele>185</ele>
        <time>2017-06-14T05:50:16Z</time>
      </trkpt>
      <trkpt lat="43.23819" lon="6.30945">
        <ele>185</ele>
        <time>2017-06-14T05:50:17Z</time>
      </trkpt>
      <trkpt lat="43.2382" lon="6.30939">
        <ele>184</ele>
        <time>2017-06-14T05:50:55Z</time>
      </trkpt>
      <trkpt lat="43.23824" lon="6.30927">
        <ele>183</ele>
        <time>2017-06-14T05:50:58Z</time>
      </trkpt>
      <trkpt lat="43.23838" lon="6.30914">
        <ele>174</ele>
        <time>2017-06-14T05:51:07Z</time>
      </trkpt>
      <trkpt lat="43.23837" lon="6.30909">
        <ele>173</ele>
        <time>2017-06-14T05:51:09Z</time>
      </trkpt>
      <trkpt lat="43.23832" lon="6.30905">
        <ele>170</ele>
        <time>2017-06-14T05:51:11Z</time>
      </trkpt>
      <trkpt lat="43.23824" lon="6.30891">
        <ele>167</ele>
        <time>2017-06-14T05:51:15Z</time>
      </trkpt>
      <trkpt lat="43.23813" lon="6.30883">
        <ele>165</ele>
        <time>2017-06-14T05:51:55Z</time>
      </trkpt>
      <trkpt lat="43.23819" lon="6.30886">
        <ele>165</ele>
        <time>2017-06-14T05:52:04Z</time>
      </trkpt>
      <trkpt lat="43.23818" lon="6.30881">
        <ele>156</ele>
        <time>2017-06-14T05:54:04Z</time>
      </trkpt>
      <trkpt lat="43.23811" lon="6.3087">
        <ele>154</ele>
        <time>2017-06-14T05:54:09Z</time>
      </trkpt>
      <trkpt lat="43.23809" lon="6.30857">
        <ele>153</ele>
        <time>2017-06-14T05:54:12Z</time>
      </trkpt>
      <trkpt lat="43.23804" lon="6.30851">
        <ele>152</ele>
        <time>2017-06-14T05:54:14Z</time>
      </trkpt>
      <trkpt lat="43.23784" lon="6.3083">
        <ele>152</ele>
        <time>2017-06-14T05:54:21Z</time>
      </trkpt>
      <trkpt lat="43.23747" lon="6.30793">
        <ele>151</ele>
        <time>2017-06-14T05:54:33Z</time>
      </trkpt>
      <trkpt lat="43.23704" lon="6.30744">
        <ele>149</ele>
        <time>2017-06-14T05:54:47Z</time>
      </trkpt>
      <trkpt lat="43.23685" lon="6.30703">
        <ele>149</ele>
        <time>2017-06-14T05:54:55Z</time>
      </trkpt>
      <trkpt lat="43.23666" lon="6.30635">
        <ele>149</ele>
        <time>2017-06-14T05:55:07Z</time>
      </trkpt>
      <trkpt lat="43.23667" lon="6.30623">
        <ele>150</ele>
        <time>2017-06-14T05:55:09Z</time>
      </trkpt>
      <trkpt lat="43.23673" lon="6.30596">
        <ele>150</ele>
        <time>2017-06-14T05:55:14Z</time>
      </trkpt>
      <trkpt lat="43.237" lon="6.30483">
        <ele>153</ele>
        <time>2017-06-14T05:55:35Z</time>
      </trkpt>
      <trkpt lat="43.23726" lon="6.3041">
        <ele>151</ele>
        <time>2017-06-14T05:55:46Z</time>
      </trkpt>
      <trkpt lat="43.238" lon="6.30233">
        <ele>148</ele>
        <time>2017-06-14T05:56:08Z</time>
      </trkpt>
      <trkpt lat="43.23861" lon="6.30084">
        <ele>148</ele>
        <time>2017-06-14T05:56:29Z</time>
      </trkpt>
      <trkpt lat="43.23892" lon="6.29992">
        <ele>145</ele>
        <time>2017-06-14T05:56:40Z</time>
      </trkpt>
      <trkpt lat="43.23919" lon="6.29862">
        <ele>142</ele>
        <time>2017-06-14T05:56:55Z</time>
      </trkpt>
      <trkpt lat="43.23921" lon="6.29827">
        <ele>144</ele>
        <time>2017-06-14T05:56:59Z</time>
      </trkpt>
      <trkpt lat="43.23917" lon="6.29776">
        <ele>146</ele>
        <time>2017-06-14T05:57:05Z</time>
      </trkpt>
      <trkpt lat="43.23905" lon="6.29693">
        <ele>147</ele>
        <time>2017-06-14T05:57:16Z</time>
      </trkpt>
      <trkpt lat="43.23892" lon="6.2965">
        <ele>146</ele>
        <time>2017-06-14T05:57:22Z</time>
      </trkpt>
      <trkpt lat="43.23813" lon="6.2945">
        <ele>145</ele>
        <time>2017-06-14T05:57:52Z</time>
      </trkpt>
      <trkpt lat="43.23806" lon="6.2941">
        <ele>144</ele>
        <time>2017-06-14T05:57:57Z</time>
      </trkpt>
      <trkpt lat="43.23806" lon="6.29352">
        <ele>142</ele>
        <time>2017-06-14T05:58:03Z</time>
      </trkpt>
      <trkpt lat="43.23801" lon="6.29118">
        <ele>137</ele>
        <time>2017-06-14T05:58:25Z</time>
      </trkpt>
      <trkpt lat="43.23792" lon="6.29051">
        <ele>136</ele>
        <time>2017-06-14T05:58:32Z</time>
      </trkpt>
      <trkpt lat="43.23775" lon="6.28976">
        <ele>136</ele>
        <time>2017-06-14T05:58:40Z</time>
      </trkpt>
      <trkpt lat="43.23755" lon="6.28909">
        <ele>135</ele>
        <time>2017-06-14T05:58:48Z</time>
      </trkpt>
      <trkpt lat="43.23738" lon="6.28877">
        <ele>135</ele>
        <time>2017-06-14T05:58:53Z</time>
      </trkpt>
      <trkpt lat="43.23686" lon="6.28805">
        <ele>133</ele>
        <time>2017-06-14T05:59:04Z</time>
      </trkpt>
      <trkpt lat="43.2362" lon="6.28702">
        <ele>133</ele>
        <time>2017-06-14T05:59:19Z</time>
      </trkpt>
      <trkpt lat="43.23581" lon="6.28604">
        <ele>132</ele>
        <time>2017-06-14T05:59:31Z</time>
      </trkpt>
      <trkpt lat="43.23569" lon="6.28551">
        <ele>132</ele>
        <time>2017-06-14T05:59:37Z</time>
      </trkpt>
      <trkpt lat="43.23558" lon="6.28452">
        <ele>132</ele>
        <time>2017-06-14T05:59:48Z</time>
      </trkpt>
      <trkpt lat="43.23543" lon="6.2827">
        <ele>130</ele>
        <time>2017-06-14T06:00:08Z</time>
      </trkpt>
      <trkpt lat="43.23544" lon="6.28175">
        <ele>129</ele>
        <time>2017-06-14T06:00:18Z</time>
      </trkpt>
      <trkpt lat="43.23559" lon="6.28104">
        <ele>131</ele>
        <time>2017-06-14T06:00:26Z</time>
      </trkpt>
      <trkpt lat="43.23578" lon="6.28048">
        <ele>131</ele>
        <time>2017-06-14T06:00:33Z</time>
      </trkpt>
      <trkpt lat="43.23603" lon="6.2801">
        <ele>131</ele>
        <time>2017-06-14T06:00:39Z</time>
      </trkpt>
      <trkpt lat="43.23644" lon="6.27946">
        <ele>132</ele>
        <time>2017-06-14T06:00:50Z</time>
      </trkpt>
      <trkpt lat="43.23653" lon="6.27917">
        <ele>132</ele>
        <time>2017-06-14T06:00:54Z</time>
      </trkpt>
      <trkpt lat="43.23658" lon="6.27874">
        <ele>131</ele>
        <time>2017-06-14T06:00:59Z</time>
      </trkpt>
      <trkpt lat="43.23654" lon="6.27832">
        <ele>130</ele>
        <time>2017-06-14T06:01:04Z</time>
      </trkpt>
      <trkpt lat="43.23641" lon="6.27791">
        <ele>130</ele>
        <time>2017-06-14T06:01:09Z</time>
      </trkpt>
      <trkpt lat="43.23556" lon="6.27559">
        <ele>129</ele>
        <time>2017-06-14T06:01:39Z</time>
      </trkpt>
      <trkpt lat="43.23478" lon="6.27354">
        <ele>128</ele>
        <time>2017-06-14T06:02:09Z</time>
      </trkpt>
      <trkpt lat="43.23437" lon="6.27244">
        <ele>123</ele>
        <time>2017-06-14T06:02:25Z</time>
      </trkpt>
      <trkpt lat="43.23386" lon="6.27101">
        <ele>124</ele>
        <time>2017-06-14T06:02:43Z</time>
      </trkpt>
      <trkpt lat="43.23349" lon="6.27023">
        <ele>124</ele>
        <time>2017-06-14T06:02:53Z</time>
      </trkpt>
      <trkpt lat="43.23334" lon="6.26955">
        <ele>121</ele>
        <time>2017-06-14T06:03:01Z</time>
      </trkpt>
      <trkpt lat="43.23283" lon="6.26752">
        <ele>120</ele>
        <time>2017-06-14T06:03:25Z</time>
      </trkpt>
      <trkpt lat="43.23272" lon="6.26659">
        <ele>122</ele>
        <time>2017-06-14T06:03:35Z</time>
      </trkpt>
      <trkpt lat="43.23265" lon="6.26534">
        <ele>122</ele>
        <time>2017-06-14T06:03:49Z</time>
      </trkpt>
      <trkpt lat="43.23254" lon="6.26384">
        <ele>121</ele>
        <time>2017-06-14T06:04:06Z</time>
      </trkpt>
      <trkpt lat="43.23232" lon="6.2624">
        <ele>121</ele>
        <time>2017-06-14T06:04:23Z</time>
      </trkpt>
      <trkpt lat="43.23209" lon="6.26126">
        <ele>123</ele>
        <time>2017-06-14T06:04:38Z</time>
      </trkpt>
      <trkpt lat="43.23162" lon="6.25978">
        <ele>122</ele>
        <time>2017-06-14T06:04:59Z</time>
      </trkpt>
      <trkpt lat="43.23151" lon="6.25945">
        <ele>122</ele>
        <time>2017-06-14T06:05:04Z</time>
      </trkpt>
      <trkpt lat="43.23144" lon="6.25887">
        <ele>121</ele>
        <time>2017-06-14T06:05:11Z</time>
      </trkpt>
      <trkpt lat="43.23145" lon="6.25877">
        <ele>120</ele>
        <time>2017-06-14T06:05:14Z</time>
      </trkpt>
      <trkpt lat="43.23142" lon="6.25874">
        <ele>120</ele>
        <time>2017-06-14T06:05:19Z</time>
      </trkpt>
      <trkpt lat="43.23141" lon="6.2587">
        <ele>122</ele>
        <time>2017-06-14T06:07:04Z</time>
      </trkpt>
      <trkpt lat="43.23094" lon="6.25643">
        <ele>120</ele>
        <time>2017-06-14T06:07:34Z</time>
      </trkpt>
      <trkpt lat="43.23069" lon="6.2548">
        <ele>119</ele>
        <time>2017-06-14T06:07:53Z</time>
      </trkpt>
      <trkpt lat="43.23101" lon="6.25214">
        <ele>114</ele>
        <time>2017-06-14T06:08:22Z</time>
      </trkpt>
      <trkpt lat="43.23118" lon="6.25174">
        <ele>115</ele>
        <time>2017-06-14T06:08:27Z</time>
      </trkpt>
      <trkpt lat="43.23141" lon="6.25116">
        <ele>116</ele>
        <time>2017-06-14T06:08:35Z</time>
      </trkpt>
      <trkpt lat="43.2316" lon="6.25064">
        <ele>116</ele>
        <time>2017-06-14T06:08:42Z</time>
      </trkpt>
      <trkpt lat="43.23197" lon="6.24951">
        <ele>116</ele>
        <time>2017-06-14T06:08:57Z</time>
      </trkpt>
      <trkpt lat="43.23214" lon="6.24828">
        <ele>116</ele>
        <time>2017-06-14T06:09:12Z</time>
      </trkpt>
      <trkpt lat="43.23224" lon="6.24706">
        <ele>116</ele>
        <time>2017-06-14T06:09:27Z</time>
      </trkpt>
      <trkpt lat="43.2322" lon="6.24636">
        <ele>115</ele>
        <time>2017-06-14T06:09:35Z</time>
      </trkpt>
      <trkpt lat="43.2319" lon="6.24355">
        <ele>111</ele>
        <time>2017-06-14T06:10:05Z</time>
      </trkpt>
      <trkpt lat="43.23174" lon="6.24237">
        <ele>110</ele>
        <time>2017-06-14T06:10:18Z</time>
      </trkpt>
      <trkpt lat="43.2315" lon="6.24147">
        <ele>110</ele>
        <time>2017-06-14T06:10:29Z</time>
      </trkpt>
      <trkpt lat="43.2313" lon="6.24054">
        <ele>111</ele>
        <time>2017-06-14T06:10:41Z</time>
      </trkpt>
      <trkpt lat="43.23099" lon="6.23845">
        <ele>113</ele>
        <time>2017-06-14T06:11:11Z</time>
      </trkpt>
      <trkpt lat="43.23045" lon="6.23672">
        <ele>117</ele>
        <time>2017-06-14T06:11:41Z</time>
      </trkpt>
      <trkpt lat="43.23039" lon="6.2364">
        <ele>119</ele>
        <time>2017-06-14T06:11:46Z</time>
      </trkpt>
      <trkpt lat="43.23041" lon="6.23619">
        <ele>118</ele>
        <time>2017-06-14T06:11:49Z</time>
      </trkpt>
      <trkpt lat="43.2305" lon="6.23597">
        <ele>118</ele>
        <time>2017-06-14T06:11:52Z</time>
      </trkpt>
      <trkpt lat="43.23094" lon="6.23518">
        <ele>116</ele>
        <time>2017-06-14T06:12:02Z</time>
      </trkpt>
      <trkpt lat="43.23223" lon="6.23247">
        <ele>107</ele>
        <time>2017-06-14T06:12:32Z</time>
      </trkpt>
      <trkpt lat="43.2333" lon="6.22999">
        <ele>103</ele>
        <time>2017-06-14T06:13:01Z</time>
      </trkpt>
      <trkpt lat="43.2335" lon="6.22956">
        <ele>103</ele>
        <time>2017-06-14T06:13:06Z</time>
      </trkpt>
      <trkpt lat="43.23392" lon="6.22892">
        <ele>103</ele>
        <time>2017-06-14T06:13:14Z</time>
      </trkpt>
      <trkpt lat="43.23468" lon="6.22776">
        <ele>104</ele>
        <time>2017-06-14T06:13:30Z</time>
      </trkpt>
      <trkpt lat="43.23484" lon="6.22735">
        <ele>105</ele>
        <time>2017-06-14T06:13:35Z</time>
      </trkpt>
      <trkpt lat="43.23495" lon="6.22684">
        <ele>105</ele>
        <time>2017-06-14T06:13:41Z</time>
      </trkpt>
      <trkpt lat="43.23497" lon="6.22643">
        <ele>106</ele>
        <time>2017-06-14T06:13:46Z</time>
      </trkpt>
      <trkpt lat="43.23494" lon="6.22548">
        <ele>120</ele>
        <time>2017-06-14T06:13:58Z</time>
      </trkpt>
      <trkpt lat="43.23495" lon="6.22541">
        <ele>118</ele>
        <time>2017-06-14T06:13:59Z</time>
      </trkpt>
      <trkpt lat="43.23497" lon="6.22533">
        <ele>115</ele>
        <time>2017-06-14T06:14:00Z</time>
      </trkpt>
      <trkpt lat="43.23543" lon="6.22299">
        <ele>104</ele>
        <time>2017-06-14T06:14:30Z</time>
      </trkpt>
      <trkpt lat="43.23576" lon="6.22163">
        <ele>99</ele>
        <time>2017-06-14T06:14:47Z</time>
      </trkpt>
      <trkpt lat="43.23624" lon="6.22033">
        <ele>100</ele>
        <time>2017-06-14T06:15:01Z</time>
      </trkpt>
      <trkpt lat="43.23654" lon="6.21956">
        <ele>99</ele>
        <time>2017-06-14T06:15:09Z</time>
      </trkpt>
      <trkpt lat="43.23657" lon="6.21912">
        <ele>99</ele>
        <time>2017-06-14T06:15:13Z</time>
      </trkpt>
      <trkpt lat="43.23652" lon="6.21861">
        <ele>99</ele>
        <time>2017-06-14T06:15:18Z</time>
      </trkpt>
      <trkpt lat="43.23638" lon="6.21813">
        <ele>99</ele>
        <time>2017-06-14T06:15:23Z</time>
      </trkpt>
      <trkpt lat="43.23543" lon="6.2156">
        <ele>97</ele>
        <time>2017-06-14T06:15:53Z</time>
      </trkpt>
      <trkpt lat="43.23502" lon="6.21487">
        <ele>97</ele>
        <time>2017-06-14T06:16:03Z</time>
      </trkpt>
      <trkpt lat="43.23446" lon="6.21394">
        <ele>100</ele>
        <time>2017-06-14T06:16:17Z</time>
      </trkpt>
      <trkpt lat="43.23441" lon="6.21353">
        <ele>100</ele>
        <time>2017-06-14T06:16:22Z</time>
      </trkpt>
      <trkpt lat="43.23442" lon="6.21299">
        <ele>99</ele>
        <time>2017-06-14T06:16:29Z</time>
      </trkpt>
      <trkpt lat="43.23443" lon="6.21244">
        <ele>97</ele>
        <time>2017-06-14T06:16:37Z</time>
      </trkpt>
      <trkpt lat="43.23441" lon="6.21215">
        <ele>96</ele>
        <time>2017-06-14T06:16:43Z</time>
      </trkpt>
      <trkpt lat="43.2344" lon="6.2121">
        <ele>96</ele>
        <time>2017-06-14T06:16:44Z</time>
      </trkpt>
      <trkpt lat="43.23432" lon="6.21202">
        <ele>96</ele>
        <time>2017-06-14T06:16:46Z</time>
      </trkpt>
      <trkpt lat="43.23419" lon="6.21198">
        <ele>97</ele>
        <time>2017-06-14T06:16:49Z</time>
      </trkpt>
      <trkpt lat="43.2339" lon="6.21196">
        <ele>100</ele>
        <time>2017-06-14T06:16:58Z</time>
      </trkpt>
      <trkpt lat="43.23371" lon="6.212">
        <ele>101</ele>
        <time>2017-06-14T06:17:04Z</time>
      </trkpt>
      <trkpt lat="43.23334" lon="6.21211">
        <ele>99</ele>
        <time>2017-06-14T06:17:12Z</time>
      </trkpt>
      <trkpt lat="43.23262" lon="6.21234">
        <ele>101</ele>
        <time>2017-06-14T06:21:55Z</time>
      </trkpt>
      <trkpt lat="43.23176" lon="6.21269">
        <ele>102</ele>
        <time>2017-06-14T06:22:22Z</time>
      </trkpt>
      <trkpt lat="43.23096" lon="6.213">
        <ele>103</ele>
        <time>2017-06-14T06:22:42Z</time>
      </trkpt>
      <trkpt lat="43.2307" lon="6.21316">
        <ele>102</ele>
        <time>2017-06-14T06:22:49Z</time>
      </trkpt>
      <trkpt lat="43.23057" lon="6.2133">
        <ele>103</ele>
        <time>2017-06-14T06:22:53Z</time>
      </trkpt>
      <trkpt lat="43.23019" lon="6.21382">
        <ele>101</ele>
        <time>2017-06-14T06:23:06Z</time>
      </trkpt>
      <trkpt lat="43.22993" lon="6.21432">
        <ele>103</ele>
        <time>2017-06-14T06:23:18Z</time>
      </trkpt>
      <trkpt lat="43.22979" lon="6.21454">
        <ele>103</ele>
        <time>2017-06-14T06:23:23Z</time>
      </trkpt>
      <trkpt lat="43.22949" lon="6.21496">
        <ele>102</ele>
        <time>2017-06-14T06:23:34Z</time>
      </trkpt>
      <trkpt lat="43.22936" lon="6.2152">
        <ele>102</ele>
        <time>2017-06-14T06:23:39Z</time>
      </trkpt>
      <trkpt lat="43.22923" lon="6.21553">
        <ele>103</ele>
        <time>2017-06-14T06:23:45Z</time>
      </trkpt>
      <trkpt lat="43.22907" lon="6.21606">
        <ele>104</ele>
        <time>2017-06-14T06:23:55Z</time>
      </trkpt>
      <trkpt lat="43.2289" lon="6.21648">
        <ele>105</ele>
        <time>2017-06-14T06:24:05Z</time>
      </trkpt>
      <trkpt lat="43.22874" lon="6.21691">
        <ele>108</ele>
        <time>2017-06-14T06:24:16Z</time>
      </trkpt>
      <trkpt lat="43.22852" lon="6.21755">
        <ele>110</ele>
        <time>2017-06-14T06:24:29Z</time>
      </trkpt>
      <trkpt lat="43.22838" lon="6.21774">
        <ele>112</ele>
        <time>2017-06-14T06:24:34Z</time>
      </trkpt>
      <trkpt lat="43.22793" lon="6.21846">
        <ele>107</ele>
        <time>2017-06-14T06:24:51Z</time>
      </trkpt>
      <trkpt lat="43.22763" lon="6.219">
        <ele>107</ele>
        <time>2017-06-14T06:25:03Z</time>
      </trkpt>
      <trkpt lat="43.22752" lon="6.21923">
        <ele>108</ele>
        <time>2017-06-14T06:25:08Z</time>
      </trkpt>
      <trkpt lat="43.22725" lon="6.21954">
        <ele>115</ele>
        <time>2017-06-14T06:25:18Z</time>
      </trkpt>
      <trkpt lat="43.22707" lon="6.21971">
        <ele>119</ele>
        <time>2017-06-14T06:25:24Z</time>
      </trkpt>
      <trkpt lat="43.22667" lon="6.22006">
        <ele>121</ele>
        <time>2017-06-14T06:25:37Z</time>
      </trkpt>
      <trkpt lat="43.2264" lon="6.22036">
        <ele>122</ele>
        <time>2017-06-14T06:25:45Z</time>
      </trkpt>
      <trkpt lat="43.22634" lon="6.22045">
        <ele>120</ele>
        <time>2017-06-14T06:25:47Z</time>
      </trkpt>
      <trkpt lat="43.22616" lon="6.22092">
        <ele>114</ele>
        <time>2017-06-14T06:25:56Z</time>
      </trkpt>
      <trkpt lat="43.22608" lon="6.22109">
        <ele>115</ele>
        <time>2017-06-14T06:25:59Z</time>
      </trkpt>
      <trkpt lat="43.22586" lon="6.22143">
        <ele>121</ele>
        <time>2017-06-14T06:26:06Z</time>
      </trkpt>
      <trkpt lat="43.22562" lon="6.22169">
        <ele>122</ele>
        <time>2017-06-14T06:26:13Z</time>
      </trkpt>
      <trkpt lat="43.22553" lon="6.22172">
        <ele>123</ele>
        <time>2017-06-14T06:26:16Z</time>
      </trkpt>
      <trkpt lat="43.22522" lon="6.2217">
        <ele>121</ele>
        <time>2017-06-14T06:26:25Z</time>
      </trkpt>
      <trkpt lat="43.22497" lon="6.22168">
        <ele>120</ele>
        <time>2017-06-14T06:26:32Z</time>
      </trkpt>
      <trkpt lat="43.22477" lon="6.22155">
        <ele>120</ele>
        <time>2017-06-14T06:26:37Z</time>
      </trkpt>
      <trkpt lat="43.22461" lon="6.22138">
        <ele>123</ele>
        <time>2017-06-14T06:26:43Z</time>
      </trkpt>
      <trkpt lat="43.22452" lon="6.22128">
        <ele>123</ele>
        <time>2017-06-14T06:26:46Z</time>
      </trkpt>
      <trkpt lat="43.22406" lon="6.2208">
        <ele>129</ele>
        <time>2017-06-14T06:27:01Z</time>
      </trkpt>
      <trkpt lat="43.22381" lon="6.22066">
        <ele>129</ele>
        <time>2017-06-14T06:27:08Z</time>
      </trkpt>
      <trkpt lat="43.22347" lon="6.22059">
        <ele>129</ele>
        <time>2017-06-14T06:27:17Z</time>
      </trkpt>
      <trkpt lat="43.22319" lon="6.22054">
        <ele>129</ele>
        <time>2017-06-14T06:27:24Z</time>
      </trkpt>
      <trkpt lat="43.22269" lon="6.22038">
        <ele>132</ele>
        <time>2017-06-14T06:27:36Z</time>
      </trkpt>
      <trkpt lat="43.22246" lon="6.22028">
        <ele>132</ele>
        <time>2017-06-14T06:27:42Z</time>
      </trkpt>
      <trkpt lat="43.22196" lon="6.22016">
        <ele>132</ele>
        <time>2017-06-14T06:27:55Z</time>
      </trkpt>
      <trkpt lat="43.22137" lon="6.22024">
        <ele>139</ele>
        <time>2017-06-14T06:28:12Z</time>
      </trkpt>
      <trkpt lat="43.22096" lon="6.22035">
        <ele>145</ele>
        <time>2017-06-14T06:28:24Z</time>
      </trkpt>
      <trkpt lat="43.22079" lon="6.22041">
        <ele>147</ele>
        <time>2017-06-14T06:28:29Z</time>
      </trkpt>
      <trkpt lat="43.22064" lon="6.22041">
        <ele>147</ele>
        <time>2017-06-14T06:28:34Z</time>
      </trkpt>
      <trkpt lat="43.22061" lon="6.2204">
        <ele>147</ele>
        <time>2017-06-14T06:28:35Z</time>
      </trkpt>
      <trkpt lat="43.22057" lon="6.22036">
        <ele>146</ele>
        <time>2017-06-14T06:28:37Z</time>
      </trkpt>
      <trkpt lat="43.22058" lon="6.2203">
        <ele>144</ele>
        <time>2017-06-14T06:28:39Z</time>
      </trkpt>
      <trkpt lat="43.2206" lon="6.22027">
        <ele>144</ele>
        <time>2017-06-14T06:28:40Z</time>
      </trkpt>
      <trkpt lat="43.22067" lon="6.22023">
        <ele>145</ele>
        <time>2017-06-14T06:28:43Z</time>
      </trkpt>
      <trkpt lat="43.22093" lon="6.22011">
        <ele>147</ele>
        <time>2017-06-14T06:28:52Z</time>
      </trkpt>
      <trkpt lat="43.221" lon="6.22002">
        <ele>145</ele>
        <time>2017-06-14T06:28:55Z</time>
      </trkpt>
      <trkpt lat="43.22107" lon="6.21988">
        <ele>144</ele>
        <time>2017-06-14T06:28:59Z</time>
      </trkpt>
      <trkpt lat="43.22123" lon="6.21951">
        <ele>146</ele>
        <time>2017-06-14T06:29:09Z</time>
      </trkpt>
      <trkpt lat="43.22123" lon="6.21947">
        <ele>148</ele>
        <time>2017-06-14T06:29:10Z</time>
      </trkpt>
      <trkpt lat="43.22125" lon="6.21943">
        <ele>148</ele>
        <time>2017-06-14T06:29:11Z</time>
      </trkpt>
      <trkpt lat="43.22126" lon="6.21929">
        <ele>148</ele>
        <time>2017-06-14T06:29:14Z</time>
      </trkpt>
      <trkpt lat="43.22123" lon="6.21913">
        <ele>147</ele>
        <time>2017-06-14T06:29:17Z</time>
      </trkpt>
      <trkpt lat="43.2212" lon="6.21902">
        <ele>148</ele>
        <time>2017-06-14T06:29:19Z</time>
      </trkpt>
      <trkpt lat="43.22117" lon="6.21897">
        <ele>149</ele>
        <time>2017-06-14T06:29:20Z</time>
      </trkpt>
      <trkpt lat="43.22113" lon="6.21895">
        <ele>149</ele>
        <time>2017-06-14T06:29:21Z</time>
      </trkpt>
      <trkpt lat="43.22103" lon="6.21898">
        <ele>150</ele>
        <time>2017-06-14T06:29:23Z</time>
      </trkpt>
      <trkpt lat="43.221" lon="6.21905">
        <ele>151</ele>
        <time>2017-06-14T06:29:24Z</time>
      </trkpt>
      <trkpt lat="43.22099" lon="6.21918">
        <ele>152</ele>
        <time>2017-06-14T06:29:26Z</time>
      </trkpt>
      <trkpt lat="43.22094" lon="6.21948">
        <ele>153</ele>
        <time>2017-06-14T06:29:30Z</time>
      </trkpt>
      <trkpt lat="43.22083" lon="6.21973">
        <ele>152</ele>
        <time>2017-06-14T06:29:34Z</time>
      </trkpt>
      <trkpt lat="43.22074" lon="6.21978">
        <ele>151</ele>
        <time>2017-06-14T06:29:36Z</time>
      </trkpt>
      <trkpt lat="43.22055" lon="6.21979">
        <ele>154</ele>
        <time>2017-06-14T06:29:40Z</time>
      </trkpt>
      <trkpt lat="43.22024" lon="6.2197">
        <ele>158</ele>
        <time>2017-06-14T06:29:48Z</time>
      </trkpt>
      <trkpt lat="43.22003" lon="6.21961">
        <ele>160</ele>
        <time>2017-06-14T06:29:56Z</time>
      </trkpt>
      <trkpt lat="43.21981" lon="6.21947">
        <ele>164</ele>
        <time>2017-06-14T06:30:04Z</time>
      </trkpt>
      <trkpt lat="43.21959" lon="6.21926">
        <ele>170</ele>
        <time>2017-06-14T06:30:12Z</time>
      </trkpt>
      <trkpt lat="43.21949" lon="6.21903">
        <ele>171</ele>
        <time>2017-06-14T06:30:19Z</time>
      </trkpt>
      <trkpt lat="43.21947" lon="6.219">
        <ele>171</ele>
        <time>2017-06-14T06:30:20Z</time>
      </trkpt>
      <trkpt lat="43.21945" lon="6.21886">
        <ele>171</ele>
        <time>2017-06-14T06:30:24Z</time>
      </trkpt>
      <trkpt lat="43.21942" lon="6.21883">
        <ele>172</ele>
        <time>2017-06-14T06:30:25Z</time>
      </trkpt>
      <trkpt lat="43.21941" lon="6.21879">
        <ele>173</ele>
        <time>2017-06-14T06:30:26Z</time>
      </trkpt>
      <trkpt lat="43.21933" lon="6.21853">
        <ele>176</ele>
        <time>2017-06-14T06:30:34Z</time>
      </trkpt>
      <trkpt lat="43.21925" lon="6.21847">
        <ele>176</ele>
        <time>2017-06-14T06:30:38Z</time>
      </trkpt>
      <trkpt lat="43.21919" lon="6.21848">
        <ele>175</ele>
        <time>2017-06-14T06:30:40Z</time>
      </trkpt>
      <trkpt lat="43.21909" lon="6.2186">
        <ele>176</ele>
        <time>2017-06-14T06:30:44Z</time>
      </trkpt>
      <trkpt lat="43.21907" lon="6.21863">
        <ele>177</ele>
        <time>2017-06-14T06:30:45Z</time>
      </trkpt>
      <trkpt lat="43.21898" lon="6.2187">
        <ele>176</ele>
        <time>2017-06-14T06:30:48Z</time>
      </trkpt>
      <trkpt lat="43.21861" lon="6.21897">
        <ele>176</ele>
        <time>2017-06-14T06:31:01Z</time>
      </trkpt>
      <trkpt lat="43.21848" lon="6.21895">
        <ele>178</ele>
        <time>2017-06-14T06:31:05Z</time>
      </trkpt>
      <trkpt lat="43.21837" lon="6.21891">
        <ele>178</ele>
        <time>2017-06-14T06:31:09Z</time>
      </trkpt>
      <trkpt lat="43.21831" lon="6.21888">
        <ele>179</ele>
        <time>2017-06-14T06:31:11Z</time>
      </trkpt>
      <trkpt lat="43.21818" lon="6.21873">
        <ele>180</ele>
        <time>2017-06-14T06:31:18Z</time>
      </trkpt>
      <trkpt lat="43.21806" lon="6.21854">
        <ele>181</ele>
        <time>2017-06-14T06:31:25Z</time>
      </trkpt>
      <trkpt lat="43.21798" lon="6.21847">
        <ele>183</ele>
        <time>2017-06-14T06:31:28Z</time>
      </trkpt>
      <trkpt lat="43.21791" lon="6.21844">
        <ele>184</ele>
        <time>2017-06-14T06:31:30Z</time>
      </trkpt>
      <trkpt lat="43.21786" lon="6.21846">
        <ele>186</ele>
        <time>2017-06-14T06:31:32Z</time>
      </trkpt>
      <trkpt lat="43.21781" lon="6.21852">
        <ele>187</ele>
        <time>2017-06-14T06:31:34Z</time>
      </trkpt>
      <trkpt lat="43.21779" lon="6.21865">
        <ele>188</ele>
        <time>2017-06-14T06:31:37Z</time>
      </trkpt>
      <trkpt lat="43.21774" lon="6.21885">
        <ele>188</ele>
        <time>2017-06-14T06:31:41Z</time>
      </trkpt>
      <trkpt lat="43.21772" lon="6.21888">
        <ele>188</ele>
        <time>2017-06-14T06:31:42Z</time>
      </trkpt>
      <trkpt lat="43.21763" lon="6.21928">
        <ele>186</ele>
        <time>2017-06-14T06:31:52Z</time>
      </trkpt>
      <trkpt lat="43.21749" lon="6.21952">
        <ele>188</ele>
        <time>2017-06-14T06:32:00Z</time>
      </trkpt>
      <trkpt lat="43.21735" lon="6.21964">
        <ele>189</ele>
        <time>2017-06-14T06:32:06Z</time>
      </trkpt>
      <trkpt lat="43.21708" lon="6.2199">
        <ele>192</ele>
        <time>2017-06-14T06:32:17Z</time>
      </trkpt>
      <trkpt lat="43.21684" lon="6.22015">
        <ele>195</ele>
        <time>2017-06-14T06:32:27Z</time>
      </trkpt>
      <trkpt lat="43.21662" lon="6.22033">
        <ele>193</ele>
        <time>2017-06-14T06:32:34Z</time>
      </trkpt>
      <trkpt lat="43.21594" lon="6.22114">
        <ele>192</ele>
        <time>2017-06-14T06:32:48Z</time>
      </trkpt>
      <trkpt lat="43.21552" lon="6.2217">
        <ele>191</ele>
        <time>2017-06-14T06:32:55Z</time>
      </trkpt>
      <trkpt lat="43.21545" lon="6.22204">
        <ele>192</ele>
        <time>2017-06-14T06:32:58Z</time>
      </trkpt>
      <trkpt lat="43.21541" lon="6.22236">
        <ele>191</ele>
        <time>2017-06-14T06:33:01Z</time>
      </trkpt>
      <trkpt lat="43.21535" lon="6.22241">
        <ele>191</ele>
        <time>2017-06-14T06:33:02Z</time>
      </trkpt>
      <trkpt lat="43.21532" lon="6.22243">
        <ele>190</ele>
        <time>2017-06-14T06:33:03Z</time>
      </trkpt>
      <trkpt lat="43.21527" lon="6.22236">
        <ele>188</ele>
        <time>2017-06-14T06:33:05Z</time>
      </trkpt>
      <trkpt lat="43.21523" lon="6.2223">
        <ele>187</ele>
        <time>2017-06-14T06:33:06Z</time>
      </trkpt>
      <trkpt lat="43.21517" lon="6.22191">
        <ele>182</ele>
        <time>2017-06-14T06:33:11Z</time>
      </trkpt>
      <trkpt lat="43.21504" lon="6.22141">
        <ele>178</ele>
        <time>2017-06-14T06:33:17Z</time>
      </trkpt>
      <trkpt lat="43.21492" lon="6.22128">
        <ele>178</ele>
        <time>2017-06-14T06:33:19Z</time>
      </trkpt>
      <trkpt lat="43.2146" lon="6.22108">
        <ele>176</ele>
        <time>2017-06-14T06:33:23Z</time>
      </trkpt>
      <trkpt lat="43.21366" lon="6.22056">
        <ele>170</ele>
        <time>2017-06-14T06:33:33Z</time>
      </trkpt>
      <trkpt lat="43.21344" lon="6.2203">
        <ele>167</ele>
        <time>2017-06-14T06:33:36Z</time>
      </trkpt>
      <trkpt lat="43.2129" lon="6.21952">
        <ele>163</ele>
        <time>2017-06-14T06:33:45Z</time>
      </trkpt>
      <trkpt lat="43.2126" lon="6.21917">
        <ele>161</ele>
        <time>2017-06-14T06:33:49Z</time>
      </trkpt>
      <trkpt lat="43.21253" lon="6.21896">
        <ele>159</ele>
        <time>2017-06-14T06:33:51Z</time>
      </trkpt>
      <trkpt lat="43.21255" lon="6.2186">
        <ele>159</ele>
        <time>2017-06-14T06:33:54Z</time>
      </trkpt>
      <trkpt lat="43.21271" lon="6.21692">
        <ele>151</ele>
        <time>2017-06-14T06:34:08Z</time>
      </trkpt>
      <trkpt lat="43.21268" lon="6.21683">
        <ele>151</ele>
        <time>2017-06-14T06:34:09Z</time>
      </trkpt>
      <trkpt lat="43.21255" lon="6.2167">
        <ele>151</ele>
        <time>2017-06-14T06:34:11Z</time>
      </trkpt>
      <trkpt lat="43.21204" lon="6.21613">
        <ele>148</ele>
        <time>2017-06-14T06:34:21Z</time>
      </trkpt>
      <trkpt lat="43.21191" lon="6.2159">
        <ele>147</ele>
        <time>2017-06-14T06:34:24Z</time>
      </trkpt>
      <trkpt lat="43.21163" lon="6.21516">
        <ele>146</ele>
        <time>2017-06-14T06:34:31Z</time>
      </trkpt>
      <trkpt lat="43.21138" lon="6.21447">
        <ele>145</ele>
        <time>2017-06-14T06:34:37Z</time>
      </trkpt>
      <trkpt lat="43.2111" lon="6.21416">
        <ele>147</ele>
        <time>2017-06-14T06:34:41Z</time>
      </trkpt>
      <trkpt lat="43.21085" lon="6.21397">
        <ele>145</ele>
        <time>2017-06-14T06:34:45Z</time>
      </trkpt>
      <trkpt lat="43.2108" lon="6.21398">
        <ele>145</ele>
        <time>2017-06-14T06:34:46Z</time>
      </trkpt>
      <trkpt lat="43.21041" lon="6.21412">
        <ele>140</ele>
        <time>2017-06-14T06:34:53Z</time>
      </trkpt>
      <trkpt lat="43.20988" lon="6.21406">
        <ele>136</ele>
        <time>2017-06-14T06:35:01Z</time>
      </trkpt>
      <trkpt lat="43.2096" lon="6.21381">
        <ele>136</ele>
        <time>2017-06-14T06:35:05Z</time>
      </trkpt>
      <trkpt lat="43.20937" lon="6.2133">
        <ele>131</ele>
        <time>2017-06-14T06:35:10Z</time>
      </trkpt>
      <trkpt lat="43.20924" lon="6.21285">
        <ele>133</ele>
        <time>2017-06-14T06:35:14Z</time>
      </trkpt>
      <trkpt lat="43.20908" lon="6.21217">
        <ele>129</ele>
        <time>2017-06-14T06:35:21Z</time>
      </trkpt>
      <trkpt lat="43.20887" lon="6.21154">
        <ele>130</ele>
        <time>2017-06-14T06:35:28Z</time>
      </trkpt>
      <trkpt lat="43.20861" lon="6.21057">
        <ele>128</ele>
        <time>2017-06-14T06:35:39Z</time>
      </trkpt>
      <trkpt lat="43.20845" lon="6.21034">
        <ele>125</ele>
        <time>2017-06-14T06:35:43Z</time>
      </trkpt>
      <trkpt lat="43.20806" lon="6.21006">
        <ele>122</ele>
        <time>2017-06-14T06:35:49Z</time>
      </trkpt>
      <trkpt lat="43.20784" lon="6.20997">
        <ele>121</ele>
        <time>2017-06-14T06:35:52Z</time>
      </trkpt>
      <trkpt lat="43.20759" lon="6.20997">
        <ele>120</ele>
        <time>2017-06-14T06:35:55Z</time>
      </trkpt>
      <trkpt lat="43.20717" lon="6.21011">
        <ele>117</ele>
        <time>2017-06-14T06:36:00Z</time>
      </trkpt>
      <trkpt lat="43.20679" lon="6.21032">
        <ele>116</ele>
        <time>2017-06-14T06:36:05Z</time>
      </trkpt>
      <trkpt lat="43.2061" lon="6.21098">
        <ele>118</ele>
        <time>2017-06-14T06:36:17Z</time>
      </trkpt>
      <trkpt lat="43.20433" lon="6.21277">
        <ele>109</ele>
        <time>2017-06-14T06:36:47Z</time>
      </trkpt>
      <trkpt lat="43.20406" lon="6.21294">
        <ele>108</ele>
        <time>2017-06-14T06:36:51Z</time>
      </trkpt>
      <trkpt lat="43.20371" lon="6.21301">
        <ele>108</ele>
        <time>2017-06-14T06:36:56Z</time>
      </trkpt>
      <trkpt lat="43.20312" lon="6.21308">
        <ele>109</ele>
        <time>2017-06-14T06:37:04Z</time>
      </trkpt>
      <trkpt lat="43.20207" lon="6.21319">
        <ele>106</ele>
        <time>2017-06-14T06:37:18Z</time>
      </trkpt>
      <trkpt lat="43.20018" lon="6.21304">
        <ele>105</ele>
        <time>2017-06-14T06:37:44Z</time>
      </trkpt>
      <trkpt lat="43.20005" lon="6.21291">
        <ele>104</ele>
        <time>2017-06-14T06:37:46Z</time>
      </trkpt>
      <trkpt lat="43.1992" lon="6.21176">
        <ele>95</ele>
        <time>2017-06-14T06:38:01Z</time>
      </trkpt>
      <trkpt lat="43.19869" lon="6.21132">
        <ele>95</ele>
        <time>2017-06-14T06:38:09Z</time>
      </trkpt>
      <trkpt lat="43.19785" lon="6.21073">
        <ele>96</ele>
        <time>2017-06-14T06:38:22Z</time>
      </trkpt>
      <trkpt lat="43.19674" lon="6.21023">
        <ele>91</ele>
        <time>2017-06-14T06:38:38Z</time>
      </trkpt>
      <trkpt lat="43.19668" lon="6.2102">
        <ele>91</ele>
        <time>2017-06-14T06:38:39Z</time>
      </trkpt>
      <trkpt lat="43.19654" lon="6.21017">
        <ele>97</ele>
        <time>2017-06-14T06:38:41Z</time>
      </trkpt>
      <trkpt lat="43.19648" lon="6.21016">
        <ele>95</ele>
        <time>2017-06-14T06:38:42Z</time>
      </trkpt>
      <trkpt lat="43.19512" lon="6.20994">
        <ele>90</ele>
        <time>2017-06-14T06:39:01Z</time>
      </trkpt>
      <trkpt lat="43.19347" lon="6.20912">
        <ele>91</ele>
        <time>2017-06-14T06:39:25Z</time>
      </trkpt>
      <trkpt lat="43.19306" lon="6.20911">
        <ele>89</ele>
        <time>2017-06-14T06:39:31Z</time>
      </trkpt>
      <trkpt lat="43.19164" lon="6.20912">
        <ele>83</ele>
        <time>2017-06-14T06:39:50Z</time>
      </trkpt>
      <trkpt lat="43.19137" lon="6.20924">
        <ele>84</ele>
        <time>2017-06-14T06:39:54Z</time>
      </trkpt>
      <trkpt lat="43.19061" lon="6.20968">
        <ele>77</ele>
        <time>2017-06-14T06:40:05Z</time>
      </trkpt>
      <trkpt lat="43.18842" lon="6.21061">
        <ele>76</ele>
        <time>2017-06-14T06:40:35Z</time>
      </trkpt>
      <trkpt lat="43.18769" lon="6.21101">
        <ele>76</ele>
        <time>2017-06-14T06:40:46Z</time>
      </trkpt>
      <trkpt lat="43.18724" lon="6.21133">
        <ele>74</ele>
        <time>2017-06-14T06:40:53Z</time>
      </trkpt>
      <trkpt lat="43.18629" lon="6.21219">
        <ele>74</ele>
        <time>2017-06-14T06:41:09Z</time>
      </trkpt>
      <trkpt lat="43.18607" lon="6.21258">
        <ele>73</ele>
        <time>2017-06-14T06:41:14Z</time>
      </trkpt>
      <trkpt lat="43.18552" lon="6.21358">
        <ele>74</ele>
        <time>2017-06-14T06:41:27Z</time>
      </trkpt>
      <trkpt lat="43.18519" lon="6.21422">
        <ele>75</ele>
        <time>2017-06-14T06:41:36Z</time>
      </trkpt>
      <trkpt lat="43.18495" lon="6.21434">
        <ele>73</ele>
        <time>2017-06-14T06:41:40Z</time>
      </trkpt>
      <trkpt lat="43.18462" lon="6.21447">
        <ele>71</ele>
        <time>2017-06-14T06:41:45Z</time>
      </trkpt>
      <trkpt lat="43.18263" lon="6.21482">
        <ele>75</ele>
        <time>2017-06-14T06:42:15Z</time>
      </trkpt>
      <trkpt lat="43.18142" lon="6.21476">
        <ele>72</ele>
        <time>2017-06-14T06:42:33Z</time>
      </trkpt>
      <trkpt lat="43.181" lon="6.21468">
        <ele>68</ele>
        <time>2017-06-14T06:42:39Z</time>
      </trkpt>
      <trkpt lat="43.1807" lon="6.21448">
        <ele>70</ele>
        <time>2017-06-14T06:42:44Z</time>
      </trkpt>
      <trkpt lat="43.1804" lon="6.21415">
        <ele>69</ele>
        <time>2017-06-14T06:42:50Z</time>
      </trkpt>
      <trkpt lat="43.17991" lon="6.21372">
        <ele>63</ele>
        <time>2017-06-14T06:42:58Z</time>
      </trkpt>
      <trkpt lat="43.17946" lon="6.21342">
        <ele>63</ele>
        <time>2017-06-14T06:43:05Z</time>
      </trkpt>
      <trkpt lat="43.17896" lon="6.2132">
        <ele>64</ele>
        <time>2017-06-14T06:43:13Z</time>
      </trkpt>
      <trkpt lat="43.17867" lon="6.21325">
        <ele>66</ele>
        <time>2017-06-14T06:43:17Z</time>
      </trkpt>
      <trkpt lat="43.1784" lon="6.21342">
        <ele>63</ele>
        <time>2017-06-14T06:43:21Z</time>
      </trkpt>
      <trkpt lat="43.17818" lon="6.21366">
        <ele>63</ele>
        <time>2017-06-14T06:43:25Z</time>
      </trkpt>
      <trkpt lat="43.17769" lon="6.21422">
        <ele>64</ele>
        <time>2017-06-14T06:43:34Z</time>
      </trkpt>
      <trkpt lat="43.17732" lon="6.21453">
        <ele>63</ele>
        <time>2017-06-14T06:43:41Z</time>
      </trkpt>
      <trkpt lat="43.17593" lon="6.2156">
        <ele>64</ele>
        <time>2017-06-14T06:44:07Z</time>
      </trkpt>
      <trkpt lat="43.17562" lon="6.21568">
        <ele>61</ele>
        <time>2017-06-14T06:44:12Z</time>
      </trkpt>
      <trkpt lat="43.17384" lon="6.21594">
        <ele>58</ele>
        <time>2017-06-14T06:44:40Z</time>
      </trkpt>
      <trkpt lat="43.17354" lon="6.21588">
        <ele>59</ele>
        <time>2017-06-14T06:44:45Z</time>
      </trkpt>
      <trkpt lat="43.1732" lon="6.21585">
        <ele>59</ele>
        <time>2017-06-14T06:44:51Z</time>
      </trkpt>
      <trkpt lat="43.17271" lon="6.21574">
        <ele>57</ele>
        <time>2017-06-14T06:45:00Z</time>
      </trkpt>
      <trkpt lat="43.17272" lon="6.21573">
        <ele>57</ele>
        <time>2017-06-14T06:45:06Z</time>
      </trkpt>
      <trkpt lat="43.17269" lon="6.21572">
        <ele>57</ele>
        <time>2017-06-14T06:45:13Z</time>
      </trkpt>
      <trkpt lat="43.17248" lon="6.21561">
        <ele>58</ele>
        <time>2017-06-14T06:45:20Z</time>
      </trkpt>
      <trkpt lat="43.17216" lon="6.21544">
        <ele>55</ele>
        <time>2017-06-14T06:45:28Z</time>
      </trkpt>
      <trkpt lat="43.17212" lon="6.21542">
        <ele>55</ele>
        <time>2017-06-14T06:45:29Z</time>
      </trkpt>
      <trkpt lat="43.17178" lon="6.21551">
        <ele>54</ele>
        <time>2017-06-14T06:45:36Z</time>
      </trkpt>
      <trkpt lat="43.16998" lon="6.21592">
        <ele>56</ele>
        <time>2017-06-14T06:46:06Z</time>
      </trkpt>
      <trkpt lat="43.16967" lon="6.21593">
        <ele>54</ele>
        <time>2017-06-14T06:46:11Z</time>
      </trkpt>
      <trkpt lat="43.16847" lon="6.21595">
        <ele>55</ele>
        <time>2017-06-14T06:46:29Z</time>
      </trkpt>
      <trkpt lat="43.16812" lon="6.21595">
        <ele>56</ele>
        <time>2017-06-14T06:46:35Z</time>
      </trkpt>
      <trkpt lat="43.16743" lon="6.21605">
        <ele>54</ele>
        <time>2017-06-14T06:46:45Z</time>
      </trkpt>
      <trkpt lat="43.1658" lon="6.21675">
        <ele>44</ele>
        <time>2017-06-14T06:47:12Z</time>
      </trkpt>
      <trkpt lat="43.16466" lon="6.21729">
        <ele>44</ele>
        <time>2017-06-14T06:47:31Z</time>
      </trkpt>
      <trkpt lat="43.16295" lon="6.21792">
        <ele>44</ele>
        <time>2017-06-14T06:48:01Z</time>
      </trkpt>
      <trkpt lat="43.16261" lon="6.21812">
        <ele>45</ele>
        <time>2017-06-14T06:48:07Z</time>
      </trkpt>
      <trkpt lat="43.16159" lon="6.21866">
        <ele>41</ele>
        <time>2017-06-14T06:48:22Z</time>
      </trkpt>
      <trkpt lat="43.1608" lon="6.21905">
        <ele>44</ele>
        <time>2017-06-14T06:48:35Z</time>
      </trkpt>
      <trkpt lat="43.16024" lon="6.21927">
        <ele>41</ele>
        <time>2017-06-14T06:48:43Z</time>
      </trkpt>
      <trkpt lat="43.16001" lon="6.21945">
        <ele>41</ele>
        <time>2017-06-14T06:48:48Z</time>
      </trkpt>
      <trkpt lat="43.15922" lon="6.22037">
        <ele>43</ele>
        <time>2017-06-14T06:49:05Z</time>
      </trkpt>
      <trkpt lat="43.15903" lon="6.22069">
        <ele>40</ele>
        <time>2017-06-14T06:49:10Z</time>
      </trkpt>
      <trkpt lat="43.15846" lon="6.22163">
        <ele>38</ele>
        <time>2017-06-14T06:49:23Z</time>
      </trkpt>
      <trkpt lat="43.15729" lon="6.22372">
        <ele>38</ele>
        <time>2017-06-14T06:49:51Z</time>
      </trkpt>
      <trkpt lat="43.15707" lon="6.22397">
        <ele>39</ele>
        <time>2017-06-14T06:49:57Z</time>
      </trkpt>
      <trkpt lat="43.15694" lon="6.2241">
        <ele>38</ele>
        <time>2017-06-14T06:50:03Z</time>
      </trkpt>
      <trkpt lat="43.15696" lon="6.22415">
        <ele>40</ele>
        <time>2017-06-14T06:50:09Z</time>
      </trkpt>
      <trkpt lat="43.15698" lon="6.2242">
        <ele>42</ele>
        <time>2017-06-14T06:50:13Z</time>
      </trkpt>
      <trkpt lat="43.15698" lon="6.22425">
        <ele>42</ele>
        <time>2017-06-14T06:50:18Z</time>
      </trkpt>
      <trkpt lat="43.157" lon="6.22428">
        <ele>39</ele>
        <time>2017-06-14T06:50:44Z</time>
      </trkpt>
      <trkpt lat="43.15702" lon="6.22426">
        <ele>40</ele>
        <time>2017-06-14T06:50:54Z</time>
      </trkpt>
      <trkpt lat="43.15703" lon="6.22422">
        <ele>43</ele>
        <time>2017-06-14T06:51:17Z</time>
      </trkpt>
      <trkpt lat="43.15702" lon="6.22418">
        <ele>42</ele>
        <time>2017-06-14T06:51:21Z</time>
      </trkpt>
      <trkpt lat="43.157" lon="6.22414">
        <ele>38</ele>
        <time>2017-06-14T06:51:24Z</time>
      </trkpt>
      <trkpt lat="43.15695" lon="6.2241">
        <ele>36</ele>
        <time>2017-06-14T06:51:32Z</time>
      </trkpt>
      <trkpt lat="43.15691" lon="6.22411">
        <ele>37</ele>
        <time>2017-06-14T06:51:35Z</time>
      </trkpt>
      <trkpt lat="43.1569" lon="6.22414">
        <ele>38</ele>
        <time>2017-06-14T06:51:38Z</time>
      </trkpt>
      <trkpt lat="43.15686" lon="6.22415">
        <ele>38</ele>
        <time>2017-06-14T06:51:44Z</time>
      </trkpt>
      <trkpt lat="43.15672" lon="6.22425">
        <ele>33</ele>
        <time>2017-06-14T06:51:51Z</time>
      </trkpt>
      <trkpt lat="43.15571" lon="6.22485">
        <ele>32</ele>
        <time>2017-06-14T06:52:15Z</time>
      </trkpt>
      <trkpt lat="43.15488" lon="6.2256">
        <ele>35</ele>
        <time>2017-06-14T06:52:29Z</time>
      </trkpt>
      <trkpt lat="43.15314" lon="6.22676">
        <ele>29</ele>
        <time>2017-06-14T06:52:59Z</time>
      </trkpt>
      <trkpt lat="43.15227" lon="6.22726">
        <ele>28</ele>
        <time>2017-06-14T06:53:13Z</time>
      </trkpt>
      <trkpt lat="43.15194" lon="6.22735">
        <ele>29</ele>
        <time>2017-06-14T06:53:18Z</time>
      </trkpt>
      <trkpt lat="43.15048" lon="6.22764">
        <ele>34</ele>
        <time>2017-06-14T06:53:41Z</time>
      </trkpt>
      <trkpt lat="43.14878" lon="6.22829">
        <ele>31</ele>
        <time>2017-06-14T06:54:11Z</time>
      </trkpt>
      <trkpt lat="43.14847" lon="6.22834">
        <ele>32</ele>
        <time>2017-06-14T06:54:16Z</time>
      </trkpt>
      <trkpt lat="43.14706" lon="6.22861">
        <ele>27</ele>
        <time>2017-06-14T06:54:39Z</time>
      </trkpt>
      <trkpt lat="43.14658" lon="6.2288">
        <ele>24</ele>
        <time>2017-06-14T06:54:48Z</time>
      </trkpt>
      <trkpt lat="43.14476" lon="6.22949">
        <ele>22</ele>
        <time>2017-06-14T06:55:18Z</time>
      </trkpt>
      <trkpt lat="43.14391" lon="6.22994">
        <ele>21</ele>
        <time>2017-06-14T06:55:33Z</time>
      </trkpt>
      <trkpt lat="43.14383" lon="6.23001">
        <ele>20</ele>
        <time>2017-06-14T06:55:35Z</time>
      </trkpt>
      <trkpt lat="43.14367" lon="6.23003">
        <ele>20</ele>
        <time>2017-06-14T06:55:38Z</time>
      </trkpt>
      <trkpt lat="43.14349" lon="6.23011">
        <ele>20</ele>
        <time>2017-06-14T06:55:42Z</time>
      </trkpt>
      <trkpt lat="43.14301" lon="6.2305">
        <ele>23</ele>
        <time>2017-06-14T06:55:52Z</time>
      </trkpt>
      <trkpt lat="43.14197" lon="6.23138">
        <ele>22</ele>
        <time>2017-06-14T06:56:13Z</time>
      </trkpt>
      <trkpt lat="43.14159" lon="6.2316">
        <ele>27</ele>
        <time>2017-06-14T06:56:21Z</time>
      </trkpt>
      <trkpt lat="43.14143" lon="6.23159">
        <ele>26</ele>
        <time>2017-06-14T06:56:24Z</time>
      </trkpt>
      <trkpt lat="43.1412" lon="6.23157">
        <ele>25</ele>
        <time>2017-06-14T06:56:28Z</time>
      </trkpt>
      <trkpt lat="43.14091" lon="6.23155">
        <ele>26</ele>
        <time>2017-06-14T06:56:34Z</time>
      </trkpt>
      <trkpt lat="43.14079" lon="6.23164">
        <ele>24</ele>
        <time>2017-06-14T06:56:37Z</time>
      </trkpt>
      <trkpt lat="43.14073" lon="6.23172">
        <ele>23</ele>
        <time>2017-06-14T06:56:39Z</time>
      </trkpt>
      <trkpt lat="43.14041" lon="6.2323">
        <ele>27</ele>
        <time>2017-06-14T06:56:54Z</time>
      </trkpt>
      <trkpt lat="43.14029" lon="6.23242">
        <ele>26</ele>
        <time>2017-06-14T06:56:58Z</time>
      </trkpt>
      <trkpt lat="43.14025" lon="6.23245">
        <ele>26</ele>
        <time>2017-06-14T06:56:59Z</time>
      </trkpt>
      <trkpt lat="43.13999" lon="6.23273">
        <ele>31</ele>
        <time>2017-06-14T06:57:07Z</time>
      </trkpt>
      <trkpt lat="43.13948" lon="6.23316">
        <ele>35</ele>
        <time>2017-06-14T06:57:20Z</time>
      </trkpt>
      <trkpt lat="43.13874" lon="6.23377">
        <ele>32</ele>
        <time>2017-06-14T06:57:44Z</time>
      </trkpt>
      <trkpt lat="43.13875" lon="6.23385">
        <ele>30</ele>
        <time>2017-06-14T06:57:46Z</time>
      </trkpt>
      <trkpt lat="43.13882" lon="6.23419">
        <ele>28</ele>
        <time>2017-06-14T06:57:53Z</time>
      </trkpt>
      <trkpt lat="43.13899" lon="6.23459">
        <ele>28</ele>
        <time>2017-06-14T06:58:00Z</time>
      </trkpt>
      <trkpt lat="43.13911" lon="6.23501">
        <ele>27</ele>
        <time>2017-06-14T06:58:07Z</time>
      </trkpt>
      <trkpt lat="43.13915" lon="6.23522">
        <ele>28</ele>
        <time>2017-06-14T06:58:12Z</time>
      </trkpt>
      <trkpt lat="43.13914" lon="6.23525">
        <ele>27</ele>
        <time>2017-06-14T06:58:14Z</time>
      </trkpt>
      <trkpt lat="43.13908" lon="6.23529">
        <ele>26</ele>
        <time>2017-06-14T06:58:16Z</time>
      </trkpt>
      <trkpt lat="43.1389" lon="6.23536">
        <ele>27</ele>
        <time>2017-06-14T06:58:22Z</time>
      </trkpt>
      <trkpt lat="43.13887" lon="6.23534">
        <ele>28</ele>
        <time>2017-06-14T06:58:24Z</time>
      </trkpt>
      <trkpt lat="43.13885" lon="6.2353">
        <ele>29</ele>
        <time>2017-06-14T06:58:26Z</time>
      </trkpt>
      <trkpt lat="43.13882" lon="6.23517">
        <ele>28</ele>
        <time>2017-06-14T06:58:29Z</time>
      </trkpt>
      <trkpt lat="43.13882" lon="6.23512">
        <ele>28</ele>
        <time>2017-06-14T06:58:30Z</time>
      </trkpt>
      <trkpt lat="43.13872" lon="6.23478">
        <ele>26</ele>
        <time>2017-06-14T06:58:41Z</time>
      </trkpt>
      <trkpt lat="43.13868" lon="6.23455">
        <ele>23</ele>
        <time>2017-06-14T06:58:47Z</time>
      </trkpt>
      <trkpt lat="43.1386" lon="6.23437">
        <ele>19</ele>
        <time>2017-06-14T06:58:51Z</time>
      </trkpt>
      <trkpt lat="43.13851" lon="6.2342">
        <ele>18</ele>
        <time>2017-06-14T06:58:54Z</time>
      </trkpt>
      <trkpt lat="43.1385" lon="6.2341">
        <ele>19</ele>
        <time>2017-06-14T06:58:57Z</time>
      </trkpt>
      <trkpt lat="43.13848" lon="6.23407">
        <ele>19</ele>
        <time>2017-06-14T06:59:00Z</time>
      </trkpt>
      <trkpt lat="43.13844" lon="6.23407">
        <ele>20</ele>
        <time>2017-06-14T06:59:09Z</time>
      </trkpt>
      <trkpt lat="43.1384" lon="6.23406">
        <ele>22</ele>
        <time>2017-06-14T06:59:12Z</time>
      </trkpt>
      <trkpt lat="43.13837" lon="6.23407">
        <ele>23</ele>
        <time>2017-06-14T06:59:15Z</time>
      </trkpt>
      <trkpt lat="43.13829" lon="6.23412">
        <ele>20</ele>
        <time>2017-06-14T06:59:22Z</time>
      </trkpt>
      <trkpt lat="43.13828" lon="6.23418">
        <ele>23</ele>
        <time>2017-06-14T06:59:26Z</time>
      </trkpt>
      <trkpt lat="43.13825" lon="6.23422">
        <ele>26</ele>
        <time>2017-06-14T06:59:29Z</time>
      </trkpt>
      <trkpt lat="43.13823" lon="6.23425">
        <ele>29</ele>
        <time>2017-06-14T06:59:32Z</time>
      </trkpt>
      <trkpt lat="43.13819" lon="6.23427">
        <ele>31</ele>
        <time>2017-06-14T06:59:35Z</time>
      </trkpt>
      <trkpt lat="43.13806" lon="6.23443">
        <ele>34</ele>
        <time>2017-06-14T06:59:49Z</time>
      </trkpt>
      <trkpt lat="43.13804" lon="6.23445">
        <ele>34</ele>
        <time>2017-06-14T06:59:52Z</time>
      </trkpt>
      <trkpt lat="43.13803" lon="6.23449">
        <ele>33</ele>
        <time>2017-06-14T06:59:55Z</time>
      </trkpt>
      <trkpt lat="43.13801" lon="6.23452">
        <ele>32</ele>
        <time>2017-06-14T06:59:57Z</time>
      </trkpt>
      <trkpt lat="43.13801" lon="6.23456">
        <ele>32</ele>
        <time>2017-06-14T07:00:01Z</time>
      </trkpt>
      <trkpt lat="43.13803" lon="6.2346">
        <ele>31</ele>
        <time>2017-06-14T07:00:05Z</time>
      </trkpt>
      <trkpt lat="43.13801" lon="6.23463">
        <ele>26</ele>
        <time>2017-06-14T07:00:17Z</time>
      </trkpt>
      <trkpt lat="43.13796" lon="6.23464">
        <ele>27</ele>
        <time>2017-06-14T07:00:21Z</time>
      </trkpt>
      <trkpt lat="43.13785" lon="6.23467">
        <ele>26</ele>
        <time>2017-06-14T07:00:30Z</time>
      </trkpt>
      <trkpt lat="43.13782" lon="6.23464">
        <ele>23</ele>
        <time>2017-06-14T07:00:34Z</time>
      </trkpt>
      <trkpt lat="43.13779" lon="6.23462">
        <ele>22</ele>
        <time>2017-06-14T07:00:39Z</time>
      </trkpt>
      <trkpt lat="43.13777" lon="6.23464">
        <ele>24</ele>
        <time>2017-06-14T07:00:46Z</time>
      </trkpt>
      <trkpt lat="43.13775" lon="6.23468">
        <ele>29</ele>
        <time>2017-06-14T07:00:53Z</time>
      </trkpt>
      <trkpt lat="43.13767" lon="6.23474">
        <ele>31</ele>
        <time>2017-06-14T07:00:57Z</time>
      </trkpt>
      <trkpt lat="43.13754" lon="6.23486">
        <ele>32</ele>
        <time>2017-06-14T07:01:01Z</time>
      </trkpt>
      <trkpt lat="43.1364" lon="6.23574">
        <ele>27</ele>
        <time>2017-06-14T07:01:30Z</time>
      </trkpt>
      <trkpt lat="43.13584" lon="6.2362">
        <ele>23</ele>
        <time>2017-06-14T07:01:44Z</time>
      </trkpt>
      <trkpt lat="43.13464" lon="6.23713">
        <ele>23</ele>
        <time>2017-06-14T07:02:12Z</time>
      </trkpt>
      <trkpt lat="43.13446" lon="6.23709">
        <ele>23</ele>
        <time>2017-06-14T07:02:16Z</time>
      </trkpt>
      <trkpt lat="43.1344" lon="6.23716">
        <ele>22</ele>
        <time>2017-06-14T07:02:18Z</time>
      </trkpt>
      <trkpt lat="43.13417" lon="6.23752">
        <ele>22</ele>
        <time>2017-06-14T07:02:26Z</time>
      </trkpt>
      <trkpt lat="43.13388" lon="6.23768">
        <ele>21</ele>
        <time>2017-06-14T07:02:32Z</time>
      </trkpt>
      <trkpt lat="43.13295" lon="6.23824">
        <ele>20</ele>
        <time>2017-06-14T07:02:50Z</time>
      </trkpt>
      <trkpt lat="43.13217" lon="6.23871">
        <ele>17</ele>
        <time>2017-06-14T07:03:08Z</time>
      </trkpt>
      <trkpt lat="43.13214" lon="6.23872">
        <ele>14</ele>
        <time>2017-06-14T07:03:41Z</time>
      </trkpt>
      <trkpt lat="43.1321" lon="6.23874">
        <ele>16</ele>
        <time>2017-06-14T07:04:21Z</time>
      </trkpt>
      <trkpt lat="43.13209" lon="6.23872">
        <ele>17</ele>
        <time>2017-06-14T07:05:08Z</time>
      </trkpt>
      <trkpt lat="43.13055" lon="6.23965">
        <ele>15</ele>
        <time>2017-06-14T07:05:38Z</time>
      </trkpt>
      <trkpt lat="43.1291" lon="6.24062">
        <ele>9</ele>
        <time>2017-06-14T07:06:02Z</time>
      </trkpt>
      <trkpt lat="43.12886" lon="6.24096">
        <ele>13</ele>
        <time>2017-06-14T07:06:07Z</time>
      </trkpt>
      <trkpt lat="43.12859" lon="6.24147">
        <ele>15</ele>
        <time>2017-06-14T07:06:14Z</time>
      </trkpt>
      <trkpt lat="43.12816" lon="6.2427">
        <ele>8</ele>
        <time>2017-06-14T07:06:30Z</time>
      </trkpt>
      <trkpt lat="43.12739" lon="6.24475">
        <ele>6</ele>
        <time>2017-06-14T07:06:59Z</time>
      </trkpt>
      <trkpt lat="43.12715" lon="6.24517">
        <ele>7</ele>
        <time>2017-06-14T07:07:06Z</time>
      </trkpt>
      <trkpt lat="43.12645" lon="6.24598">
        <ele>10</ele>
        <time>2017-06-14T07:07:22Z</time>
      </trkpt>
      <trkpt lat="43.1263" lon="6.24607">
        <ele>11</ele>
        <time>2017-06-14T07:07:25Z</time>
      </trkpt>
      <trkpt lat="43.12615" lon="6.24608">
        <ele>11</ele>
        <time>2017-06-14T07:07:28Z</time>
      </trkpt>
      <trkpt lat="43.1261" lon="6.24611">
        <ele>11</ele>
        <time>2017-06-14T07:07:29Z</time>
      </trkpt>
      <trkpt lat="43.12607" lon="6.24617">
        <ele>11</ele>
        <time>2017-06-14T07:07:30Z</time>
      </trkpt>
      <trkpt lat="43.12606" lon="6.24623">
        <ele>12</ele>
        <time>2017-06-14T07:07:31Z</time>
      </trkpt>
      <trkpt lat="43.12608" lon="6.24658">
        <ele>9</ele>
        <time>2017-06-14T07:07:36Z</time>
      </trkpt>
      <trkpt lat="43.12588" lon="6.24724">
        <ele>9</ele>
        <time>2017-06-14T07:07:47Z</time>
      </trkpt>
      <trkpt lat="43.12568" lon="6.24814">
        <ele>14</ele>
        <time>2017-06-14T07:08:03Z</time>
      </trkpt>
      <trkpt lat="43.12562" lon="6.24852">
        <ele>14</ele>
        <time>2017-06-14T07:08:09Z</time>
      </trkpt>
      <trkpt lat="43.12562" lon="6.24902">
        <ele>12</ele>
        <time>2017-06-14T07:08:16Z</time>
      </trkpt>
      <trkpt lat="43.12567" lon="6.25002">
        <ele>11</ele>
        <time>2017-06-14T07:08:28Z</time>
      </trkpt>
      <trkpt lat="43.12582" lon="6.25059">
        <ele>10</ele>
        <time>2017-06-14T07:08:35Z</time>
      </trkpt>
      <trkpt lat="43.12606" lon="6.25137">
        <ele>10</ele>
        <time>2017-06-14T07:08:45Z</time>
      </trkpt>
      <trkpt lat="43.12605" lon="6.25156">
        <ele>9</ele>
        <time>2017-06-14T07:08:48Z</time>
      </trkpt>
      <trkpt lat="43.12603" lon="6.25167">
        <ele>8</ele>
        <time>2017-06-14T07:08:50Z</time>
      </trkpt>
      <trkpt lat="43.12606" lon="6.25177">
        <ele>7</ele>
        <time>2017-06-14T07:08:52Z</time>
      </trkpt>
      <trkpt lat="43.12612" lon="6.25193">
        <ele>5</ele>
        <time>2017-06-14T07:08:55Z</time>
      </trkpt>
      <trkpt lat="43.1261" lon="6.25214">
        <ele>5</ele>
        <time>2017-06-14T07:08:58Z</time>
      </trkpt>
      <trkpt lat="43.12604" lon="6.25284">
        <ele>4</ele>
        <time>2017-06-14T07:09:08Z</time>
      </trkpt>
      <trkpt lat="43.12587" lon="6.25431">
        <ele>16</ele>
        <time>2017-06-14T07:09:33Z</time>
      </trkpt>
      <trkpt lat="43.12573" lon="6.2548">
        <ele>19</ele>
        <time>2017-06-14T07:09:42Z</time>
      </trkpt>
      <trkpt lat="43.12564" lon="6.25509">
        <ele>21</ele>
        <time>2017-06-14T07:09:47Z</time>
      </trkpt>
      <trkpt lat="43.12564" lon="6.25535">
        <ele>21</ele>
        <time>2017-06-14T07:09:51Z</time>
      </trkpt>
      <trkpt lat="43.12565" lon="6.25569">
        <ele>21</ele>
        <time>2017-06-14T07:09:56Z</time>
      </trkpt>
      <trkpt lat="43.12577" lon="6.25626">
        <ele>19</ele>
        <time>2017-06-14T07:10:06Z</time>
      </trkpt>
      <trkpt lat="43.12598" lon="6.25673">
        <ele>22</ele>
        <time>2017-06-14T07:10:15Z</time>
      </trkpt>
      <trkpt lat="43.12628" lon="6.25721">
        <ele>21</ele>
        <time>2017-06-14T07:10:26Z</time>
      </trkpt>
      <trkpt lat="43.12652" lon="6.25746">
        <ele>22</ele>
        <time>2017-06-14T07:10:32Z</time>
      </trkpt>
      <trkpt lat="43.12692" lon="6.25782">
        <ele>23</ele>
        <time>2017-06-14T07:10:41Z</time>
      </trkpt>
      <trkpt lat="43.12694" lon="6.25803">
        <ele>21</ele>
        <time>2017-06-14T07:10:44Z</time>
      </trkpt>
      <trkpt lat="43.12698" lon="6.25889">
        <ele>20</ele>
        <time>2017-06-14T07:10:56Z</time>
      </trkpt>
      <trkpt lat="43.12712" lon="6.25947">
        <ele>21</ele>
        <time>2017-06-14T07:11:05Z</time>
      </trkpt>
      <trkpt lat="43.12716" lon="6.25952">
        <ele>21</ele>
        <time>2017-06-14T07:11:06Z</time>
      </trkpt>
      <trkpt lat="43.12776" lon="6.26052">
        <ele>23</ele>
        <time>2017-06-14T07:11:26Z</time>
      </trkpt>
      <trkpt lat="43.12791" lon="6.26097">
        <ele>23</ele>
        <time>2017-06-14T07:11:33Z</time>
      </trkpt>
      <trkpt lat="43.12802" lon="6.26119">
        <ele>18</ele>
        <time>2017-06-14T07:11:38Z</time>
      </trkpt>
      <trkpt lat="43.1285" lon="6.26196">
        <ele>23</ele>
        <time>2017-06-14T07:11:57Z</time>
      </trkpt>
      <trkpt lat="43.12861" lon="6.26227">
        <ele>28</ele>
        <time>2017-06-14T07:12:04Z</time>
      </trkpt>
      <trkpt lat="43.12866" lon="6.26252">
        <ele>30</ele>
        <time>2017-06-14T07:12:09Z</time>
      </trkpt>
      <trkpt lat="43.12872" lon="6.26286">
        <ele>30</ele>
        <time>2017-06-14T07:12:15Z</time>
      </trkpt>
      <trkpt lat="43.12895" lon="6.26348">
        <ele>29</ele>
        <time>2017-06-14T07:12:26Z</time>
      </trkpt>
      <trkpt lat="43.12899" lon="6.26369">
        <ele>31</ele>
        <time>2017-06-14T07:12:30Z</time>
      </trkpt>
      <trkpt lat="43.129" lon="6.26401">
        <ele>30</ele>
        <time>2017-06-14T07:12:36Z</time>
      </trkpt>
      <trkpt lat="43.12898" lon="6.26426">
        <ele>30</ele>
        <time>2017-06-14T07:12:41Z</time>
      </trkpt>
      <trkpt lat="43.1289" lon="6.26442">
        <ele>31</ele>
        <time>2017-06-14T07:12:44Z</time>
      </trkpt>
      <trkpt lat="43.1288" lon="6.26464">
        <ele>32</ele>
        <time>2017-06-14T07:12:47Z</time>
      </trkpt>
      <trkpt lat="43.1288" lon="6.26493">
        <ele>33</ele>
        <time>2017-06-14T07:12:50Z</time>
      </trkpt>
      <trkpt lat="43.12883" lon="6.26564">
        <ele>34</ele>
        <time>2017-06-14T07:12:57Z</time>
      </trkpt>
      <trkpt lat="43.12855" lon="6.26627">
        <ele>35</ele>
        <time>2017-06-14T07:13:05Z</time>
      </trkpt>
      <trkpt lat="43.12857" lon="6.26635">
        <ele>34</ele>
        <time>2017-06-14T07:13:06Z</time>
      </trkpt>
      <trkpt lat="43.12862" lon="6.2664">
        <ele>35</ele>
        <time>2017-06-14T07:13:07Z</time>
      </trkpt>
      <trkpt lat="43.12868" lon="6.2664">
        <ele>35</ele>
        <time>2017-06-14T07:13:08Z</time>
      </trkpt>
      <trkpt lat="43.1288" lon="6.26632">
        <ele>37</ele>
        <time>2017-06-14T07:13:10Z</time>
      </trkpt>
      <trkpt lat="43.12892" lon="6.26616">
        <ele>35</ele>
        <time>2017-06-14T07:13:13Z</time>
      </trkpt>
      <trkpt lat="43.12926" lon="6.2657">
        <ele>32</ele>
        <time>2017-06-14T07:13:20Z</time>
      </trkpt>
      <trkpt lat="43.12934" lon="6.26564">
        <ele>32</ele>
        <time>2017-06-14T07:13:21Z</time>
      </trkpt>
      <trkpt lat="43.12942" lon="6.26566">
        <ele>30</ele>
        <time>2017-06-14T07:13:22Z</time>
      </trkpt>
      <trkpt lat="43.12957" lon="6.26572">
        <ele>28</ele>
        <time>2017-06-14T07:13:24Z</time>
      </trkpt>
      <trkpt lat="43.12968" lon="6.26591">
        <ele>26</ele>
        <time>2017-06-14T07:13:26Z</time>
      </trkpt>
      <trkpt lat="43.12975" lon="6.26625">
        <ele>23</ele>
        <time>2017-06-14T07:13:29Z</time>
      </trkpt>
      <trkpt lat="43.12992" lon="6.26681">
        <ele>22</ele>
        <time>2017-06-14T07:13:34Z</time>
      </trkpt>
      <trkpt lat="43.13011" lon="6.26741">
        <ele>21</ele>
        <time>2017-06-14T07:13:40Z</time>
      </trkpt>
      <trkpt lat="43.1301" lon="6.26789">
        <ele>20</ele>
        <time>2017-06-14T07:13:45Z</time>
      </trkpt>
      <trkpt lat="43.13008" lon="6.26839">
        <ele>18</ele>
        <time>2017-06-14T07:13:50Z</time>
      </trkpt>
      <trkpt lat="43.12991" lon="6.26889">
        <ele>18</ele>
        <time>2017-06-14T07:13:55Z</time>
      </trkpt>
      <trkpt lat="43.12923" lon="6.2709">
        <ele>15</ele>
        <time>2017-06-14T07:14:18Z</time>
      </trkpt>
      <trkpt lat="43.12924" lon="6.27105">
        <ele>15</ele>
        <time>2017-06-14T07:14:20Z</time>
      </trkpt>
      <trkpt lat="43.12929" lon="6.27118">
        <ele>16</ele>
        <time>2017-06-14T07:14:22Z</time>
      </trkpt>
      <trkpt lat="43.12937" lon="6.27125">
        <ele>17</ele>
        <time>2017-06-14T07:14:24Z</time>
      </trkpt>
      <trkpt lat="43.12966" lon="6.27136">
        <ele>16</ele>
        <time>2017-06-14T07:14:30Z</time>
      </trkpt>
      <trkpt lat="43.12988" lon="6.27151">
        <ele>19</ele>
        <time>2017-06-14T07:14:34Z</time>
      </trkpt>
      <trkpt lat="43.12995" lon="6.27169">
        <ele>20</ele>
        <time>2017-06-14T07:14:36Z</time>
      </trkpt>
      <trkpt lat="43.12996" lon="6.27185">
        <ele>20</ele>
        <time>2017-06-14T07:14:38Z</time>
      </trkpt>
      <trkpt lat="43.12993" lon="6.27251">
        <ele>20</ele>
        <time>2017-06-14T07:14:47Z</time>
      </trkpt>
      <trkpt lat="43.12995" lon="6.2726">
        <ele>17</ele>
        <time>2017-06-14T07:14:49Z</time>
      </trkpt>
      <trkpt lat="43.12991" lon="6.27273">
        <ele>16</ele>
        <time>2017-06-14T07:14:51Z</time>
      </trkpt>
      <trkpt lat="43.12989" lon="6.27278">
        <ele>16</ele>
        <time>2017-06-14T07:14:52Z</time>
      </trkpt>
      <trkpt lat="43.1298" lon="6.27283">
        <ele>17</ele>
        <time>2017-06-14T07:14:54Z</time>
      </trkpt>
      <trkpt lat="43.12942" lon="6.27295">
        <ele>18</ele>
        <time>2017-06-14T07:15:01Z</time>
      </trkpt>
      <trkpt lat="43.12877" lon="6.27314">
        <ele>16</ele>
        <time>2017-06-14T07:15:10Z</time>
      </trkpt>
      <trkpt lat="43.12859" lon="6.27337">
        <ele>16</ele>
        <time>2017-06-14T07:15:13Z</time>
      </trkpt>
      <trkpt lat="43.12846" lon="6.27367">
        <ele>15</ele>
        <time>2017-06-14T07:15:16Z</time>
      </trkpt>
      <trkpt lat="43.12823" lon="6.27414">
        <ele>15</ele>
        <time>2017-06-14T07:15:21Z</time>
      </trkpt>
      <trkpt lat="43.12737" lon="6.27579">
        <ele>17</ele>
        <time>2017-06-14T07:15:42Z</time>
      </trkpt>
      <trkpt lat="43.12716" lon="6.27637">
        <ele>16</ele>
        <time>2017-06-14T07:15:50Z</time>
      </trkpt>
      <trkpt lat="43.1271" lon="6.27663">
        <ele>14</ele>
        <time>2017-06-14T07:15:54Z</time>
      </trkpt>
      <trkpt lat="43.12693" lon="6.27713">
        <ele>15</ele>
        <time>2017-06-14T07:16:01Z</time>
      </trkpt>
      <trkpt lat="43.12656" lon="6.27802">
        <ele>18</ele>
        <time>2017-06-14T07:16:13Z</time>
      </trkpt>
      <trkpt lat="43.12587" lon="6.27956">
        <ele>20</ele>
        <time>2017-06-14T07:16:42Z</time>
      </trkpt>
      <trkpt lat="43.12591" lon="6.2795">
        <ele>19</ele>
        <time>2017-06-14T07:16:45Z</time>
      </trkpt>
      <trkpt lat="43.12611" lon="6.27903">
        <ele>13</ele>
        <time>2017-06-14T07:16:57Z</time>
      </trkpt>
      <trkpt lat="43.12611" lon="6.27899">
        <ele>13</ele>
        <time>2017-06-14T07:17:12Z</time>
      </trkpt>
      <trkpt lat="43.12614" lon="6.279">
        <ele>12</ele>
        <time>2017-06-14T07:17:17Z</time>
      </trkpt>
      <trkpt lat="43.12612" lon="6.27899">
        <ele>8</ele>
        <time>2017-06-14T07:17:23Z</time>
      </trkpt>
      <trkpt lat="43.12597" lon="6.27929">
        <ele>12</ele>
        <time>2017-06-14T07:17:33Z</time>
      </trkpt>
      <trkpt lat="43.12558" lon="6.28014">
        <ele>18</ele>
        <time>2017-06-14T07:17:50Z</time>
      </trkpt>
      <trkpt lat="43.12555" lon="6.28017">
        <ele>17</ele>
        <time>2017-06-14T07:17:52Z</time>
      </trkpt>
      <trkpt lat="43.12552" lon="6.28015">
        <ele>18</ele>
        <time>2017-06-14T07:18:00Z</time>
      </trkpt>
      <trkpt lat="43.12553" lon="6.28016">
        <ele>23</ele>
        <time>2017-06-14T07:18:35Z</time>
      </trkpt>
      <trkpt lat="43.12553" lon="6.2802">
        <ele>22</ele>
        <time>2017-06-14T07:18:55Z</time>
      </trkpt>
      <trkpt lat="43.12551" lon="6.28025">
        <ele>21</ele>
        <time>2017-06-14T07:19:05Z</time>
      </trkpt>
      <trkpt lat="43.12548" lon="6.28037">
        <ele>18</ele>
        <time>2017-06-14T07:19:09Z</time>
      </trkpt>
      <trkpt lat="43.12534" lon="6.28099">
        <ele>17</ele>
        <time>2017-06-14T07:19:18Z</time>
      </trkpt>
      <trkpt lat="43.1252" lon="6.2823">
        <ele>17</ele>
        <time>2017-06-14T07:19:32Z</time>
      </trkpt>
      <trkpt lat="43.12493" lon="6.28381">
        <ele>15</ele>
        <time>2017-06-14T07:19:49Z</time>
      </trkpt>
      <trkpt lat="43.12458" lon="6.2862">
        <ele>17</ele>
        <time>2017-06-14T07:20:19Z</time>
      </trkpt>
      <trkpt lat="43.12441" lon="6.28821">
        <ele>21</ele>
        <time>2017-06-14T07:20:49Z</time>
      </trkpt>
      <trkpt lat="43.12436" lon="6.28849">
        <ele>22</ele>
        <time>2017-06-14T07:20:53Z</time>
      </trkpt>
      <trkpt lat="43.12423" lon="6.28879">
        <ele>22</ele>
        <time>2017-06-14T07:20:58Z</time>
      </trkpt>
      <trkpt lat="43.12396" lon="6.28923">
        <ele>22</ele>
        <time>2017-06-14T07:21:07Z</time>
      </trkpt>
      <trkpt lat="43.12311" lon="6.29049">
        <ele>25</ele>
        <time>2017-06-14T07:21:30Z</time>
      </trkpt>
      <trkpt lat="43.12286" lon="6.29125">
        <ele>25</ele>
        <time>2017-06-14T07:21:41Z</time>
      </trkpt>
      <trkpt lat="43.12283" lon="6.29161">
        <ele>25</ele>
        <time>2017-06-14T07:21:46Z</time>
      </trkpt>
      <trkpt lat="43.12278" lon="6.29293">
        <ele>24</ele>
        <time>2017-06-14T07:22:00Z</time>
      </trkpt>
      <trkpt lat="43.12047" lon="6.29605">
        <ele>21</ele>
        <time>2017-06-14T07:22:50Z</time>
      </trkpt>
      <trkpt lat="43.12039" lon="6.29627">
        <ele>18</ele>
        <time>2017-06-14T07:22:54Z</time>
      </trkpt>
      <trkpt lat="43.12017" lon="6.29674">
        <ele>15</ele>
        <time>2017-06-14T07:23:18Z</time>
      </trkpt>
      <trkpt lat="43.12" lon="6.29691">
        <ele>15</ele>
        <time>2017-06-14T07:23:22Z</time>
      </trkpt>
      <trkpt lat="43.11951" lon="6.29715">
        <ele>17</ele>
        <time>2017-06-14T07:23:30Z</time>
      </trkpt>
      <trkpt lat="43.11857" lon="6.29764">
        <ele>19</ele>
        <time>2017-06-14T07:23:47Z</time>
      </trkpt>
      <trkpt lat="43.11848" lon="6.29776">
        <ele>19</ele>
        <time>2017-06-14T07:23:49Z</time>
      </trkpt>
      <trkpt lat="43.11837" lon="6.29806">
        <ele>20</ele>
        <time>2017-06-14T07:23:53Z</time>
      </trkpt>
      <trkpt lat="43.1177" lon="6.30014">
        <ele>23</ele>
        <time>2017-06-14T07:24:23Z</time>
      </trkpt>
      <trkpt lat="43.11714" lon="6.30185">
        <ele>21</ele>
        <time>2017-06-14T07:24:53Z</time>
      </trkpt>
      <trkpt lat="43.11648" lon="6.30387">
        <ele>21</ele>
        <time>2017-06-14T07:25:20Z</time>
      </trkpt>
      <trkpt lat="43.11582" lon="6.3058">
        <ele>28</ele>
        <time>2017-06-14T07:25:50Z</time>
      </trkpt>
      <trkpt lat="43.11547" lon="6.30691">
        <ele>29</ele>
        <time>2017-06-14T07:26:07Z</time>
      </trkpt>
      <trkpt lat="43.11481" lon="6.30895">
        <ele>30</ele>
        <time>2017-06-14T07:26:37Z</time>
      </trkpt>
      <trkpt lat="43.11476" lon="6.30919">
        <ele>30</ele>
        <time>2017-06-14T07:26:41Z</time>
      </trkpt>
      <trkpt lat="43.11477" lon="6.3093">
        <ele>31</ele>
        <time>2017-06-14T07:26:43Z</time>
      </trkpt>
      <trkpt lat="43.11487" lon="6.30938">
        <ele>32</ele>
        <time>2017-06-14T07:26:45Z</time>
      </trkpt>
      <trkpt lat="43.11517" lon="6.3097">
        <ele>31</ele>
        <time>2017-06-14T07:26:54Z</time>
      </trkpt>
      <trkpt lat="43.11528" lon="6.30997">
        <ele>33</ele>
        <time>2017-06-14T07:27:00Z</time>
      </trkpt>
      <trkpt lat="43.11532" lon="6.31017">
        <ele>35</ele>
        <time>2017-06-14T07:27:04Z</time>
      </trkpt>
      <trkpt lat="43.11531" lon="6.31039">
        <ele>33</ele>
        <time>2017-06-14T07:27:08Z</time>
      </trkpt>
      <trkpt lat="43.11523" lon="6.31063">
        <ele>32</ele>
        <time>2017-06-14T07:27:11Z</time>
      </trkpt>
      <trkpt lat="43.1151" lon="6.31076">
        <ele>31</ele>
        <time>2017-06-14T07:27:13Z</time>
      </trkpt>
      <trkpt lat="43.11434" lon="6.3115">
        <ele>28</ele>
        <time>2017-06-14T07:27:24Z</time>
      </trkpt>
      <trkpt lat="43.114" lon="6.31222">
        <ele>24</ele>
        <time>2017-06-14T07:27:30Z</time>
      </trkpt>
      <trkpt lat="43.1132" lon="6.31388">
        <ele>15</ele>
        <time>2017-06-14T07:27:44Z</time>
      </trkpt>
      <trkpt lat="43.11233" lon="6.31567">
        <ele>13</ele>
        <time>2017-06-14T07:28:11Z</time>
      </trkpt>
      <trkpt lat="43.11197" lon="6.31651">
        <ele>12</ele>
        <time>2017-06-14T07:28:26Z</time>
      </trkpt>
      <trkpt lat="43.11196" lon="6.31657">
        <ele>13</ele>
        <time>2017-06-14T07:28:28Z</time>
      </trkpt>
      <trkpt lat="43.11198" lon="6.31663">
        <ele>13</ele>
        <time>2017-06-14T07:28:30Z</time>
      </trkpt>
      <trkpt lat="43.11206" lon="6.31676">
        <ele>15</ele>
        <time>2017-06-14T07:28:34Z</time>
      </trkpt>
      <trkpt lat="43.11215" lon="6.31694">
        <ele>15</ele>
        <time>2017-06-14T07:28:38Z</time>
      </trkpt>
      <trkpt lat="43.11224" lon="6.31703">
        <ele>15</ele>
        <time>2017-06-14T07:28:41Z</time>
      </trkpt>
      <trkpt lat="43.11241" lon="6.31708">
        <ele>15</ele>
        <time>2017-06-14T07:28:45Z</time>
      </trkpt>
      <trkpt lat="43.11364" lon="6.31737">
        <ele>17</ele>
        <time>2017-06-14T07:29:15Z</time>
      </trkpt>
      <trkpt lat="43.11391" lon="6.31796">
        <ele>14</ele>
        <time>2017-06-14T07:29:27Z</time>
      </trkpt>
      <trkpt lat="43.11416" lon="6.31874">
        <ele>19</ele>
        <time>2017-06-14T07:29:41Z</time>
      </trkpt>
      <trkpt lat="43.11437" lon="6.31919">
        <ele>26</ele>
        <time>2017-06-14T07:29:50Z</time>
      </trkpt>
      <trkpt lat="43.11466" lon="6.31966">
        <ele>27</ele>
        <time>2017-06-14T07:29:59Z</time>
      </trkpt>
      <trkpt lat="43.11487" lon="6.31985">
        <ele>27</ele>
        <time>2017-06-14T07:30:04Z</time>
      </trkpt>
      <trkpt lat="43.11568" lon="6.32058">
        <ele>30</ele>
        <time>2017-06-14T07:30:24Z</time>
      </trkpt>
      <trkpt lat="43.11597" lon="6.32097">
        <ele>33</ele>
        <time>2017-06-14T07:30:33Z</time>
      </trkpt>
      <trkpt lat="43.11649" lon="6.3214">
        <ele>33</ele>
        <time>2017-06-14T07:30:48Z</time>
      </trkpt>
      <trkpt lat="43.11681" lon="6.32162">
        <ele>37</ele>
        <time>2017-06-14T07:30:58Z</time>
      </trkpt>
      <trkpt lat="43.11706" lon="6.3218">
        <ele>38</ele>
        <time>2017-06-14T07:31:07Z</time>
      </trkpt>
      <trkpt lat="43.1172" lon="6.32202">
        <ele>40</ele>
        <time>2017-06-14T07:31:13Z</time>
      </trkpt>
      <trkpt lat="43.11736" lon="6.32222">
        <ele>42</ele>
        <time>2017-06-14T07:31:20Z</time>
      </trkpt>
      <trkpt lat="43.11764" lon="6.32245">
        <ele>42</ele>
        <time>2017-06-14T07:31:29Z</time>
      </trkpt>
      <trkpt lat="43.11835" lon="6.32298">
        <ele>43</ele>
        <time>2017-06-14T07:31:48Z</time>
      </trkpt>
      <trkpt lat="43.11915" lon="6.32365">
        <ele>50</ele>
        <time>2017-06-14T07:32:15Z</time>
      </trkpt>
      <trkpt lat="43.1197" lon="6.32412">
        <ele>54</ele>
        <time>2017-06-14T07:32:35Z</time>
      </trkpt>
      <trkpt lat="43.11991" lon="6.32435">
        <ele>55</ele>
        <time>2017-06-14T07:32:43Z</time>
      </trkpt>
      <trkpt lat="43.12029" lon="6.32482">
        <ele>59</ele>
        <time>2017-06-14T07:32:59Z</time>
      </trkpt>
      <trkpt lat="43.12036" lon="6.325">
        <ele>60</ele>
        <time>2017-06-14T07:33:04Z</time>
      </trkpt>
      <trkpt lat="43.12054" lon="6.32545">
        <ele>63</ele>
        <time>2017-06-14T07:33:16Z</time>
      </trkpt>
      <trkpt lat="43.12067" lon="6.3256">
        <ele>65</ele>
        <time>2017-06-14T07:33:21Z</time>
      </trkpt>
      <trkpt lat="43.1211" lon="6.32616">
        <ele>70</ele>
        <time>2017-06-14T07:33:40Z</time>
      </trkpt>
      <trkpt lat="43.12185" lon="6.32716">
        <ele>69</ele>
        <time>2017-06-14T07:34:08Z</time>
      </trkpt>
      <trkpt lat="43.12211" lon="6.32768">
        <ele>63</ele>
        <time>2017-06-14T07:34:14Z</time>
      </trkpt>
      <trkpt lat="43.12213" lon="6.3278">
        <ele>63</ele>
        <time>2017-06-14T07:34:15Z</time>
      </trkpt>
      <trkpt lat="43.12206" lon="6.32802">
        <ele>61</ele>
        <time>2017-06-14T07:34:17Z</time>
      </trkpt>
      <trkpt lat="43.1218" lon="6.3285">
        <ele>59</ele>
        <time>2017-06-14T07:34:22Z</time>
      </trkpt>
      <trkpt lat="43.12183" lon="6.32875">
        <ele>58</ele>
        <time>2017-06-14T07:34:24Z</time>
      </trkpt>
      <trkpt lat="43.12213" lon="6.32994">
        <ele>53</ele>
        <time>2017-06-14T07:34:33Z</time>
      </trkpt>
      <trkpt lat="43.12225" lon="6.33016">
        <ele>52</ele>
        <time>2017-06-14T07:34:35Z</time>
      </trkpt>
      <trkpt lat="43.12258" lon="6.3305">
        <ele>50</ele>
        <time>2017-06-14T07:34:39Z</time>
      </trkpt>
      <trkpt lat="43.12366" lon="6.33149">
        <ele>45</ele>
        <time>2017-06-14T07:34:52Z</time>
      </trkpt>
      <trkpt lat="43.1244" lon="6.33192">
        <ele>42</ele>
        <time>2017-06-14T07:35:01Z</time>
      </trkpt>
      <trkpt lat="43.12501" lon="6.33222">
        <ele>41</ele>
        <time>2017-06-14T07:35:09Z</time>
      </trkpt>
      <trkpt lat="43.12706" lon="6.33344">
        <ele>33</ele>
        <time>2017-06-14T07:35:35Z</time>
      </trkpt>
      <trkpt lat="43.1274" lon="6.33368">
        <ele>34</ele>
        <time>2017-06-14T07:35:40Z</time>
      </trkpt>
      <trkpt lat="43.12932" lon="6.33546">
        <ele>33</ele>
        <time>2017-06-14T07:36:20Z</time>
      </trkpt>
      <trkpt lat="43.12962" lon="6.33562">
        <ele>32</ele>
        <time>2017-06-14T07:36:25Z</time>
      </trkpt>
      <trkpt lat="43.12999" lon="6.33584">
        <ele>29</ele>
        <time>2017-06-14T07:36:31Z</time>
      </trkpt>
      <trkpt lat="43.13055" lon="6.33637">
        <ele>28</ele>
        <time>2017-06-14T07:36:42Z</time>
      </trkpt>
      <trkpt lat="43.13083" lon="6.33655">
        <ele>27</ele>
        <time>2017-06-14T07:36:47Z</time>
      </trkpt>
      <trkpt lat="43.13113" lon="6.33664">
        <ele>27</ele>
        <time>2017-06-14T07:36:52Z</time>
      </trkpt>
      <trkpt lat="43.13321" lon="6.33783">
        <ele>20</ele>
        <time>2017-06-14T07:37:22Z</time>
      </trkpt>
      <trkpt lat="43.13424" lon="6.33856">
        <ele>16</ele>
        <time>2017-06-14T07:37:40Z</time>
      </trkpt>
      <trkpt lat="43.13472" lon="6.33879">
        <ele>15</ele>
        <time>2017-06-14T07:37:48Z</time>
      </trkpt>
      <trkpt lat="43.1353" lon="6.33893">
        <ele>16</ele>
        <time>2017-06-14T07:37:59Z</time>
      </trkpt>
      <trkpt lat="43.13562" lon="6.33896">
        <ele>17</ele>
        <time>2017-06-14T07:38:06Z</time>
      </trkpt>
      <trkpt lat="43.13665" lon="6.33901">
        <ele>19</ele>
        <time>2017-06-14T07:38:26Z</time>
      </trkpt>
      <trkpt lat="43.13812" lon="6.33911">
        <ele>22</ele>
        <time>2017-06-14T07:38:56Z</time>
      </trkpt>
      <trkpt lat="43.13967" lon="6.33907">
        <ele>22</ele>
        <time>2017-06-14T07:39:26Z</time>
      </trkpt>
      <trkpt lat="43.14043" lon="6.33919">
        <ele>24</ele>
        <time>2017-06-14T07:39:40Z</time>
      </trkpt>
      <trkpt lat="43.14097" lon="6.33939">
        <ele>25</ele>
        <time>2017-06-14T07:39:51Z</time>
      </trkpt>
      <trkpt lat="43.14128" lon="6.33954">
        <ele>27</ele>
        <time>2017-06-14T07:39:59Z</time>
      </trkpt>
      <trkpt lat="43.14158" lon="6.33973">
        <ele>28</ele>
        <time>2017-06-14T07:40:07Z</time>
      </trkpt>
      <trkpt lat="43.14203" lon="6.33999">
        <ele>28</ele>
        <time>2017-06-14T07:42:21Z</time>
      </trkpt>
      <trkpt lat="43.14204" lon="6.33994">
        <ele>28</ele>
        <time>2017-06-14T07:42:22Z</time>
      </trkpt>
      <trkpt lat="43.14209" lon="6.33992">
        <ele>29</ele>
        <time>2017-06-14T07:42:58Z</time>
      </trkpt>
      <trkpt lat="43.14213" lon="6.33989">
        <ele>29</ele>
        <time>2017-06-14T07:43:00Z</time>
      </trkpt>
      <trkpt lat="43.14213" lon="6.33986">
        <ele>30</ele>
        <time>2017-06-14T07:43:05Z</time>
      </trkpt>
      <trkpt lat="43.14213" lon="6.33982">
        <ele>29</ele>
        <time>2017-06-14T07:43:12Z</time>
      </trkpt>
      <trkpt lat="43.14205" lon="6.33882">
        <ele>32</ele>
        <time>2017-06-14T07:43:34Z</time>
      </trkpt>
      <trkpt lat="43.14204" lon="6.33846">
        <ele>33</ele>
        <time>2017-06-14T07:43:41Z</time>
      </trkpt>
      <trkpt lat="43.14206" lon="6.33841">
        <ele>33</ele>
        <time>2017-06-14T07:43:43Z</time>
      </trkpt>
      <trkpt lat="43.14208" lon="6.33838">
        <ele>35</ele>
        <time>2017-06-14T07:44:34Z</time>
      </trkpt>
      <trkpt lat="43.1421" lon="6.33842">
        <ele>35</ele>
        <time>2017-06-14T07:44:37Z</time>
      </trkpt>
      <trkpt lat="43.14214" lon="6.33843">
        <ele>35</ele>
        <time>2017-06-14T07:44:39Z</time>
      </trkpt>
      <trkpt lat="43.14283" lon="6.33834">
        <ele>41</ele>
        <time>2017-06-14T07:45:09Z</time>
      </trkpt>
      <trkpt lat="43.14356" lon="6.33827">
        <ele>47</ele>
        <time>2017-06-14T07:45:39Z</time>
      </trkpt>
      <trkpt lat="43.1443" lon="6.33833">
        <ele>53</ele>
        <time>2017-06-14T07:46:09Z</time>
      </trkpt>
      <trkpt lat="43.14445" lon="6.33833">
        <ele>53</ele>
        <time>2017-06-14T07:46:14Z</time>
      </trkpt>
      <trkpt lat="43.14451" lon="6.33826">
        <ele>53</ele>
        <time>2017-06-14T07:46:18Z</time>
      </trkpt>
      <trkpt lat="43.14451" lon="6.33822">
        <ele>53</ele>
        <time>2017-06-14T07:46:20Z</time>
      </trkpt>
      <trkpt lat="43.14449" lon="6.33819">
        <ele>53</ele>
        <time>2017-06-14T07:46:23Z</time>
      </trkpt>
      <trkpt lat="43.14449" lon="6.33819">
        <ele>53</ele>
        <time>2017-06-14T07:47:25Z</time>
      </trkpt>
      <trkpt lat="43.14452" lon="6.33833">
        <ele>55</ele>
        <time>2017-06-14T07:47:50Z</time>
      </trkpt>
      <trkpt lat="43.14455" lon="6.3383">
        <ele>49</ele>
        <time>2017-06-14T07:47:52Z</time>
      </trkpt>
      <trkpt lat="43.14458" lon="6.33829">
        <ele>44</ele>
        <time>2017-06-14T07:48:10Z</time>
      </trkpt>
      <trkpt lat="43.14458" lon="6.33825">
        <ele>41</ele>
        <time>2017-06-14T07:49:00Z</time>
      </trkpt>
      <trkpt lat="43.14455" lon="6.33827">
        <ele>41</ele>
        <time>2017-06-14T07:49:09Z</time>
      </trkpt>
      <trkpt lat="43.14452" lon="6.33826">
        <ele>47</ele>
        <time>2017-06-14T07:49:17Z</time>
      </trkpt>
      <trkpt lat="43.1445" lon="6.33821">
        <ele>47</ele>
        <time>2017-06-14T07:49:20Z</time>
      </trkpt>
      <trkpt lat="43.14448" lon="6.33819">
        <ele>47</ele>
        <time>2017-06-14T07:49:22Z</time>
      </trkpt>
      <trkpt lat="43.14444" lon="6.33813">
        <ele>45</ele>
        <time>2017-06-14T07:49:28Z</time>
      </trkpt>
      <trkpt lat="43.14444" lon="6.33817">
        <ele>42</ele>
        <time>2017-06-14T07:53:04Z</time>
      </trkpt>
      <trkpt lat="43.14446" lon="6.3382">
        <ele>44</ele>
        <time>2017-06-14T07:53:06Z</time>
      </trkpt>
      <trkpt lat="43.14452" lon="6.33823">
        <ele>45</ele>
        <time>2017-06-14T07:53:13Z</time>
      </trkpt>
      <trkpt lat="43.14456" lon="6.33833">
        <ele>44</ele>
        <time>2017-06-14T07:56:58Z</time>
      </trkpt>
      <trkpt lat="43.14458" lon="6.33829">
        <ele>45</ele>
        <time>2017-06-14T07:58:52Z</time>
      </trkpt>
      <trkpt lat="43.14458" lon="6.33825">
        <ele>45</ele>
        <time>2017-06-14T08:00:13Z</time>
      </trkpt>
      <trkpt lat="43.14459" lon="6.33821">
        <ele>45</ele>
        <time>2017-06-14T08:00:17Z</time>
      </trkpt>
      <trkpt lat="43.14462" lon="6.33824">
        <ele>45</ele>
        <time>2017-06-14T08:00:19Z</time>
      </trkpt>
      <trkpt lat="43.1447" lon="6.33831">
        <ele>47</ele>
        <time>2017-06-14T08:00:23Z</time>
      </trkpt>
      <trkpt lat="43.14477" lon="6.3385">
        <ele>49</ele>
        <time>2017-06-14T08:00:28Z</time>
      </trkpt>
      <trkpt lat="43.14493" lon="6.33884">
        <ele>49</ele>
        <time>2017-06-14T08:00:37Z</time>
      </trkpt>
      <trkpt lat="43.14504" lon="6.33892">
        <ele>50</ele>
        <time>2017-06-14T08:00:41Z</time>
      </trkpt>
      <trkpt lat="43.14525" lon="6.33901">
        <ele>54</ele>
        <time>2017-06-14T08:00:48Z</time>
      </trkpt>
      <trkpt lat="43.1457" lon="6.33923">
        <ele>57</ele>
        <time>2017-06-14T08:01:03Z</time>
      </trkpt>
      <trkpt lat="43.14585" lon="6.33935">
        <ele>57</ele>
        <time>2017-06-14T08:01:09Z</time>
      </trkpt>
      <trkpt lat="43.14603" lon="6.33952">
        <ele>57</ele>
        <time>2017-06-14T08:01:16Z</time>
      </trkpt>
      <trkpt lat="43.14642" lon="6.33992">
        <ele>58</ele>
        <time>2017-06-14T08:01:33Z</time>
      </trkpt>
      <trkpt lat="43.14667" lon="6.34021">
        <ele>58</ele>
        <time>2017-06-14T08:01:44Z</time>
      </trkpt>
      <trkpt lat="43.14699" lon="6.3407">
        <ele>66</ele>
        <time>2017-06-14T08:02:00Z</time>
      </trkpt>
      <trkpt lat="43.14719" lon="6.34083">
        <ele>66</ele>
        <time>2017-06-14T08:02:07Z</time>
      </trkpt>
      <trkpt lat="43.14751" lon="6.34098">
        <ele>66</ele>
        <time>2017-06-14T08:02:16Z</time>
      </trkpt>
      <trkpt lat="43.14775" lon="6.34114">
        <ele>69</ele>
        <time>2017-06-14T08:02:23Z</time>
      </trkpt>
      <trkpt lat="43.14786" lon="6.34127">
        <ele>73</ele>
        <time>2017-06-14T08:02:27Z</time>
      </trkpt>
      <trkpt lat="43.14838" lon="6.34177">
        <ele>74</ele>
        <time>2017-06-14T08:02:44Z</time>
      </trkpt>
      <trkpt lat="43.14843" lon="6.3419">
        <ele>75</ele>
        <time>2017-06-14T08:02:47Z</time>
      </trkpt>
      <trkpt lat="43.1485" lon="6.34213">
        <ele>75</ele>
        <time>2017-06-14T08:02:52Z</time>
      </trkpt>
      <trkpt lat="43.14852" lon="6.34236">
        <ele>76</ele>
        <time>2017-06-14T08:02:57Z</time>
      </trkpt>
      <trkpt lat="43.14854" lon="6.34303">
        <ele>79</ele>
        <time>2017-06-14T08:03:11Z</time>
      </trkpt>
      <trkpt lat="43.1486" lon="6.34325">
        <ele>80</ele>
        <time>2017-06-14T08:03:16Z</time>
      </trkpt>
      <trkpt lat="43.1487" lon="6.34344">
        <ele>80</ele>
        <time>2017-06-14T08:03:21Z</time>
      </trkpt>
      <trkpt lat="43.14893" lon="6.34386">
        <ele>81</ele>
        <time>2017-06-14T08:03:32Z</time>
      </trkpt>
      <trkpt lat="43.14904" lon="6.34444">
        <ele>86</ele>
        <time>2017-06-14T08:03:45Z</time>
      </trkpt>
      <trkpt lat="43.14909" lon="6.34493">
        <ele>90</ele>
        <time>2017-06-14T08:03:55Z</time>
      </trkpt>
      <trkpt lat="43.14909" lon="6.3451">
        <ele>92</ele>
        <time>2017-06-14T08:03:59Z</time>
      </trkpt>
      <trkpt lat="43.14905" lon="6.34532">
        <ele>92</ele>
        <time>2017-06-14T08:04:04Z</time>
      </trkpt>
      <trkpt lat="43.14898" lon="6.34562">
        <ele>94</ele>
        <time>2017-06-14T08:04:11Z</time>
      </trkpt>
      <trkpt lat="43.1489" lon="6.34595">
        <ele>96</ele>
        <time>2017-06-14T08:04:19Z</time>
      </trkpt>
      <trkpt lat="43.14891" lon="6.34605">
        <ele>96</ele>
        <time>2017-06-14T08:04:21Z</time>
      </trkpt>
      <trkpt lat="43.14897" lon="6.34612">
        <ele>97</ele>
        <time>2017-06-14T08:04:23Z</time>
      </trkpt>
      <trkpt lat="43.149" lon="6.34613">
        <ele>98</ele>
        <time>2017-06-14T08:04:24Z</time>
      </trkpt>
      <trkpt lat="43.14904" lon="6.3461">
        <ele>98</ele>
        <time>2017-06-14T08:04:25Z</time>
      </trkpt>
      <trkpt lat="43.14909" lon="6.34602">
        <ele>98</ele>
        <time>2017-06-14T08:04:27Z</time>
      </trkpt>
      <trkpt lat="43.14918" lon="6.3458">
        <ele>99</ele>
        <time>2017-06-14T08:04:31Z</time>
      </trkpt>
      <trkpt lat="43.14925" lon="6.34545">
        <ele>100</ele>
        <time>2017-06-14T08:04:37Z</time>
      </trkpt>
      <trkpt lat="43.14926" lon="6.34511">
        <ele>100</ele>
        <time>2017-06-14T08:04:43Z</time>
      </trkpt>
      <trkpt lat="43.14932" lon="6.34359">
        <ele>106</ele>
        <time>2017-06-14T08:05:13Z</time>
      </trkpt>
      <trkpt lat="43.14929" lon="6.34339">
        <ele>105</ele>
        <time>2017-06-14T08:05:17Z</time>
      </trkpt>
      <trkpt lat="43.1492" lon="6.34316">
        <ele>106</ele>
        <time>2017-06-14T08:05:22Z</time>
      </trkpt>
      <trkpt lat="43.14908" lon="6.34276">
        <ele>105</ele>
        <time>2017-06-14T08:05:31Z</time>
      </trkpt>
      <trkpt lat="43.14905" lon="6.34258">
        <ele>106</ele>
        <time>2017-06-14T08:05:35Z</time>
      </trkpt>
      <trkpt lat="43.14906" lon="6.34239">
        <ele>108</ele>
        <time>2017-06-14T08:05:39Z</time>
      </trkpt>
      <trkpt lat="43.14909" lon="6.34231">
        <ele>108</ele>
        <time>2017-06-14T08:05:41Z</time>
      </trkpt>
      <trkpt lat="43.14914" lon="6.34227">
        <ele>107</ele>
        <time>2017-06-14T08:05:43Z</time>
      </trkpt>
      <trkpt lat="43.14922" lon="6.34227">
        <ele>108</ele>
        <time>2017-06-14T08:05:45Z</time>
      </trkpt>
      <trkpt lat="43.14929" lon="6.34231">
        <ele>108</ele>
        <time>2017-06-14T08:05:47Z</time>
      </trkpt>
      <trkpt lat="43.14934" lon="6.34236">
        <ele>109</ele>
        <time>2017-06-14T08:05:49Z</time>
      </trkpt>
      <trkpt lat="43.14938" lon="6.34247">
        <ele>111</ele>
        <time>2017-06-14T08:05:52Z</time>
      </trkpt>
      <trkpt lat="43.14939" lon="6.34256">
        <ele>110</ele>
        <time>2017-06-14T08:05:54Z</time>
      </trkpt>
      <trkpt lat="43.14938" lon="6.34285">
        <ele>109</ele>
        <time>2017-06-14T08:06:00Z</time>
      </trkpt>
      <trkpt lat="43.14936" lon="6.34291">
        <ele>109</ele>
        <time>2017-06-14T08:06:01Z</time>
      </trkpt>
      <trkpt lat="43.14938" lon="6.34315">
        <ele>111</ele>
        <time>2017-06-14T08:06:05Z</time>
      </trkpt>
      <trkpt lat="43.14944" lon="6.34346">
        <ele>112</ele>
        <time>2017-06-14T08:06:10Z</time>
      </trkpt>
      <trkpt lat="43.14958" lon="6.34423">
        <ele>114</ele>
        <time>2017-06-14T08:06:23Z</time>
      </trkpt>
      <trkpt lat="43.14957" lon="6.34576">
        <ele>115</ele>
        <time>2017-06-14T08:06:48Z</time>
      </trkpt>
      <trkpt lat="43.14952" lon="6.34594">
        <ele>112</ele>
        <time>2017-06-14T08:06:52Z</time>
      </trkpt>
      <trkpt lat="43.14921" lon="6.34675">
        <ele>118</ele>
        <time>2017-06-14T08:07:08Z</time>
      </trkpt>
      <trkpt lat="43.14922" lon="6.34686">
        <ele>118</ele>
        <time>2017-06-14T08:07:10Z</time>
      </trkpt>
      <trkpt lat="43.14926" lon="6.34694">
        <ele>119</ele>
        <time>2017-06-14T08:07:12Z</time>
      </trkpt>
      <trkpt lat="43.14933" lon="6.34698">
        <ele>121</ele>
        <time>2017-06-14T08:07:14Z</time>
      </trkpt>
      <trkpt lat="43.14946" lon="6.34696">
        <ele>122</ele>
        <time>2017-06-14T08:07:18Z</time>
      </trkpt>
      <trkpt lat="43.14951" lon="6.34689">
        <ele>123</ele>
        <time>2017-06-14T08:07:20Z</time>
      </trkpt>
      <trkpt lat="43.14956" lon="6.34675">
        <ele>124</ele>
        <time>2017-06-14T08:07:23Z</time>
      </trkpt>
      <trkpt lat="43.1496" lon="6.34654">
        <ele>125</ele>
        <time>2017-06-14T08:07:27Z</time>
      </trkpt>
      <trkpt lat="43.14985" lon="6.34502">
        <ele>131</ele>
        <time>2017-06-14T08:07:57Z</time>
      </trkpt>
      <trkpt lat="43.14999" lon="6.34421">
        <ele>133</ele>
        <time>2017-06-14T08:08:14Z</time>
      </trkpt>
      <trkpt lat="43.15009" lon="6.34382">
        <ele>133</ele>
        <time>2017-06-14T08:08:22Z</time>
      </trkpt>
      <trkpt lat="43.15016" lon="6.34378">
        <ele>133</ele>
        <time>2017-06-14T08:08:24Z</time>
      </trkpt>
      <trkpt lat="43.15027" lon="6.34376">
        <ele>135</ele>
        <time>2017-06-14T08:08:27Z</time>
      </trkpt>
      <trkpt lat="43.15133" lon="6.34392">
        <ele>144</ele>
        <time>2017-06-14T08:08:57Z</time>
      </trkpt>
      <trkpt lat="43.15161" lon="6.3438">
        <ele>145</ele>
        <time>2017-06-14T08:09:04Z</time>
      </trkpt>
      <trkpt lat="43.15171" lon="6.34361">
        <ele>146</ele>
        <time>2017-06-14T08:09:08Z</time>
      </trkpt>
      <trkpt lat="43.15176" lon="6.34347">
        <ele>147</ele>
        <time>2017-06-14T08:09:11Z</time>
      </trkpt>
      <trkpt lat="43.15181" lon="6.34343">
        <ele>146</ele>
        <time>2017-06-14T08:09:13Z</time>
      </trkpt>
      <trkpt lat="43.15184" lon="6.34344">
        <ele>147</ele>
        <time>2017-06-14T08:09:15Z</time>
      </trkpt>
      <trkpt lat="43.15187" lon="6.34347">
        <ele>147</ele>
        <time>2017-06-14T08:09:17Z</time>
      </trkpt>
      <trkpt lat="43.15187" lon="6.34351">
        <ele>147</ele>
        <time>2017-06-14T08:09:19Z</time>
      </trkpt>
      <trkpt lat="43.15186" lon="6.34356">
        <ele>148</ele>
        <time>2017-06-14T08:09:21Z</time>
      </trkpt>
      <trkpt lat="43.15185" lon="6.34362">
        <ele>148</ele>
        <time>2017-06-14T08:09:23Z</time>
      </trkpt>
      <trkpt lat="43.15154" lon="6.34422">
        <ele>147</ele>
        <time>2017-06-14T08:09:48Z</time>
      </trkpt>
      <trkpt lat="43.15155" lon="6.3443">
        <ele>148</ele>
        <time>2017-06-14T08:09:52Z</time>
      </trkpt>
      <trkpt lat="43.15159" lon="6.34439">
        <ele>149</ele>
        <time>2017-06-14T08:09:58Z</time>
      </trkpt>
      <trkpt lat="43.15162" lon="6.34447">
        <ele>149</ele>
        <time>2017-06-14T08:10:46Z</time>
      </trkpt>
      <trkpt lat="43.15163" lon="6.34456">
        <ele>149</ele>
        <time>2017-06-14T08:10:53Z</time>
      </trkpt>
      <trkpt lat="43.15165" lon="6.34476">
        <ele>150</ele>
        <time>2017-06-14T08:11:01Z</time>
      </trkpt>
      <trkpt lat="43.1517" lon="6.34507">
        <ele>152</ele>
        <time>2017-06-14T08:11:09Z</time>
      </trkpt>
      <trkpt lat="43.15178" lon="6.34521">
        <ele>153</ele>
        <time>2017-06-14T08:11:13Z</time>
      </trkpt>
      <trkpt lat="43.15201" lon="6.34546">
        <ele>155</ele>
        <time>2017-06-14T08:11:19Z</time>
      </trkpt>
      <trkpt lat="43.15219" lon="6.3456">
        <ele>157</ele>
        <time>2017-06-14T08:11:23Z</time>
      </trkpt>
      <trkpt lat="43.15229" lon="6.34561">
        <ele>157</ele>
        <time>2017-06-14T08:11:25Z</time>
      </trkpt>
      <trkpt lat="43.15345" lon="6.34517">
        <ele>164</ele>
        <time>2017-06-14T08:11:55Z</time>
      </trkpt>
      <trkpt lat="43.15443" lon="6.34547">
        <ele>168</ele>
        <time>2017-06-14T08:12:25Z</time>
      </trkpt>
      <trkpt lat="43.15456" lon="6.34557">
        <ele>170</ele>
        <time>2017-06-14T08:12:29Z</time>
      </trkpt>
      <trkpt lat="43.15506" lon="6.34585">
        <ele>175</ele>
        <time>2017-06-14T08:12:44Z</time>
      </trkpt>
      <trkpt lat="43.15528" lon="6.34599">
        <ele>178</ele>
        <time>2017-06-14T08:12:51Z</time>
      </trkpt>
      <trkpt lat="43.15542" lon="6.34616">
        <ele>178</ele>
        <time>2017-06-14T08:12:56Z</time>
      </trkpt>
      <trkpt lat="43.1555" lon="6.34638">
        <ele>179</ele>
        <time>2017-06-14T08:13:01Z</time>
      </trkpt>
      <trkpt lat="43.15552" lon="6.34655">
        <ele>179</ele>
        <time>2017-06-14T08:13:05Z</time>
      </trkpt>
      <trkpt lat="43.15551" lon="6.34681">
        <ele>180</ele>
        <time>2017-06-14T08:13:11Z</time>
      </trkpt>
      <trkpt lat="43.15552" lon="6.34697">
        <ele>181</ele>
        <time>2017-06-14T08:13:14Z</time>
      </trkpt>
      <trkpt lat="43.15557" lon="6.34707">
        <ele>182</ele>
        <time>2017-06-14T08:13:16Z</time>
      </trkpt>
      <trkpt lat="43.15561" lon="6.34707">
        <ele>183</ele>
        <time>2017-06-14T08:13:17Z</time>
      </trkpt>
      <trkpt lat="43.15565" lon="6.34706">
        <ele>184</ele>
        <time>2017-06-14T08:13:18Z</time>
      </trkpt>
      <trkpt lat="43.15571" lon="6.34696">
        <ele>185</ele>
        <time>2017-06-14T08:13:20Z</time>
      </trkpt>
      <trkpt lat="43.15575" lon="6.34681">
        <ele>186</ele>
        <time>2017-06-14T08:13:23Z</time>
      </trkpt>
      <trkpt lat="43.15584" lon="6.34626">
        <ele>187</ele>
        <time>2017-06-14T08:13:35Z</time>
      </trkpt>
      <trkpt lat="43.15593" lon="6.34611">
        <ele>188</ele>
        <time>2017-06-14T08:13:39Z</time>
      </trkpt>
      <trkpt lat="43.15625" lon="6.34569">
        <ele>192</ele>
        <time>2017-06-14T08:13:52Z</time>
      </trkpt>
      <trkpt lat="43.1566" lon="6.34512">
        <ele>194</ele>
        <time>2017-06-14T08:14:08Z</time>
      </trkpt>
      <trkpt lat="43.15678" lon="6.34496">
        <ele>195</ele>
        <time>2017-06-14T08:14:14Z</time>
      </trkpt>
      <trkpt lat="43.15721" lon="6.34462">
        <ele>196</ele>
        <time>2017-06-14T08:14:28Z</time>
      </trkpt>
      <trkpt lat="43.15769" lon="6.34429">
        <ele>200</ele>
        <time>2017-06-14T08:14:45Z</time>
      </trkpt>
      <trkpt lat="43.15868" lon="6.3439">
        <ele>212</ele>
        <time>2017-06-14T08:15:15Z</time>
      </trkpt>
      <trkpt lat="43.15907" lon="6.3437">
        <ele>216</ele>
        <time>2017-06-14T08:15:26Z</time>
      </trkpt>
      <trkpt lat="43.16014" lon="6.34344">
        <ele>225</ele>
        <time>2017-06-14T08:15:56Z</time>
      </trkpt>
      <trkpt lat="43.16035" lon="6.34337">
        <ele>226</ele>
        <time>2017-06-14T08:16:02Z</time>
      </trkpt>
      <trkpt lat="43.16124" lon="6.34307">
        <ele>232</ele>
        <time>2017-06-14T08:16:32Z</time>
      </trkpt>
      <trkpt lat="43.16247" lon="6.34362">
        <ele>231</ele>
        <time>2017-06-14T08:17:02Z</time>
      </trkpt>
      <trkpt lat="43.16311" lon="6.34395">
        <ele>230</ele>
        <time>2017-06-14T08:17:14Z</time>
      </trkpt>
      <trkpt lat="43.16333" lon="6.34417">
        <ele>229</ele>
        <time>2017-06-14T08:17:18Z</time>
      </trkpt>
      <trkpt lat="43.16348" lon="6.34436">
        <ele>229</ele>
        <time>2017-06-14T08:17:21Z</time>
      </trkpt>
      <trkpt lat="43.16353" lon="6.34436">
        <ele>229</ele>
        <time>2017-06-14T08:17:22Z</time>
      </trkpt>
      <trkpt lat="43.16359" lon="6.34435">
        <ele>229</ele>
        <time>2017-06-14T08:17:23Z</time>
      </trkpt>
      <trkpt lat="43.16368" lon="6.34424">
        <ele>229</ele>
        <time>2017-06-14T08:17:25Z</time>
      </trkpt>
      <trkpt lat="43.16373" lon="6.34408">
        <ele>229</ele>
        <time>2017-06-14T08:17:27Z</time>
      </trkpt>
      <trkpt lat="43.1637" lon="6.34391">
        <ele>228</ele>
        <time>2017-06-14T08:17:29Z</time>
      </trkpt>
      <trkpt lat="43.16353" lon="6.34283">
        <ele>226</ele>
        <time>2017-06-14T08:17:41Z</time>
      </trkpt>
      <trkpt lat="43.16354" lon="6.34257">
        <ele>225</ele>
        <time>2017-06-14T08:17:44Z</time>
      </trkpt>
      <trkpt lat="43.16364" lon="6.34224">
        <ele>225</ele>
        <time>2017-06-14T08:17:48Z</time>
      </trkpt>
      <trkpt lat="43.16366" lon="6.34198">
        <ele>225</ele>
        <time>2017-06-14T08:17:51Z</time>
      </trkpt>
      <trkpt lat="43.1636" lon="6.34174">
        <ele>224</ele>
        <time>2017-06-14T08:17:54Z</time>
      </trkpt>
      <trkpt lat="43.16347" lon="6.34125">
        <ele>223</ele>
        <time>2017-06-14T08:18:00Z</time>
      </trkpt>
      <trkpt lat="43.16333" lon="6.33998">
        <ele>222</ele>
        <time>2017-06-14T08:18:14Z</time>
      </trkpt>
      <trkpt lat="43.16338" lon="6.33954">
        <ele>221</ele>
        <time>2017-06-14T08:18:19Z</time>
      </trkpt>
      <trkpt lat="43.16329" lon="6.3394">
        <ele>221</ele>
        <time>2017-06-14T08:18:21Z</time>
      </trkpt>
      <trkpt lat="43.16299" lon="6.33906">
        <ele>221</ele>
        <time>2017-06-14T08:18:27Z</time>
      </trkpt>
      <trkpt lat="43.16297" lon="6.33889">
        <ele>221</ele>
        <time>2017-06-14T08:18:29Z</time>
      </trkpt>
      <trkpt lat="43.16299" lon="6.33863">
        <ele>222</ele>
        <time>2017-06-14T08:18:32Z</time>
      </trkpt>
      <trkpt lat="43.16302" lon="6.33809">
        <ele>221</ele>
        <time>2017-06-14T08:18:38Z</time>
      </trkpt>
      <trkpt lat="43.16293" lon="6.33774">
        <ele>219</ele>
        <time>2017-06-14T08:18:42Z</time>
      </trkpt>
      <trkpt lat="43.1627" lon="6.33718">
        <ele>218</ele>
        <time>2017-06-14T08:18:49Z</time>
      </trkpt>
      <trkpt lat="43.16257" lon="6.33677">
        <ele>217</ele>
        <time>2017-06-14T08:18:54Z</time>
      </trkpt>
      <trkpt lat="43.1623" lon="6.33586">
        <ele>216</ele>
        <time>2017-06-14T08:19:05Z</time>
      </trkpt>
      <trkpt lat="43.16214" lon="6.33538">
        <ele>214</ele>
        <time>2017-06-14T08:19:11Z</time>
      </trkpt>
      <trkpt lat="43.16219" lon="6.33523">
        <ele>215</ele>
        <time>2017-06-14T08:19:13Z</time>
      </trkpt>
      <trkpt lat="43.1623" lon="6.33516">
        <ele>216</ele>
        <time>2017-06-14T08:19:15Z</time>
      </trkpt>
      <trkpt lat="43.16273" lon="6.33517">
        <ele>219</ele>
        <time>2017-06-14T08:19:22Z</time>
      </trkpt>
      <trkpt lat="43.16277" lon="6.33511">
        <ele>219</ele>
        <time>2017-06-14T08:19:23Z</time>
      </trkpt>
      <trkpt lat="43.16277" lon="6.33495">
        <ele>218</ele>
        <time>2017-06-14T08:19:25Z</time>
      </trkpt>
      <trkpt lat="43.16282" lon="6.33454">
        <ele>218</ele>
        <time>2017-06-14T08:19:30Z</time>
      </trkpt>
      <trkpt lat="43.16299" lon="6.33407">
        <ele>218</ele>
        <time>2017-06-14T08:19:36Z</time>
      </trkpt>
      <trkpt lat="43.16313" lon="6.3339">
        <ele>217</ele>
        <time>2017-06-14T08:19:39Z</time>
      </trkpt>
      <trkpt lat="43.16332" lon="6.33383">
        <ele>218</ele>
        <time>2017-06-14T08:19:42Z</time>
      </trkpt>
      <trkpt lat="43.16363" lon="6.33371">
        <ele>218</ele>
        <time>2017-06-14T08:19:47Z</time>
      </trkpt>
      <trkpt lat="43.16387" lon="6.33341">
        <ele>218</ele>
        <time>2017-06-14T08:19:52Z</time>
      </trkpt>
      <trkpt lat="43.16409" lon="6.33324">
        <ele>218</ele>
        <time>2017-06-14T08:19:56Z</time>
      </trkpt>
      <trkpt lat="43.16445" lon="6.33311">
        <ele>217</ele>
        <time>2017-06-14T08:20:02Z</time>
      </trkpt>
      <trkpt lat="43.1647" lon="6.33296">
        <ele>217</ele>
        <time>2017-06-14T08:20:07Z</time>
      </trkpt>
      <trkpt lat="43.16481" lon="6.3328">
        <ele>217</ele>
        <time>2017-06-14T08:20:10Z</time>
      </trkpt>
      <trkpt lat="43.16486" lon="6.33259">
        <ele>217</ele>
        <time>2017-06-14T08:20:13Z</time>
      </trkpt>
      <trkpt lat="43.16499" lon="6.33213">
        <ele>216</ele>
        <time>2017-06-14T08:20:19Z</time>
      </trkpt>
      <trkpt lat="43.16516" lon="6.33185">
        <ele>216</ele>
        <time>2017-06-14T08:20:23Z</time>
      </trkpt>
      <trkpt lat="43.16555" lon="6.33135">
        <ele>215</ele>
        <time>2017-06-14T08:20:31Z</time>
      </trkpt>
      <trkpt lat="43.16568" lon="6.33131">
        <ele>215</ele>
        <time>2017-06-14T08:20:33Z</time>
      </trkpt>
      <trkpt lat="43.16721" lon="6.33238">
        <ele>213</ele>
        <time>2017-06-14T08:21:03Z</time>
      </trkpt>
      <trkpt lat="43.16722" lon="6.3329">
        <ele>213</ele>
        <time>2017-06-14T08:21:10Z</time>
      </trkpt>
      <trkpt lat="43.16729" lon="6.33301">
        <ele>212</ele>
        <time>2017-06-14T08:21:12Z</time>
      </trkpt>
      <trkpt lat="43.16738" lon="6.33308">
        <ele>211</ele>
        <time>2017-06-14T08:21:14Z</time>
      </trkpt>
      <trkpt lat="43.16754" lon="6.33312">
        <ele>211</ele>
        <time>2017-06-14T08:21:17Z</time>
      </trkpt>
      <trkpt lat="43.16781" lon="6.33322">
        <ele>211</ele>
        <time>2017-06-14T08:21:22Z</time>
      </trkpt>
      <trkpt lat="43.16794" lon="6.33338">
        <ele>210</ele>
        <time>2017-06-14T08:21:25Z</time>
      </trkpt>
      <trkpt lat="43.16819" lon="6.33376">
        <ele>210</ele>
        <time>2017-06-14T08:21:32Z</time>
      </trkpt>
      <trkpt lat="43.16837" lon="6.33381">
        <ele>210</ele>
        <time>2017-06-14T08:21:35Z</time>
      </trkpt>
      <trkpt lat="43.16966" lon="6.33275">
        <ele>207</ele>
        <time>2017-06-14T08:21:57Z</time>
      </trkpt>
      <trkpt lat="43.17012" lon="6.3326">
        <ele>204</ele>
        <time>2017-06-14T08:22:03Z</time>
      </trkpt>
      <trkpt lat="43.17137" lon="6.33261">
        <ele>200</ele>
        <time>2017-06-14T08:22:20Z</time>
      </trkpt>
      <trkpt lat="43.17141" lon="6.33253">
        <ele>199</ele>
        <time>2017-06-14T08:22:21Z</time>
      </trkpt>
      <trkpt lat="43.17141" lon="6.33233">
        <ele>198</ele>
        <time>2017-06-14T08:22:23Z</time>
      </trkpt>
      <trkpt lat="43.17132" lon="6.33207">
        <ele>196</ele>
        <time>2017-06-14T08:22:26Z</time>
      </trkpt>
      <trkpt lat="43.1712" lon="6.3317">
        <ele>194</ele>
        <time>2017-06-14T08:22:32Z</time>
      </trkpt>
      <trkpt lat="43.17121" lon="6.33167">
        <ele>195</ele>
        <time>2017-06-14T08:22:38Z</time>
      </trkpt>
      <trkpt lat="43.17124" lon="6.33168">
        <ele>194</ele>
        <time>2017-06-14T08:22:44Z</time>
      </trkpt>
      <trkpt lat="43.17126" lon="6.33161">
        <ele>191</ele>
        <time>2017-06-14T08:22:57Z</time>
      </trkpt>
      <trkpt lat="43.17127" lon="6.33155">
        <ele>191</ele>
        <time>2017-06-14T08:22:59Z</time>
      </trkpt>
      <trkpt lat="43.17129" lon="6.33152">
        <ele>191</ele>
        <time>2017-06-14T08:23:01Z</time>
      </trkpt>
      <trkpt lat="43.17134" lon="6.33152">
        <ele>191</ele>
        <time>2017-06-14T08:23:03Z</time>
      </trkpt>
      <trkpt lat="43.1718" lon="6.33161">
        <ele>193</ele>
        <time>2017-06-14T08:23:21Z</time>
      </trkpt>
      <trkpt lat="43.17256" lon="6.33108">
        <ele>199</ele>
        <time>2017-06-14T08:23:51Z</time>
      </trkpt>
      <trkpt lat="43.17263" lon="6.33098">
        <ele>199</ele>
        <time>2017-06-14T08:23:54Z</time>
      </trkpt>
      <trkpt lat="43.17269" lon="6.33094">
        <ele>200</ele>
        <time>2017-06-14T08:23:56Z</time>
      </trkpt>
      <trkpt lat="43.17282" lon="6.33101">
        <ele>200</ele>
        <time>2017-06-14T08:24:00Z</time>
      </trkpt>
      <trkpt lat="43.17286" lon="6.33112">
        <ele>199</ele>
        <time>2017-06-14T08:24:03Z</time>
      </trkpt>
      <trkpt lat="43.17298" lon="6.3314">
        <ele>197</ele>
        <time>2017-06-14T08:24:10Z</time>
      </trkpt>
      <trkpt lat="43.17311" lon="6.3316">
        <ele>198</ele>
        <time>2017-06-14T08:24:15Z</time>
      </trkpt>
      <trkpt lat="43.17319" lon="6.33163">
        <ele>198</ele>
        <time>2017-06-14T08:24:17Z</time>
      </trkpt>
      <trkpt lat="43.17347" lon="6.33162">
        <ele>201</ele>
        <time>2017-06-14T08:24:45Z</time>
      </trkpt>
      <trkpt lat="43.17347" lon="6.33166">
        <ele>201</ele>
        <time>2017-06-14T08:27:58Z</time>
      </trkpt>
      <trkpt lat="43.1735" lon="6.33163">
        <ele>200</ele>
        <time>2017-06-14T08:28:10Z</time>
      </trkpt>
      <trkpt lat="43.17354" lon="6.3316">
        <ele>199</ele>
        <time>2017-06-14T08:28:17Z</time>
      </trkpt>
      <trkpt lat="43.17358" lon="6.3316">
        <ele>199</ele>
        <time>2017-06-14T08:28:19Z</time>
      </trkpt>
      <trkpt lat="43.17366" lon="6.33165">
        <ele>200</ele>
        <time>2017-06-14T08:28:23Z</time>
      </trkpt>
      <trkpt lat="43.17369" lon="6.33173">
        <ele>201</ele>
        <time>2017-06-14T08:28:25Z</time>
      </trkpt>
      <trkpt lat="43.17393" lon="6.33234">
        <ele>202</ele>
        <time>2017-06-14T08:28:37Z</time>
      </trkpt>
      <trkpt lat="43.17406" lon="6.33242">
        <ele>201</ele>
        <time>2017-06-14T08:28:40Z</time>
      </trkpt>
      <trkpt lat="43.17453" lon="6.33266">
        <ele>199</ele>
        <time>2017-06-14T08:28:50Z</time>
      </trkpt>
      <trkpt lat="43.17564" lon="6.33232">
        <ele>199</ele>
        <time>2017-06-14T08:29:13Z</time>
      </trkpt>
      <trkpt lat="43.17568" lon="6.33247">
        <ele>200</ele>
        <time>2017-06-14T08:29:15Z</time>
      </trkpt>
      <trkpt lat="43.17573" lon="6.33275">
        <ele>201</ele>
        <time>2017-06-14T08:29:19Z</time>
      </trkpt>
      <trkpt lat="43.17579" lon="6.333">
        <ele>200</ele>
        <time>2017-06-14T08:29:23Z</time>
      </trkpt>
      <trkpt lat="43.17586" lon="6.33311">
        <ele>200</ele>
        <time>2017-06-14T08:29:25Z</time>
      </trkpt>
      <trkpt lat="43.17613" lon="6.33357">
        <ele>201</ele>
        <time>2017-06-14T08:29:33Z</time>
      </trkpt>
      <trkpt lat="43.1762" lon="6.33369">
        <ele>202</ele>
        <time>2017-06-14T08:29:35Z</time>
      </trkpt>
      <trkpt lat="43.1763" lon="6.33376">
        <ele>203</ele>
        <time>2017-06-14T08:29:37Z</time>
      </trkpt>
      <trkpt lat="43.177" lon="6.33343">
        <ele>205</ele>
        <time>2017-06-14T08:29:52Z</time>
      </trkpt>
      <trkpt lat="43.17702" lon="6.3333">
        <ele>205</ele>
        <time>2017-06-14T08:29:54Z</time>
      </trkpt>
      <trkpt lat="43.17715" lon="6.33241">
        <ele>208</ele>
        <time>2017-06-14T08:30:07Z</time>
      </trkpt>
      <trkpt lat="43.17724" lon="6.33233">
        <ele>208</ele>
        <time>2017-06-14T08:30:09Z</time>
      </trkpt>
      <trkpt lat="43.17739" lon="6.33218">
        <ele>206</ele>
        <time>2017-06-14T08:30:13Z</time>
      </trkpt>
      <trkpt lat="43.17746" lon="6.33199">
        <ele>208</ele>
        <time>2017-06-14T08:30:16Z</time>
      </trkpt>
      <trkpt lat="43.17746" lon="6.33177">
        <ele>209</ele>
        <time>2017-06-14T08:30:19Z</time>
      </trkpt>
      <trkpt lat="43.1774" lon="6.3314">
        <ele>210</ele>
        <time>2017-06-14T08:30:24Z</time>
      </trkpt>
      <trkpt lat="43.17732" lon="6.33098">
        <ele>212</ele>
        <time>2017-06-14T08:30:30Z</time>
      </trkpt>
      <trkpt lat="43.17735" lon="6.33079">
        <ele>212</ele>
        <time>2017-06-14T08:30:33Z</time>
      </trkpt>
      <trkpt lat="43.17738" lon="6.3304">
        <ele>211</ele>
        <time>2017-06-14T08:30:39Z</time>
      </trkpt>
      <trkpt lat="43.17736" lon="6.3302">
        <ele>211</ele>
        <time>2017-06-14T08:30:42Z</time>
      </trkpt>
      <trkpt lat="43.17725" lon="6.32988">
        <ele>212</ele>
        <time>2017-06-14T08:30:47Z</time>
      </trkpt>
      <trkpt lat="43.17712" lon="6.32945">
        <ele>215</ele>
        <time>2017-06-14T08:30:54Z</time>
      </trkpt>
      <trkpt lat="43.17718" lon="6.32934">
        <ele>215</ele>
        <time>2017-06-14T08:30:56Z</time>
      </trkpt>
      <trkpt lat="43.17726" lon="6.3293">
        <ele>214</ele>
        <time>2017-06-14T08:30:58Z</time>
      </trkpt>
      <trkpt lat="43.17748" lon="6.32917">
        <ele>214</ele>
        <time>2017-06-14T08:31:03Z</time>
      </trkpt>
      <trkpt lat="43.17752" lon="6.32905">
        <ele>214</ele>
        <time>2017-06-14T08:31:05Z</time>
      </trkpt>
      <trkpt lat="43.17761" lon="6.32867">
        <ele>214</ele>
        <time>2017-06-14T08:31:11Z</time>
      </trkpt>
      <trkpt lat="43.1777" lon="6.3286">
        <ele>214</ele>
        <time>2017-06-14T08:31:13Z</time>
      </trkpt>
      <trkpt lat="43.17794" lon="6.3284">
        <ele>216</ele>
        <time>2017-06-14T08:31:19Z</time>
      </trkpt>
      <trkpt lat="43.17802" lon="6.32823">
        <ele>217</ele>
        <time>2017-06-14T08:31:22Z</time>
      </trkpt>
      <trkpt lat="43.17806" lon="6.32804">
        <ele>218</ele>
        <time>2017-06-14T08:31:25Z</time>
      </trkpt>
      <trkpt lat="43.1781" lon="6.32774">
        <ele>219</ele>
        <time>2017-06-14T08:31:30Z</time>
      </trkpt>
      <trkpt lat="43.17823" lon="6.32756">
        <ele>220</ele>
        <time>2017-06-14T08:31:34Z</time>
      </trkpt>
      <trkpt lat="43.17836" lon="6.32748">
        <ele>219</ele>
        <time>2017-06-14T08:31:37Z</time>
      </trkpt>
      <trkpt lat="43.17935" lon="6.32857">
        <ele>225</ele>
        <time>2017-06-14T08:32:07Z</time>
      </trkpt>
      <trkpt lat="43.17945" lon="6.32884">
        <ele>226</ele>
        <time>2017-06-14T08:32:13Z</time>
      </trkpt>
      <trkpt lat="43.17953" lon="6.32894">
        <ele>226</ele>
        <time>2017-06-14T08:32:16Z</time>
      </trkpt>
      <trkpt lat="43.17976" lon="6.32914">
        <ele>227</ele>
        <time>2017-06-14T08:32:24Z</time>
      </trkpt>
      <trkpt lat="43.18001" lon="6.32939">
        <ele>229</ele>
        <time>2017-06-14T08:32:33Z</time>
      </trkpt>
      <trkpt lat="43.18009" lon="6.32954">
        <ele>230</ele>
        <time>2017-06-14T08:32:37Z</time>
      </trkpt>
      <trkpt lat="43.1801" lon="6.32963">
        <ele>230</ele>
        <time>2017-06-14T08:32:39Z</time>
      </trkpt>
      <trkpt lat="43.18007" lon="6.32982">
        <ele>232</ele>
        <time>2017-06-14T08:32:43Z</time>
      </trkpt>
      <trkpt lat="43.18001" lon="6.32996">
        <ele>234</ele>
        <time>2017-06-14T08:32:47Z</time>
      </trkpt>
      <trkpt lat="43.17984" lon="6.33038">
        <ele>236</ele>
        <time>2017-06-14T08:32:58Z</time>
      </trkpt>
      <trkpt lat="43.17982" lon="6.33052">
        <ele>237</ele>
        <time>2017-06-14T08:33:01Z</time>
      </trkpt>
      <trkpt lat="43.17985" lon="6.33065">
        <ele>237</ele>
        <time>2017-06-14T08:33:04Z</time>
      </trkpt>
      <trkpt lat="43.1799" lon="6.33072">
        <ele>238</ele>
        <time>2017-06-14T08:33:06Z</time>
      </trkpt>
      <trkpt lat="43.17996" lon="6.33077">
        <ele>238</ele>
        <time>2017-06-14T08:33:08Z</time>
      </trkpt>
      <trkpt lat="43.18002" lon="6.33078">
        <ele>239</ele>
        <time>2017-06-14T08:33:10Z</time>
      </trkpt>
      <trkpt lat="43.18008" lon="6.33072">
        <ele>240</ele>
        <time>2017-06-14T08:33:12Z</time>
      </trkpt>
      <trkpt lat="43.18011" lon="6.33063">
        <ele>241</ele>
        <time>2017-06-14T08:33:14Z</time>
      </trkpt>
      <trkpt lat="43.1801" lon="6.33048">
        <ele>241</ele>
        <time>2017-06-14T08:33:17Z</time>
      </trkpt>
      <trkpt lat="43.1801" lon="6.3303">
        <ele>241</ele>
        <time>2017-06-14T08:33:21Z</time>
      </trkpt>
      <trkpt lat="43.18014" lon="6.33017">
        <ele>241</ele>
        <time>2017-06-14T08:33:24Z</time>
      </trkpt>
      <trkpt lat="43.18023" lon="6.33001">
        <ele>242</ele>
        <time>2017-06-14T08:33:28Z</time>
      </trkpt>
      <trkpt lat="43.18036" lon="6.32977">
        <ele>244</ele>
        <time>2017-06-14T08:33:34Z</time>
      </trkpt>
      <trkpt lat="43.18045" lon="6.32951">
        <ele>244</ele>
        <time>2017-06-14T08:33:40Z</time>
      </trkpt>
      <trkpt lat="43.18076" lon="6.32859">
        <ele>249</ele>
        <time>2017-06-14T08:33:59Z</time>
      </trkpt>
      <trkpt lat="43.18085" lon="6.3286">
        <ele>249</ele>
        <time>2017-06-14T08:34:01Z</time>
      </trkpt>
      <trkpt lat="43.18092" lon="6.32866">
        <ele>249</ele>
        <time>2017-06-14T08:34:03Z</time>
      </trkpt>
      <trkpt lat="43.18095" lon="6.32877">
        <ele>249</ele>
        <time>2017-06-14T08:34:05Z</time>
      </trkpt>
      <trkpt lat="43.18098" lon="6.32906">
        <ele>249</ele>
        <time>2017-06-14T08:34:11Z</time>
      </trkpt>
      <trkpt lat="43.18104" lon="6.32932">
        <ele>250</ele>
        <time>2017-06-14T08:34:17Z</time>
      </trkpt>
      <trkpt lat="43.18112" lon="6.32969">
        <ele>252</ele>
        <time>2017-06-14T08:34:25Z</time>
      </trkpt>
      <trkpt lat="43.18151" lon="6.33101">
        <ele>258</ele>
        <time>2017-06-14T08:34:55Z</time>
      </trkpt>
      <trkpt lat="43.18159" lon="6.33134">
        <ele>259</ele>
        <time>2017-06-14T08:35:02Z</time>
      </trkpt>
      <trkpt lat="43.18167" lon="6.33212">
        <ele>262</ele>
        <time>2017-06-14T08:35:19Z</time>
      </trkpt>
      <trkpt lat="43.18165" lon="6.33238">
        <ele>262</ele>
        <time>2017-06-14T08:35:24Z</time>
      </trkpt>
      <trkpt lat="43.18162" lon="6.33265">
        <ele>264</ele>
        <time>2017-06-14T08:35:29Z</time>
      </trkpt>
      <trkpt lat="43.18165" lon="6.33275">
        <ele>264</ele>
        <time>2017-06-14T08:35:31Z</time>
      </trkpt>
      <trkpt lat="43.1817" lon="6.33283">
        <ele>264</ele>
        <time>2017-06-14T08:35:33Z</time>
      </trkpt>
      <trkpt lat="43.18179" lon="6.33291">
        <ele>265</ele>
        <time>2017-06-14T08:35:36Z</time>
      </trkpt>
      <trkpt lat="43.182" lon="6.33304">
        <ele>267</ele>
        <time>2017-06-14T08:35:43Z</time>
      </trkpt>
      <trkpt lat="43.18212" lon="6.33314">
        <ele>268</ele>
        <time>2017-06-14T08:35:47Z</time>
      </trkpt>
      <trkpt lat="43.18236" lon="6.33339">
        <ele>268</ele>
        <time>2017-06-14T08:35:56Z</time>
      </trkpt>
      <trkpt lat="43.18246" lon="6.33341">
        <ele>269</ele>
        <time>2017-06-14T08:35:59Z</time>
      </trkpt>
      <trkpt lat="43.18318" lon="6.33318">
        <ele>273</ele>
        <time>2017-06-14T08:36:22Z</time>
      </trkpt>
      <trkpt lat="43.18324" lon="6.33329">
        <ele>274</ele>
        <time>2017-06-14T08:36:25Z</time>
      </trkpt>
      <trkpt lat="43.18346" lon="6.33372">
        <ele>277</ele>
        <time>2017-06-14T08:36:37Z</time>
      </trkpt>
      <trkpt lat="43.18385" lon="6.33404">
        <ele>280</ele>
        <time>2017-06-14T08:36:51Z</time>
      </trkpt>
      <trkpt lat="43.18391" lon="6.3342">
        <ele>281</ele>
        <time>2017-06-14T08:36:55Z</time>
      </trkpt>
      <trkpt lat="43.18408" lon="6.33453">
        <ele>283</ele>
        <time>2017-06-14T08:37:05Z</time>
      </trkpt>
      <trkpt lat="43.18429" lon="6.33485">
        <ele>284</ele>
        <time>2017-06-14T08:37:14Z</time>
      </trkpt>
      <trkpt lat="43.18437" lon="6.33512">
        <ele>286</ele>
        <time>2017-06-14T08:37:20Z</time>
      </trkpt>
      <trkpt lat="43.18438" lon="6.33534">
        <ele>287</ele>
        <time>2017-06-14T08:37:24Z</time>
      </trkpt>
      <trkpt lat="43.18441" lon="6.33578">
        <ele>288</ele>
        <time>2017-06-14T08:37:32Z</time>
      </trkpt>
      <trkpt lat="43.18447" lon="6.336">
        <ele>290</ele>
        <time>2017-06-14T08:37:36Z</time>
      </trkpt>
      <trkpt lat="43.18464" lon="6.33646">
        <ele>293</ele>
        <time>2017-06-14T08:37:45Z</time>
      </trkpt>
      <trkpt lat="43.18472" lon="6.33705">
        <ele>295</ele>
        <time>2017-06-14T08:37:56Z</time>
      </trkpt>
      <trkpt lat="43.1847" lon="6.33715">
        <ele>295</ele>
        <time>2017-06-14T08:37:58Z</time>
      </trkpt>
      <trkpt lat="43.18467" lon="6.33719">
        <ele>295</ele>
        <time>2017-06-14T08:37:59Z</time>
      </trkpt>
      <trkpt lat="43.18458" lon="6.33725">
        <ele>297</ele>
        <time>2017-06-14T08:38:02Z</time>
      </trkpt>
      <trkpt lat="43.1844" lon="6.33735">
        <ele>300</ele>
        <time>2017-06-14T08:38:07Z</time>
      </trkpt>
      <trkpt lat="43.18433" lon="6.33747">
        <ele>302</ele>
        <time>2017-06-14T08:38:10Z</time>
      </trkpt>
      <trkpt lat="43.18414" lon="6.3379">
        <ele>305</ele>
        <time>2017-06-14T08:38:20Z</time>
      </trkpt>
      <trkpt lat="43.18415" lon="6.33799">
        <ele>305</ele>
        <time>2017-06-14T08:38:22Z</time>
      </trkpt>
      <trkpt lat="43.18429" lon="6.33834">
        <ele>305</ele>
        <time>2017-06-14T08:38:30Z</time>
      </trkpt>
      <trkpt lat="43.18446" lon="6.33876">
        <ele>308</ele>
        <time>2017-06-14T08:38:40Z</time>
      </trkpt>
      <trkpt lat="43.18473" lon="6.33976">
        <ele>314</ele>
        <time>2017-06-14T08:39:03Z</time>
      </trkpt>
      <trkpt lat="43.18493" lon="6.34014">
        <ele>316</ele>
        <time>2017-06-14T08:39:13Z</time>
      </trkpt>
      <trkpt lat="43.18507" lon="6.34035">
        <ele>318</ele>
        <time>2017-06-14T08:39:19Z</time>
      </trkpt>
      <trkpt lat="43.18532" lon="6.34053">
        <ele>318</ele>
        <time>2017-06-14T08:39:27Z</time>
      </trkpt>
      <trkpt lat="43.18541" lon="6.34056">
        <ele>318</ele>
        <time>2017-06-14T08:39:30Z</time>
      </trkpt>
      <trkpt lat="43.18609" lon="6.33964">
        <ele>326</ele>
        <time>2017-06-14T08:40:00Z</time>
      </trkpt>
      <trkpt lat="43.18614" lon="6.33936">
        <ele>327</ele>
        <time>2017-06-14T08:40:06Z</time>
      </trkpt>
      <trkpt lat="43.18635" lon="6.33796">
        <ele>332</ele>
        <time>2017-06-14T08:40:36Z</time>
      </trkpt>
      <trkpt lat="43.18658" lon="6.33712">
        <ele>337</ele>
        <time>2017-06-14T08:40:54Z</time>
      </trkpt>
      <trkpt lat="43.18666" lon="6.33683">
        <ele>338</ele>
        <time>2017-06-14T08:41:00Z</time>
      </trkpt>
      <trkpt lat="43.18672" lon="6.33629">
        <ele>340</ele>
        <time>2017-06-14T08:41:11Z</time>
      </trkpt>
      <trkpt lat="43.18673" lon="6.336">
        <ele>341</ele>
        <time>2017-06-14T08:41:17Z</time>
      </trkpt>
      <trkpt lat="43.18669" lon="6.33586">
        <ele>342</ele>
        <time>2017-06-14T08:41:20Z</time>
      </trkpt>
      <trkpt lat="43.18663" lon="6.33577">
        <ele>343</ele>
        <time>2017-06-14T08:41:23Z</time>
      </trkpt>
      <trkpt lat="43.18653" lon="6.33573">
        <ele>344</ele>
        <time>2017-06-14T08:41:26Z</time>
      </trkpt>
      <trkpt lat="43.18639" lon="6.33565">
        <ele>344</ele>
        <time>2017-06-14T08:41:30Z</time>
      </trkpt>
      <trkpt lat="43.18634" lon="6.33557">
        <ele>344</ele>
        <time>2017-06-14T08:41:32Z</time>
      </trkpt>
      <trkpt lat="43.18633" lon="6.33553">
        <ele>345</ele>
        <time>2017-06-14T08:41:33Z</time>
      </trkpt>
      <trkpt lat="43.18633" lon="6.33543">
        <ele>345</ele>
        <time>2017-06-14T08:41:35Z</time>
      </trkpt>
      <trkpt lat="43.18636" lon="6.33529">
        <ele>347</ele>
        <time>2017-06-14T08:41:38Z</time>
      </trkpt>
      <trkpt lat="43.18641" lon="6.33507">
        <ele>348</ele>
        <time>2017-06-14T08:41:43Z</time>
      </trkpt>
      <trkpt lat="43.18638" lon="6.33489">
        <ele>348</ele>
        <time>2017-06-14T08:41:47Z</time>
      </trkpt>
      <trkpt lat="43.18633" lon="6.33472">
        <ele>349</ele>
        <time>2017-06-14T08:41:51Z</time>
      </trkpt>
      <trkpt lat="43.18622" lon="6.33451">
        <ele>350</ele>
        <time>2017-06-14T08:41:56Z</time>
      </trkpt>
      <trkpt lat="43.18583" lon="6.33394">
        <ele>353</ele>
        <time>2017-06-14T08:42:10Z</time>
      </trkpt>
      <trkpt lat="43.18581" lon="6.33377">
        <ele>352</ele>
        <time>2017-06-14T08:42:13Z</time>
      </trkpt>
      <trkpt lat="43.18583" lon="6.33354">
        <ele>352</ele>
        <time>2017-06-14T08:42:17Z</time>
      </trkpt>
      <trkpt lat="43.18588" lon="6.33339">
        <ele>352</ele>
        <time>2017-06-14T08:42:20Z</time>
      </trkpt>
      <trkpt lat="43.18596" lon="6.33329">
        <ele>353</ele>
        <time>2017-06-14T08:42:23Z</time>
      </trkpt>
      <trkpt lat="43.18605" lon="6.33322">
        <ele>354</ele>
        <time>2017-06-14T08:42:26Z</time>
      </trkpt>
      <trkpt lat="43.18615" lon="6.33319">
        <ele>355</ele>
        <time>2017-06-14T08:42:29Z</time>
      </trkpt>
      <trkpt lat="43.18634" lon="6.33313">
        <ele>357</ele>
        <time>2017-06-14T08:42:35Z</time>
      </trkpt>
      <trkpt lat="43.18651" lon="6.33299">
        <ele>358</ele>
        <time>2017-06-14T08:42:40Z</time>
      </trkpt>
      <trkpt lat="43.1866" lon="6.33292">
        <ele>358</ele>
        <time>2017-06-14T08:42:43Z</time>
      </trkpt>
      <trkpt lat="43.18713" lon="6.33317">
        <ele>361</ele>
        <time>2017-06-14T08:42:59Z</time>
      </trkpt>
      <trkpt lat="43.1872" lon="6.3331">
        <ele>361</ele>
        <time>2017-06-14T08:43:01Z</time>
      </trkpt>
      <trkpt lat="43.18723" lon="6.33299">
        <ele>362</ele>
        <time>2017-06-14T08:43:03Z</time>
      </trkpt>
      <trkpt lat="43.18726" lon="6.33275">
        <ele>363</ele>
        <time>2017-06-14T08:43:07Z</time>
      </trkpt>
      <trkpt lat="43.18723" lon="6.33257">
        <ele>363</ele>
        <time>2017-06-14T08:43:10Z</time>
      </trkpt>
      <trkpt lat="43.18713" lon="6.33232">
        <ele>362</ele>
        <time>2017-06-14T08:43:15Z</time>
      </trkpt>
      <trkpt lat="43.18711" lon="6.33226">
        <ele>362</ele>
        <time>2017-06-14T08:43:16Z</time>
      </trkpt>
      <trkpt lat="43.18711" lon="6.33214">
        <ele>362</ele>
        <time>2017-06-14T08:43:18Z</time>
      </trkpt>
      <trkpt lat="43.18714" lon="6.33199">
        <ele>363</ele>
        <time>2017-06-14T08:43:21Z</time>
      </trkpt>
      <trkpt lat="43.18731" lon="6.33132">
        <ele>365</ele>
        <time>2017-06-14T08:43:33Z</time>
      </trkpt>
      <trkpt lat="43.18734" lon="6.33068">
        <ele>367</ele>
        <time>2017-06-14T08:43:43Z</time>
      </trkpt>
      <trkpt lat="43.18741" lon="6.3306">
        <ele>366</ele>
        <time>2017-06-14T08:43:45Z</time>
      </trkpt>
      <trkpt lat="43.1875" lon="6.33059">
        <ele>366</ele>
        <time>2017-06-14T08:43:47Z</time>
      </trkpt>
      <trkpt lat="43.18765" lon="6.33056">
        <ele>366</ele>
        <time>2017-06-14T08:43:50Z</time>
      </trkpt>
      <trkpt lat="43.1877" lon="6.33047">
        <ele>367</ele>
        <time>2017-06-14T08:43:52Z</time>
      </trkpt>
      <trkpt lat="43.18777" lon="6.33022">
        <ele>367</ele>
        <time>2017-06-14T08:43:56Z</time>
      </trkpt>
      <trkpt lat="43.18789" lon="6.32966">
        <ele>367</ele>
        <time>2017-06-14T08:44:05Z</time>
      </trkpt>
      <trkpt lat="43.18789" lon="6.3294">
        <ele>368</ele>
        <time>2017-06-14T08:44:09Z</time>
      </trkpt>
      <trkpt lat="43.18782" lon="6.32876">
        <ele>367</ele>
        <time>2017-06-14T08:44:19Z</time>
      </trkpt>
      <trkpt lat="43.18769" lon="6.32817">
        <ele>367</ele>
        <time>2017-06-14T08:44:29Z</time>
      </trkpt>
      <trkpt lat="43.18744" lon="6.32709">
        <ele>368</ele>
        <time>2017-06-14T08:44:48Z</time>
      </trkpt>
      <trkpt lat="43.18727" lon="6.32603">
        <ele>370</ele>
        <time>2017-06-14T08:45:06Z</time>
      </trkpt>
      <trkpt lat="43.18728" lon="6.32591">
        <ele>370</ele>
        <time>2017-06-14T08:45:08Z</time>
      </trkpt>
      <trkpt lat="43.18742" lon="6.3255">
        <ele>373</ele>
        <time>2017-06-14T08:45:16Z</time>
      </trkpt>
      <trkpt lat="43.18761" lon="6.32507">
        <ele>373</ele>
        <time>2017-06-14T08:45:24Z</time>
      </trkpt>
      <trkpt lat="43.18777" lon="6.32485">
        <ele>374</ele>
        <time>2017-06-14T08:45:29Z</time>
      </trkpt>
      <trkpt lat="43.18821" lon="6.32433">
        <ele>376</ele>
        <time>2017-06-14T08:45:44Z</time>
      </trkpt>
      <trkpt lat="43.18864" lon="6.3235">
        <ele>382</ele>
        <time>2017-06-14T08:46:06Z</time>
      </trkpt>
      <trkpt lat="43.18893" lon="6.32258">
        <ele>386</ele>
        <time>2017-06-14T08:46:27Z</time>
      </trkpt>
      <trkpt lat="43.18903" lon="6.32227">
        <ele>388</ele>
        <time>2017-06-14T08:46:34Z</time>
      </trkpt>
      <trkpt lat="43.18906" lon="6.32213">
        <ele>388</ele>
        <time>2017-06-14T08:46:37Z</time>
      </trkpt>
      <trkpt lat="43.18904" lon="6.32203">
        <ele>389</ele>
        <time>2017-06-14T08:46:39Z</time>
      </trkpt>
      <trkpt lat="43.18902" lon="6.32199">
        <ele>389</ele>
        <time>2017-06-14T08:46:40Z</time>
      </trkpt>
      <trkpt lat="43.18898" lon="6.32198">
        <ele>389</ele>
        <time>2017-06-14T08:46:41Z</time>
      </trkpt>
      <trkpt lat="43.1889" lon="6.322">
        <ele>389</ele>
        <time>2017-06-14T08:46:43Z</time>
      </trkpt>
      <trkpt lat="43.1888" lon="6.32209">
        <ele>389</ele>
        <time>2017-06-14T08:46:46Z</time>
      </trkpt>
      <trkpt lat="43.18869" lon="6.32214">
        <ele>390</ele>
        <time>2017-06-14T08:46:49Z</time>
      </trkpt>
      <trkpt lat="43.18865" lon="6.32213">
        <ele>390</ele>
        <time>2017-06-14T08:46:50Z</time>
      </trkpt>
      <trkpt lat="43.18859" lon="6.32207">
        <ele>390</ele>
        <time>2017-06-14T08:46:52Z</time>
      </trkpt>
      <trkpt lat="43.18857" lon="6.32197">
        <ele>391</ele>
        <time>2017-06-14T08:46:54Z</time>
      </trkpt>
      <trkpt lat="43.18854" lon="6.32159">
        <ele>392</ele>
        <time>2017-06-14T08:47:01Z</time>
      </trkpt>
      <trkpt lat="43.18856" lon="6.32144">
        <ele>392</ele>
        <time>2017-06-14T08:47:04Z</time>
      </trkpt>
      <trkpt lat="43.1889" lon="6.31975">
        <ele>399</ele>
        <time>2017-06-14T08:47:34Z</time>
      </trkpt>
      <trkpt lat="43.18906" lon="6.31781">
        <ele>399</ele>
        <time>2017-06-14T08:48:04Z</time>
      </trkpt>
      <trkpt lat="43.18935" lon="6.31715">
        <ele>400</ele>
        <time>2017-06-14T08:48:13Z</time>
      </trkpt>
      <trkpt lat="43.18948" lon="6.31713">
        <ele>401</ele>
        <time>2017-06-14T08:48:15Z</time>
      </trkpt>
      <trkpt lat="43.18965" lon="6.31722">
        <ele>400</ele>
        <time>2017-06-14T08:48:18Z</time>
      </trkpt>
      <trkpt lat="43.19" lon="6.31744">
        <ele>399</ele>
        <time>2017-06-14T08:48:24Z</time>
      </trkpt>
      <trkpt lat="43.19012" lon="6.31764">
        <ele>399</ele>
        <time>2017-06-14T08:48:27Z</time>
      </trkpt>
      <trkpt lat="43.19028" lon="6.31781">
        <ele>398</ele>
        <time>2017-06-14T08:48:30Z</time>
      </trkpt>
      <trkpt lat="43.19053" lon="6.31793">
        <ele>398</ele>
        <time>2017-06-14T08:48:34Z</time>
      </trkpt>
      <trkpt lat="43.19133" lon="6.31791">
        <ele>397</ele>
        <time>2017-06-14T08:48:47Z</time>
      </trkpt>
      <trkpt lat="43.19148" lon="6.31762">
        <ele>396</ele>
        <time>2017-06-14T08:48:51Z</time>
      </trkpt>
      <trkpt lat="43.19176" lon="6.31699">
        <ele>397</ele>
        <time>2017-06-14T08:48:59Z</time>
      </trkpt>
      <trkpt lat="43.19207" lon="6.31607">
        <ele>398</ele>
        <time>2017-06-14T08:49:10Z</time>
      </trkpt>
      <trkpt lat="43.19235" lon="6.31558">
        <ele>397</ele>
        <time>2017-06-14T08:49:17Z</time>
      </trkpt>
      <trkpt lat="43.19255" lon="6.31549">
        <ele>397</ele>
        <time>2017-06-14T08:49:20Z</time>
      </trkpt>
      <trkpt lat="43.19281" lon="6.31547">
        <ele>397</ele>
        <time>2017-06-14T08:49:24Z</time>
      </trkpt>
      <trkpt lat="43.1929" lon="6.31536">
        <ele>397</ele>
        <time>2017-06-14T08:49:26Z</time>
      </trkpt>
      <trkpt lat="43.19291" lon="6.31518">
        <ele>397</ele>
        <time>2017-06-14T08:49:28Z</time>
      </trkpt>
      <trkpt lat="43.19297" lon="6.31503">
        <ele>396</ele>
        <time>2017-06-14T08:49:30Z</time>
      </trkpt>
      <trkpt lat="43.19308" lon="6.31493">
        <ele>396</ele>
        <time>2017-06-14T08:49:32Z</time>
      </trkpt>
      <trkpt lat="43.19329" lon="6.31486">
        <ele>396</ele>
        <time>2017-06-14T08:49:35Z</time>
      </trkpt>
      <trkpt lat="43.19519" lon="6.31553">
        <ele>391</ele>
        <time>2017-06-14T08:50:05Z</time>
      </trkpt>
      <trkpt lat="43.19528" lon="6.31543">
        <ele>391</ele>
        <time>2017-06-14T08:50:07Z</time>
      </trkpt>
      <trkpt lat="43.19556" lon="6.31512">
        <ele>391</ele>
        <time>2017-06-14T08:50:13Z</time>
      </trkpt>
      <trkpt lat="43.19602" lon="6.31469">
        <ele>391</ele>
        <time>2017-06-14T08:50:22Z</time>
      </trkpt>
      <trkpt lat="43.19616" lon="6.31437">
        <ele>389</ele>
        <time>2017-06-14T08:50:26Z</time>
      </trkpt>
      <trkpt lat="43.19627" lon="6.31395">
        <ele>387</ele>
        <time>2017-06-14T08:50:31Z</time>
      </trkpt>
      <trkpt lat="43.1963" lon="6.31371">
        <ele>387</ele>
        <time>2017-06-14T08:50:34Z</time>
      </trkpt>
      <trkpt lat="43.19639" lon="6.31359">
        <ele>388</ele>
        <time>2017-06-14T08:50:36Z</time>
      </trkpt>
      <trkpt lat="43.19657" lon="6.31351">
        <ele>389</ele>
        <time>2017-06-14T08:50:39Z</time>
      </trkpt>
      <trkpt lat="43.1968" lon="6.31339">
        <ele>390</ele>
        <time>2017-06-14T08:50:43Z</time>
      </trkpt>
      <trkpt lat="43.19692" lon="6.31321">
        <ele>391</ele>
        <time>2017-06-14T08:50:46Z</time>
      </trkpt>
      <trkpt lat="43.19697" lon="6.31297">
        <ele>390</ele>
        <time>2017-06-14T08:50:49Z</time>
      </trkpt>
      <trkpt lat="43.19706" lon="6.31221">
        <ele>391</ele>
        <time>2017-06-14T08:50:58Z</time>
      </trkpt>
      <trkpt lat="43.1971" lon="6.31216">
        <ele>391</ele>
        <time>2017-06-14T08:50:59Z</time>
      </trkpt>
      <trkpt lat="43.19715" lon="6.31216">
        <ele>391</ele>
        <time>2017-06-14T08:51:00Z</time>
      </trkpt>
      <trkpt lat="43.1984" lon="6.31429">
        <ele>384</ele>
        <time>2017-06-14T08:51:30Z</time>
      </trkpt>
      <trkpt lat="43.19857" lon="6.31473">
        <ele>384</ele>
        <time>2017-06-14T08:51:35Z</time>
      </trkpt>
      <trkpt lat="43.19864" lon="6.3149">
        <ele>384</ele>
        <time>2017-06-14T08:51:37Z</time>
      </trkpt>
      <trkpt lat="43.19869" lon="6.31495">
        <ele>384</ele>
        <time>2017-06-14T08:51:38Z</time>
      </trkpt>
      <trkpt lat="43.19876" lon="6.31495">
        <ele>385</ele>
        <time>2017-06-14T08:51:39Z</time>
      </trkpt>
      <trkpt lat="43.19888" lon="6.31485">
        <ele>385</ele>
        <time>2017-06-14T08:51:41Z</time>
      </trkpt>
      <trkpt lat="43.19891" lon="6.31467">
        <ele>384</ele>
        <time>2017-06-14T08:51:43Z</time>
      </trkpt>
      <trkpt lat="43.19912" lon="6.31371">
        <ele>381</ele>
        <time>2017-06-14T08:51:55Z</time>
      </trkpt>
      <trkpt lat="43.19915" lon="6.31336">
        <ele>382</ele>
        <time>2017-06-14T08:51:59Z</time>
      </trkpt>
      <trkpt lat="43.19914" lon="6.31304">
        <ele>381</ele>
        <time>2017-06-14T08:52:03Z</time>
      </trkpt>
      <trkpt lat="43.19905" lon="6.31245">
        <ele>382</ele>
        <time>2017-06-14T08:52:11Z</time>
      </trkpt>
      <trkpt lat="43.19895" lon="6.31218">
        <ele>384</ele>
        <time>2017-06-14T08:52:15Z</time>
      </trkpt>
      <trkpt lat="43.19891" lon="6.31199">
        <ele>386</ele>
        <time>2017-06-14T08:52:18Z</time>
      </trkpt>
      <trkpt lat="43.19891" lon="6.31185">
        <ele>389</ele>
        <time>2017-06-14T08:52:20Z</time>
      </trkpt>
      <trkpt lat="43.19896" lon="6.31173">
        <ele>390</ele>
        <time>2017-06-14T08:52:22Z</time>
      </trkpt>
      <trkpt lat="43.19907" lon="6.31162">
        <ele>391</ele>
        <time>2017-06-14T08:52:25Z</time>
      </trkpt>
      <trkpt lat="43.19951" lon="6.31129">
        <ele>395</ele>
        <time>2017-06-14T08:52:36Z</time>
      </trkpt>
      <trkpt lat="43.19965" lon="6.31125">
        <ele>395</ele>
        <time>2017-06-14T08:52:39Z</time>
      </trkpt>
      <trkpt lat="43.20119" lon="6.31142">
        <ele>398</ele>
        <time>2017-06-14T08:53:09Z</time>
      </trkpt>
      <trkpt lat="43.20136" lon="6.31151">
        <ele>399</ele>
        <time>2017-06-14T08:53:13Z</time>
      </trkpt>
      <trkpt lat="43.20157" lon="6.31158">
        <ele>401</ele>
        <time>2017-06-14T08:53:17Z</time>
      </trkpt>
      <trkpt lat="43.20231" lon="6.31153">
        <ele>403</ele>
        <time>2017-06-14T08:53:32Z</time>
      </trkpt>
      <trkpt lat="43.20248" lon="6.31129">
        <ele>402</ele>
        <time>2017-06-14T08:53:37Z</time>
      </trkpt>
      <trkpt lat="43.20258" lon="6.31108">
        <ele>402</ele>
        <time>2017-06-14T08:53:41Z</time>
      </trkpt>
      <trkpt lat="43.20265" lon="6.31079">
        <ele>403</ele>
        <time>2017-06-14T08:53:46Z</time>
      </trkpt>
      <trkpt lat="43.20279" lon="6.31052">
        <ele>403</ele>
        <time>2017-06-14T08:53:51Z</time>
      </trkpt>
      <trkpt lat="43.20307" lon="6.3099">
        <ele>406</ele>
        <time>2017-06-14T08:54:02Z</time>
      </trkpt>
      <trkpt lat="43.20315" lon="6.30934">
        <ele>406</ele>
        <time>2017-06-14T08:54:11Z</time>
      </trkpt>
      <trkpt lat="43.20313" lon="6.30914">
        <ele>406</ele>
        <time>2017-06-14T08:54:14Z</time>
      </trkpt>
      <trkpt lat="43.20307" lon="6.30895">
        <ele>408</ele>
        <time>2017-06-14T08:54:17Z</time>
      </trkpt>
      <trkpt lat="43.20287" lon="6.30839">
        <ele>409</ele>
        <time>2017-06-14T08:54:26Z</time>
      </trkpt>
      <trkpt lat="43.20286" lon="6.30801">
        <ele>407</ele>
        <time>2017-06-14T08:54:31Z</time>
      </trkpt>
      <trkpt lat="43.2028" lon="6.30669">
        <ele>405</ele>
        <time>2017-06-14T08:54:49Z</time>
      </trkpt>
      <trkpt lat="43.20255" lon="6.30602">
        <ele>408</ele>
        <time>2017-06-14T08:54:59Z</time>
      </trkpt>
      <trkpt lat="43.20256" lon="6.30581">
        <ele>409</ele>
        <time>2017-06-14T08:55:02Z</time>
      </trkpt>
      <trkpt lat="43.20261" lon="6.30576">
        <ele>409</ele>
        <time>2017-06-14T08:55:03Z</time>
      </trkpt>
      <trkpt lat="43.20271" lon="6.30571">
        <ele>410</ele>
        <time>2017-06-14T08:55:05Z</time>
      </trkpt>
      <trkpt lat="43.20302" lon="6.3057">
        <ele>412</ele>
        <time>2017-06-14T08:55:11Z</time>
      </trkpt>
      <trkpt lat="43.20411" lon="6.30455">
        <ele>413</ele>
        <time>2017-06-14T08:55:41Z</time>
      </trkpt>
      <trkpt lat="43.20426" lon="6.3042">
        <ele>413</ele>
        <time>2017-06-14T08:55:54Z</time>
      </trkpt>
      <trkpt lat="43.20441" lon="6.30382">
        <ele>412</ele>
        <time>2017-06-14T08:56:03Z</time>
      </trkpt>
      <trkpt lat="43.20466" lon="6.30331">
        <ele>412</ele>
        <time>2017-06-14T08:56:10Z</time>
      </trkpt>
      <trkpt lat="43.20482" lon="6.30298">
        <ele>411</ele>
        <time>2017-06-14T08:56:14Z</time>
      </trkpt>
      <trkpt lat="43.20505" lon="6.30265">
        <ele>412</ele>
        <time>2017-06-14T08:56:18Z</time>
      </trkpt>
      <trkpt lat="43.20533" lon="6.3021">
        <ele>411</ele>
        <time>2017-06-14T08:56:24Z</time>
      </trkpt>
      <trkpt lat="43.20537" lon="6.30177">
        <ele>408</ele>
        <time>2017-06-14T08:56:27Z</time>
      </trkpt>
      <trkpt lat="43.20529" lon="6.30158">
        <ele>408</ele>
        <time>2017-06-14T08:56:29Z</time>
      </trkpt>
      <trkpt lat="43.20509" lon="6.30125">
        <ele>406</ele>
        <time>2017-06-14T08:56:33Z</time>
      </trkpt>
      <trkpt lat="43.20508" lon="6.30103">
        <ele>405</ele>
        <time>2017-06-14T08:56:35Z</time>
      </trkpt>
      <trkpt lat="43.20511" lon="6.3006">
        <ele>404</ele>
        <time>2017-06-14T08:56:39Z</time>
      </trkpt>
      <trkpt lat="43.20498" lon="6.30032">
        <ele>403</ele>
        <time>2017-06-14T08:56:42Z</time>
      </trkpt>
      <trkpt lat="43.20482" lon="6.29982">
        <ele>402</ele>
        <time>2017-06-14T08:56:47Z</time>
      </trkpt>
      <trkpt lat="43.20481" lon="6.29961">
        <ele>402</ele>
        <time>2017-06-14T08:56:49Z</time>
      </trkpt>
      <trkpt lat="43.20483" lon="6.29952">
        <ele>402</ele>
        <time>2017-06-14T08:56:50Z</time>
      </trkpt>
      <trkpt lat="43.20491" lon="6.29948">
        <ele>401</ele>
        <time>2017-06-14T08:56:51Z</time>
      </trkpt>
      <trkpt lat="43.20505" lon="6.29944">
        <ele>400</ele>
        <time>2017-06-14T08:56:53Z</time>
      </trkpt>
      <trkpt lat="43.20543" lon="6.29931">
        <ele>396</ele>
        <time>2017-06-14T08:56:58Z</time>
      </trkpt>
      <trkpt lat="43.20569" lon="6.29906">
        <ele>394</ele>
        <time>2017-06-14T08:57:02Z</time>
      </trkpt>
      <trkpt lat="43.20577" lon="6.29907">
        <ele>394</ele>
        <time>2017-06-14T08:57:03Z</time>
      </trkpt>
      <trkpt lat="43.20617" lon="6.29939">
        <ele>392</ele>
        <time>2017-06-14T08:57:09Z</time>
      </trkpt>
      <trkpt lat="43.20711" lon="6.29898">
        <ele>387</ele>
        <time>2017-06-14T08:57:21Z</time>
      </trkpt>
      <trkpt lat="43.20721" lon="6.29865">
        <ele>386</ele>
        <time>2017-06-14T08:57:24Z</time>
      </trkpt>
      <trkpt lat="43.20736" lon="6.29787">
        <ele>383</ele>
        <time>2017-06-14T08:57:31Z</time>
      </trkpt>
      <trkpt lat="43.20731" lon="6.29768">
        <ele>383</ele>
        <time>2017-06-14T08:57:33Z</time>
      </trkpt>
      <trkpt lat="43.20717" lon="6.29756">
        <ele>382</ele>
        <time>2017-06-14T08:57:35Z</time>
      </trkpt>
      <trkpt lat="43.2068" lon="6.29727">
        <ele>380</ele>
        <time>2017-06-14T08:57:40Z</time>
      </trkpt>
      <trkpt lat="43.20657" lon="6.2968">
        <ele>379</ele>
        <time>2017-06-14T08:57:45Z</time>
      </trkpt>
      <trkpt lat="43.20635" lon="6.29667">
        <ele>378</ele>
        <time>2017-06-14T08:57:48Z</time>
      </trkpt>
      <trkpt lat="43.20613" lon="6.29647">
        <ele>377</ele>
        <time>2017-06-14T08:57:51Z</time>
      </trkpt>
      <trkpt lat="43.20599" lon="6.29618">
        <ele>376</ele>
        <time>2017-06-14T08:57:54Z</time>
      </trkpt>
      <trkpt lat="43.20584" lon="6.29573">
        <ele>374</ele>
        <time>2017-06-14T08:57:59Z</time>
      </trkpt>
      <trkpt lat="43.20585" lon="6.29568">
        <ele>373</ele>
        <time>2017-06-14T08:58:00Z</time>
      </trkpt>
      <trkpt lat="43.20596" lon="6.29558">
        <ele>373</ele>
        <time>2017-06-14T08:58:02Z</time>
      </trkpt>
      <trkpt lat="43.20624" lon="6.2953">
        <ele>373</ele>
        <time>2017-06-14T08:58:07Z</time>
      </trkpt>
      <trkpt lat="43.20637" lon="6.29493">
        <ele>371</ele>
        <time>2017-06-14T08:58:11Z</time>
      </trkpt>
      <trkpt lat="43.20651" lon="6.29485">
        <ele>371</ele>
        <time>2017-06-14T08:58:13Z</time>
      </trkpt>
      <trkpt lat="43.20794" lon="6.29521">
        <ele>362</ele>
        <time>2017-06-14T08:58:32Z</time>
      </trkpt>
      <trkpt lat="43.208" lon="6.29513">
        <ele>361</ele>
        <time>2017-06-14T08:58:33Z</time>
      </trkpt>
      <trkpt lat="43.20803" lon="6.29492">
        <ele>361</ele>
        <time>2017-06-14T08:58:35Z</time>
      </trkpt>
      <trkpt lat="43.20799" lon="6.29459">
        <ele>360</ele>
        <time>2017-06-14T08:58:38Z</time>
      </trkpt>
      <trkpt lat="43.20798" lon="6.29449">
        <ele>360</ele>
        <time>2017-06-14T08:58:39Z</time>
      </trkpt>
      <trkpt lat="43.20803" lon="6.2943">
        <ele>359</ele>
        <time>2017-06-14T08:58:41Z</time>
      </trkpt>
      <trkpt lat="43.2081" lon="6.29424">
        <ele>359</ele>
        <time>2017-06-14T08:58:42Z</time>
      </trkpt>
      <trkpt lat="43.20825" lon="6.29425">
        <ele>359</ele>
        <time>2017-06-14T08:58:44Z</time>
      </trkpt>
      <trkpt lat="43.20974" lon="6.29423">
        <ele>360</ele>
        <time>2017-06-14T08:59:03Z</time>
      </trkpt>
      <trkpt lat="43.20982" lon="6.29428">
        <ele>357</ele>
        <time>2017-06-14T08:59:04Z</time>
      </trkpt>
      <trkpt lat="43.20997" lon="6.29433">
        <ele>353</ele>
        <time>2017-06-14T08:59:06Z</time>
      </trkpt>
      <trkpt lat="43.21042" lon="6.29426">
        <ele>348</ele>
        <time>2017-06-14T08:59:11Z</time>
      </trkpt>
      <trkpt lat="43.2106" lon="6.29417">
        <ele>346</ele>
        <time>2017-06-14T08:59:13Z</time>
      </trkpt>
      <trkpt lat="43.21072" lon="6.29399">
        <ele>345</ele>
        <time>2017-06-14T08:59:15Z</time>
      </trkpt>
      <trkpt lat="43.21108" lon="6.29347">
        <ele>342</ele>
        <time>2017-06-14T08:59:21Z</time>
      </trkpt>
      <trkpt lat="43.21125" lon="6.29344">
        <ele>341</ele>
        <time>2017-06-14T08:59:23Z</time>
      </trkpt>
      <trkpt lat="43.2115" lon="6.29352">
        <ele>340</ele>
        <time>2017-06-14T08:59:26Z</time>
      </trkpt>
      <trkpt lat="43.21165" lon="6.2937">
        <ele>341</ele>
        <time>2017-06-14T08:59:28Z</time>
      </trkpt>
      <trkpt lat="43.21197" lon="6.29404">
        <ele>341</ele>
        <time>2017-06-14T08:59:33Z</time>
      </trkpt>
      <trkpt lat="43.21211" lon="6.29404">
        <ele>340</ele>
        <time>2017-06-14T08:59:35Z</time>
      </trkpt>
      <trkpt lat="43.21284" lon="6.29382">
        <ele>339</ele>
        <time>2017-06-14T08:59:43Z</time>
      </trkpt>
      <trkpt lat="43.21336" lon="6.29384">
        <ele>336</ele>
        <time>2017-06-14T08:59:49Z</time>
      </trkpt>
      <trkpt lat="43.2134" lon="6.29392">
        <ele>335</ele>
        <time>2017-06-14T08:59:50Z</time>
      </trkpt>
      <trkpt lat="43.21341" lon="6.29401">
        <ele>334</ele>
        <time>2017-06-14T08:59:51Z</time>
      </trkpt>
      <trkpt lat="43.21339" lon="6.2942">
        <ele>333</ele>
        <time>2017-06-14T08:59:53Z</time>
      </trkpt>
      <trkpt lat="43.21337" lon="6.29431">
        <ele>333</ele>
        <time>2017-06-14T08:59:54Z</time>
      </trkpt>
      <trkpt lat="43.21321" lon="6.29463">
        <ele>331</ele>
        <time>2017-06-14T08:59:57Z</time>
      </trkpt>
      <trkpt lat="43.21301" lon="6.29519">
        <ele>329</ele>
        <time>2017-06-14T09:00:02Z</time>
      </trkpt>
      <trkpt lat="43.213" lon="6.29544">
        <ele>328</ele>
        <time>2017-06-14T09:00:04Z</time>
      </trkpt>
      <trkpt lat="43.2131" lon="6.29581">
        <ele>327</ele>
        <time>2017-06-14T09:00:07Z</time>
      </trkpt>
      <trkpt lat="43.21351" lon="6.2975">
        <ele>321</ele>
        <time>2017-06-14T09:00:21Z</time>
      </trkpt>
      <trkpt lat="43.21354" lon="6.29773">
        <ele>318</ele>
        <time>2017-06-14T09:00:23Z</time>
      </trkpt>
      <trkpt lat="43.2136" lon="6.29782">
        <ele>317</ele>
        <time>2017-06-14T09:00:24Z</time>
      </trkpt>
      <trkpt lat="43.21366" lon="6.29786">
        <ele>317</ele>
        <time>2017-06-14T09:00:25Z</time>
      </trkpt>
      <trkpt lat="43.21381" lon="6.29784">
        <ele>316</ele>
        <time>2017-06-14T09:00:27Z</time>
      </trkpt>
      <trkpt lat="43.21555" lon="6.29778">
        <ele>309</ele>
        <time>2017-06-14T09:00:46Z</time>
      </trkpt>
      <trkpt lat="43.21592" lon="6.29787">
        <ele>308</ele>
        <time>2017-06-14T09:00:50Z</time>
      </trkpt>
      <trkpt lat="43.21606" lon="6.29806">
        <ele>306</ele>
        <time>2017-06-14T09:00:52Z</time>
      </trkpt>
      <trkpt lat="43.21626" lon="6.29855">
        <ele>304</ele>
        <time>2017-06-14T09:00:56Z</time>
      </trkpt>
      <trkpt lat="43.21638" lon="6.29921">
        <ele>299</ele>
        <time>2017-06-14T09:01:01Z</time>
      </trkpt>
      <trkpt lat="43.21656" lon="6.29967">
        <ele>296</ele>
        <time>2017-06-14T09:01:05Z</time>
      </trkpt>
      <trkpt lat="43.21671" lon="6.29982">
        <ele>294</ele>
        <time>2017-06-14T09:01:07Z</time>
      </trkpt>
      <trkpt lat="43.21711" lon="6.29992">
        <ele>292</ele>
        <time>2017-06-14T09:01:11Z</time>
      </trkpt>
      <trkpt lat="43.21816" lon="6.30017">
        <ele>287</ele>
        <time>2017-06-14T09:01:22Z</time>
      </trkpt>
      <trkpt lat="43.21829" lon="6.3">
        <ele>285</ele>
        <time>2017-06-14T09:01:24Z</time>
      </trkpt>
      <trkpt lat="43.21843" lon="6.29965">
        <ele>283</ele>
        <time>2017-06-14T09:01:27Z</time>
      </trkpt>
      <trkpt lat="43.21848" lon="6.29928">
        <ele>284</ele>
        <time>2017-06-14T09:01:30Z</time>
      </trkpt>
      <trkpt lat="43.21846" lon="6.29876">
        <ele>283</ele>
        <time>2017-06-14T09:01:34Z</time>
      </trkpt>
      <trkpt lat="43.21841" lon="6.29841">
        <ele>282</ele>
        <time>2017-06-14T09:01:37Z</time>
      </trkpt>
      <trkpt lat="43.21851" lon="6.29821">
        <ele>284</ele>
        <time>2017-06-14T09:01:39Z</time>
      </trkpt>
      <trkpt lat="43.21858" lon="6.29794">
        <ele>281</ele>
        <time>2017-06-14T09:01:42Z</time>
      </trkpt>
      <trkpt lat="43.21855" lon="6.29784">
        <ele>280</ele>
        <time>2017-06-14T09:01:43Z</time>
      </trkpt>
      <trkpt lat="43.21846" lon="6.29769">
        <ele>278</ele>
        <time>2017-06-14T09:01:45Z</time>
      </trkpt>
      <trkpt lat="43.21829" lon="6.29762">
        <ele>276</ele>
        <time>2017-06-14T09:01:47Z</time>
      </trkpt>
      <trkpt lat="43.21802" lon="6.29732">
        <ele>276</ele>
        <time>2017-06-14T09:01:51Z</time>
      </trkpt>
      <trkpt lat="43.2178" lon="6.29695">
        <ele>274</ele>
        <time>2017-06-14T09:01:55Z</time>
      </trkpt>
      <trkpt lat="43.21769" lon="6.2965">
        <ele>273</ele>
        <time>2017-06-14T09:01:59Z</time>
      </trkpt>
      <trkpt lat="43.21754" lon="6.29639">
        <ele>273</ele>
        <time>2017-06-14T09:02:01Z</time>
      </trkpt>
      <trkpt lat="43.21711" lon="6.2959">
        <ele>268</ele>
        <time>2017-06-14T09:02:09Z</time>
      </trkpt>
      <trkpt lat="43.21711" lon="6.2957">
        <ele>266</ele>
        <time>2017-06-14T09:02:11Z</time>
      </trkpt>
      <trkpt lat="43.2172" lon="6.29557">
        <ele>266</ele>
        <time>2017-06-14T09:02:13Z</time>
      </trkpt>
      <trkpt lat="43.21725" lon="6.29556">
        <ele>265</ele>
        <time>2017-06-14T09:02:14Z</time>
      </trkpt>
      <trkpt lat="43.21744" lon="6.29564">
        <ele>264</ele>
        <time>2017-06-14T09:02:16Z</time>
      </trkpt>
      <trkpt lat="43.2177" lon="6.29572">
        <ele>263</ele>
        <time>2017-06-14T09:02:19Z</time>
      </trkpt>
      <trkpt lat="43.21786" lon="6.29563">
        <ele>262</ele>
        <time>2017-06-14T09:02:21Z</time>
      </trkpt>
      <trkpt lat="43.21792" lon="6.29557">
        <ele>262</ele>
        <time>2017-06-14T09:02:22Z</time>
      </trkpt>
      <trkpt lat="43.21797" lon="6.29536">
        <ele>261</ele>
        <time>2017-06-14T09:02:24Z</time>
      </trkpt>
      <trkpt lat="43.21801" lon="6.29525">
        <ele>261</ele>
        <time>2017-06-14T09:02:25Z</time>
      </trkpt>
      <trkpt lat="43.21816" lon="6.29517">
        <ele>259</ele>
        <time>2017-06-14T09:02:27Z</time>
      </trkpt>
      <trkpt lat="43.21838" lon="6.29513">
        <ele>258</ele>
        <time>2017-06-14T09:02:30Z</time>
      </trkpt>
      <trkpt lat="43.21846" lon="6.29515">
        <ele>258</ele>
        <time>2017-06-14T09:02:31Z</time>
      </trkpt>
      <trkpt lat="43.21855" lon="6.29526">
        <ele>256</ele>
        <time>2017-06-14T09:02:32Z</time>
      </trkpt>
      <trkpt lat="43.21877" lon="6.29522">
        <ele>254</ele>
        <time>2017-06-14T09:02:35Z</time>
      </trkpt>
      <trkpt lat="43.2189" lon="6.29508">
        <ele>252</ele>
        <time>2017-06-14T09:02:37Z</time>
      </trkpt>
      <trkpt lat="43.21901" lon="6.29493">
        <ele>253</ele>
        <time>2017-06-14T09:02:39Z</time>
      </trkpt>
      <trkpt lat="43.21916" lon="6.29491">
        <ele>252</ele>
        <time>2017-06-14T09:02:41Z</time>
      </trkpt>
      <trkpt lat="43.21922" lon="6.29497">
        <ele>251</ele>
        <time>2017-06-14T09:02:42Z</time>
      </trkpt>
      <trkpt lat="43.21927" lon="6.29515">
        <ele>250</ele>
        <time>2017-06-14T09:02:44Z</time>
      </trkpt>
      <trkpt lat="43.2194" lon="6.2955">
        <ele>249</ele>
        <time>2017-06-14T09:02:48Z</time>
      </trkpt>
      <trkpt lat="43.21958" lon="6.29568">
        <ele>248</ele>
        <time>2017-06-14T09:02:51Z</time>
      </trkpt>
      <trkpt lat="43.22045" lon="6.29615">
        <ele>243</ele>
        <time>2017-06-14T09:03:01Z</time>
      </trkpt>
      <trkpt lat="43.22071" lon="6.29601">
        <ele>241</ele>
        <time>2017-06-14T09:03:05Z</time>
      </trkpt>
      <trkpt lat="43.22076" lon="6.29591">
        <ele>241</ele>
        <time>2017-06-14T09:03:06Z</time>
      </trkpt>
      <trkpt lat="43.22074" lon="6.29582">
        <ele>240</ele>
        <time>2017-06-14T09:03:07Z</time>
      </trkpt>
      <trkpt lat="43.22082" lon="6.29569">
        <ele>240</ele>
        <time>2017-06-14T09:03:09Z</time>
      </trkpt>
      <trkpt lat="43.22096" lon="6.29567">
        <ele>239</ele>
        <time>2017-06-14T09:03:11Z</time>
      </trkpt>
      <trkpt lat="43.22105" lon="6.2957">
        <ele>239</ele>
        <time>2017-06-14T09:03:12Z</time>
      </trkpt>
      <trkpt lat="43.22107" lon="6.29584">
        <ele>238</ele>
        <time>2017-06-14T09:03:13Z</time>
      </trkpt>
      <trkpt lat="43.22125" lon="6.29604">
        <ele>235</ele>
        <time>2017-06-14T09:03:16Z</time>
      </trkpt>
      <trkpt lat="43.22155" lon="6.29617">
        <ele>234</ele>
        <time>2017-06-14T09:03:20Z</time>
      </trkpt>
      <trkpt lat="43.22196" lon="6.29611">
        <ele>231</ele>
        <time>2017-06-14T09:03:25Z</time>
      </trkpt>
      <trkpt lat="43.22209" lon="6.29594">
        <ele>230</ele>
        <time>2017-06-14T09:03:27Z</time>
      </trkpt>
      <trkpt lat="43.22223" lon="6.29561">
        <ele>230</ele>
        <time>2017-06-14T09:03:30Z</time>
      </trkpt>
      <trkpt lat="43.22227" lon="6.29527">
        <ele>230</ele>
        <time>2017-06-14T09:03:33Z</time>
      </trkpt>
      <trkpt lat="43.22236" lon="6.29511">
        <ele>229</ele>
        <time>2017-06-14T09:03:35Z</time>
      </trkpt>
      <trkpt lat="43.22245" lon="6.29519">
        <ele>229</ele>
        <time>2017-06-14T09:03:36Z</time>
      </trkpt>
      <trkpt lat="43.22477" lon="6.2971">
        <ele>212</ele>
        <time>2017-06-14T09:04:06Z</time>
      </trkpt>
      <trkpt lat="43.22537" lon="6.29703">
        <ele>209</ele>
        <time>2017-06-14T09:04:12Z</time>
      </trkpt>
      <trkpt lat="43.22548" lon="6.29686">
        <ele>206</ele>
        <time>2017-06-14T09:04:14Z</time>
      </trkpt>
      <trkpt lat="43.22548" lon="6.29676">
        <ele>205</ele>
        <time>2017-06-14T09:04:15Z</time>
      </trkpt>
      <trkpt lat="43.22545" lon="6.2965">
        <ele>204</ele>
        <time>2017-06-14T09:04:17Z</time>
      </trkpt>
      <trkpt lat="43.22534" lon="6.29608">
        <ele>204</ele>
        <time>2017-06-14T09:04:21Z</time>
      </trkpt>
      <trkpt lat="43.2252" lon="6.29575">
        <ele>204</ele>
        <time>2017-06-14T09:04:24Z</time>
      </trkpt>
      <trkpt lat="43.22522" lon="6.29558">
        <ele>203</ele>
        <time>2017-06-14T09:04:26Z</time>
      </trkpt>
      <trkpt lat="43.22534" lon="6.29545">
        <ele>202</ele>
        <time>2017-06-14T09:04:28Z</time>
      </trkpt>
      <trkpt lat="43.22553" lon="6.29541">
        <ele>201</ele>
        <time>2017-06-14T09:04:30Z</time>
      </trkpt>
      <trkpt lat="43.22563" lon="6.29531">
        <ele>200</ele>
        <time>2017-06-14T09:04:32Z</time>
      </trkpt>
      <trkpt lat="43.22562" lon="6.29521">
        <ele>198</ele>
        <time>2017-06-14T09:04:33Z</time>
      </trkpt>
      <trkpt lat="43.22561" lon="6.29492">
        <ele>196</ele>
        <time>2017-06-14T09:04:36Z</time>
      </trkpt>
      <trkpt lat="43.22575" lon="6.2946">
        <ele>195</ele>
        <time>2017-06-14T09:04:39Z</time>
      </trkpt>
      <trkpt lat="43.22597" lon="6.29438">
        <ele>195</ele>
        <time>2017-06-14T09:04:42Z</time>
      </trkpt>
      <trkpt lat="43.2261" lon="6.29412">
        <ele>194</ele>
        <time>2017-06-14T09:04:45Z</time>
      </trkpt>
      <trkpt lat="43.22608" lon="6.29404">
        <ele>194</ele>
        <time>2017-06-14T09:04:46Z</time>
      </trkpt>
      <trkpt lat="43.226" lon="6.29393">
        <ele>193</ele>
        <time>2017-06-14T09:04:47Z</time>
      </trkpt>
      <trkpt lat="43.2259" lon="6.29381">
        <ele>192</ele>
        <time>2017-06-14T09:04:49Z</time>
      </trkpt>
      <trkpt lat="43.22559" lon="6.29324">
        <ele>190</ele>
        <time>2017-06-14T09:04:55Z</time>
      </trkpt>
      <trkpt lat="43.22566" lon="6.29303">
        <ele>188</ele>
        <time>2017-06-14T09:04:57Z</time>
      </trkpt>
      <trkpt lat="43.22579" lon="6.29291">
        <ele>186</ele>
        <time>2017-06-14T09:04:59Z</time>
      </trkpt>
      <trkpt lat="43.22588" lon="6.29289">
        <ele>186</ele>
        <time>2017-06-14T09:05:00Z</time>
      </trkpt>
      <trkpt lat="43.22601" lon="6.29272">
        <ele>185</ele>
        <time>2017-06-14T09:05:02Z</time>
      </trkpt>
      <trkpt lat="43.22633" lon="6.29231">
        <ele>183</ele>
        <time>2017-06-14T09:05:07Z</time>
      </trkpt>
      <trkpt lat="43.22651" lon="6.2923">
        <ele>181</ele>
        <time>2017-06-14T09:05:09Z</time>
      </trkpt>
      <trkpt lat="43.22667" lon="6.29235">
        <ele>180</ele>
        <time>2017-06-14T09:05:11Z</time>
      </trkpt>
      <trkpt lat="43.22804" lon="6.29035">
        <ele>169</ele>
        <time>2017-06-14T09:05:34Z</time>
      </trkpt>
      <trkpt lat="43.22831" lon="6.28906">
        <ele>162</ele>
        <time>2017-06-14T09:05:44Z</time>
      </trkpt>
      <trkpt lat="43.22858" lon="6.28832">
        <ele>159</ele>
        <time>2017-06-14T09:05:50Z</time>
      </trkpt>
      <trkpt lat="43.2288" lon="6.28804">
        <ele>158</ele>
        <time>2017-06-14T09:05:53Z</time>
      </trkpt>
      <trkpt lat="43.2291" lon="6.28796">
        <ele>156</ele>
        <time>2017-06-14T09:05:56Z</time>
      </trkpt>
      <trkpt lat="43.22935" lon="6.2878">
        <ele>151</ele>
        <time>2017-06-14T09:05:59Z</time>
      </trkpt>
      <trkpt lat="43.22966" lon="6.28741">
        <ele>149</ele>
        <time>2017-06-14T09:06:04Z</time>
      </trkpt>
      <trkpt lat="43.22976" lon="6.28749">
        <ele>149</ele>
        <time>2017-06-14T09:06:05Z</time>
      </trkpt>
      <trkpt lat="43.22988" lon="6.28764">
        <ele>150</ele>
        <time>2017-06-14T09:06:07Z</time>
      </trkpt>
      <trkpt lat="43.23017" lon="6.28795">
        <ele>149</ele>
        <time>2017-06-14T09:06:12Z</time>
      </trkpt>
      <trkpt lat="43.23175" lon="6.28619">
        <ele>148</ele>
        <time>2017-06-14T09:06:42Z</time>
      </trkpt>
      <trkpt lat="43.2322" lon="6.28542">
        <ele>148</ele>
        <time>2017-06-14T09:06:53Z</time>
      </trkpt>
      <trkpt lat="43.23247" lon="6.28522">
        <ele>147</ele>
        <time>2017-06-14T09:06:58Z</time>
      </trkpt>
      <trkpt lat="43.2329" lon="6.28489">
        <ele>148</ele>
        <time>2017-06-14T09:07:07Z</time>
      </trkpt>
      <trkpt lat="43.233" lon="6.28488">
        <ele>148</ele>
        <time>2017-06-14T09:07:09Z</time>
      </trkpt>
      <trkpt lat="43.23305" lon="6.28488">
        <ele>148</ele>
        <time>2017-06-14T09:07:10Z</time>
      </trkpt>
      <trkpt lat="43.23312" lon="6.28499">
        <ele>148</ele>
        <time>2017-06-14T09:07:12Z</time>
      </trkpt>
      <trkpt lat="43.23329" lon="6.28529">
        <ele>147</ele>
        <time>2017-06-14T09:07:17Z</time>
      </trkpt>
      <trkpt lat="43.23396" lon="6.28633">
        <ele>146</ele>
        <time>2017-06-14T09:07:33Z</time>
      </trkpt>
      <trkpt lat="43.23474" lon="6.28724">
        <ele>143</ele>
        <time>2017-06-14T09:07:46Z</time>
      </trkpt>
      <trkpt lat="43.23498" lon="6.28733">
        <ele>143</ele>
        <time>2017-06-14T09:07:49Z</time>
      </trkpt>
      <trkpt lat="43.23604" lon="6.28679">
        <ele>140</ele>
        <time>2017-06-14T09:08:08Z</time>
      </trkpt>
      <trkpt lat="43.23609" lon="6.28692">
        <ele>139</ele>
        <time>2017-06-14T09:08:10Z</time>
      </trkpt>
      <trkpt lat="43.23634" lon="6.28738">
        <ele>140</ele>
        <time>2017-06-14T09:08:18Z</time>
      </trkpt>
      <trkpt lat="43.23674" lon="6.28795">
        <ele>141</ele>
        <time>2017-06-14T09:08:29Z</time>
      </trkpt>
      <trkpt lat="43.23701" lon="6.28831">
        <ele>140</ele>
        <time>2017-06-14T09:08:36Z</time>
      </trkpt>
      <trkpt lat="43.23751" lon="6.2891">
        <ele>140</ele>
        <time>2017-06-14T09:08:50Z</time>
      </trkpt>
      <trkpt lat="43.23757" lon="6.28939">
        <ele>140</ele>
        <time>2017-06-14T09:08:54Z</time>
      </trkpt>
      <trkpt lat="43.23796" lon="6.29127">
        <ele>142</ele>
        <time>2017-06-14T09:09:23Z</time>
      </trkpt>
      <trkpt lat="43.238" lon="6.29335">
        <ele>146</ele>
        <time>2017-06-14T09:09:53Z</time>
      </trkpt>
      <trkpt lat="43.23799" lon="6.29414">
        <ele>150</ele>
        <time>2017-06-14T09:10:09Z</time>
      </trkpt>
      <trkpt lat="43.23803" lon="6.2944">
        <ele>151</ele>
        <time>2017-06-14T09:10:14Z</time>
      </trkpt>
      <trkpt lat="43.23814" lon="6.29472">
        <ele>151</ele>
        <time>2017-06-14T09:10:20Z</time>
      </trkpt>
      <trkpt lat="43.23867" lon="6.29603">
        <ele>148</ele>
        <time>2017-06-14T09:10:39Z</time>
      </trkpt>
      <trkpt lat="43.23898" lon="6.29686">
        <ele>148</ele>
        <time>2017-06-14T09:10:50Z</time>
      </trkpt>
      <trkpt lat="43.23909" lon="6.29738">
        <ele>148</ele>
        <time>2017-06-14T09:10:56Z</time>
      </trkpt>
      <trkpt lat="43.23918" lon="6.29853">
        <ele>148</ele>
        <time>2017-06-14T09:11:08Z</time>
      </trkpt>
      <trkpt lat="43.23909" lon="6.29905">
        <ele>149</ele>
        <time>2017-06-14T09:11:14Z</time>
      </trkpt>
      <trkpt lat="43.2387" lon="6.3005">
        <ele>150</ele>
        <time>2017-06-14T09:11:35Z</time>
      </trkpt>
      <trkpt lat="43.23824" lon="6.30168">
        <ele>149</ele>
        <time>2017-06-14T09:11:55Z</time>
      </trkpt>
      <trkpt lat="43.2376" lon="6.30316">
        <ele>152</ele>
        <time>2017-06-14T09:12:22Z</time>
      </trkpt>
      <trkpt lat="43.23707" lon="6.30446">
        <ele>154</ele>
        <time>2017-06-14T09:12:52Z</time>
      </trkpt>
      <trkpt lat="43.23686" lon="6.30513">
        <ele>154</ele>
        <time>2017-06-14T09:13:06Z</time>
      </trkpt>
      <trkpt lat="43.23668" lon="6.30614">
        <ele>153</ele>
        <time>2017-06-14T09:13:22Z</time>
      </trkpt>
      <trkpt lat="43.23666" lon="6.30648">
        <ele>153</ele>
        <time>2017-06-14T09:13:26Z</time>
      </trkpt>
      <trkpt lat="43.23674" lon="6.30682">
        <ele>154</ele>
        <time>2017-06-14T09:13:30Z</time>
      </trkpt>
      <trkpt lat="43.23695" lon="6.30751">
        <ele>156</ele>
        <time>2017-06-14T09:13:40Z</time>
      </trkpt>
      <trkpt lat="43.23691" lon="6.3076">
        <ele>156</ele>
        <time>2017-06-14T09:13:42Z</time>
      </trkpt>
      <trkpt lat="43.23681" lon="6.30782">
        <ele>155</ele>
        <time>2017-06-14T09:13:47Z</time>
      </trkpt>
      <trkpt lat="43.23682" lon="6.3079">
        <ele>155</ele>
        <time>2017-06-14T09:13:49Z</time>
      </trkpt>
      <trkpt lat="43.23686" lon="6.30796">
        <ele>155</ele>
        <time>2017-06-14T09:13:51Z</time>
      </trkpt>
      <trkpt lat="43.23696" lon="6.30809">
        <ele>155</ele>
        <time>2017-06-14T09:13:56Z</time>
      </trkpt>
      <trkpt lat="43.2372" lon="6.30833">
        <ele>151</ele>
        <time>2017-06-14T09:14:09Z</time>
      </trkpt>
      <trkpt lat="43.23725" lon="6.30836">
        <ele>152</ele>
        <time>2017-06-14T09:14:11Z</time>
      </trkpt>
      <trkpt lat="43.23727" lon="6.30841">
        <ele>151</ele>
        <time>2017-06-14T09:14:13Z</time>
      </trkpt>
      <trkpt lat="43.23737" lon="6.30844">
        <ele>153</ele>
        <time>2017-06-14T09:14:16Z</time>
      </trkpt>
      <trkpt lat="43.23747" lon="6.30853">
        <ele>154</ele>
        <time>2017-06-14T09:14:21Z</time>
      </trkpt>
      <trkpt lat="43.23748" lon="6.3086">
        <ele>152</ele>
        <time>2017-06-14T09:14:24Z</time>
      </trkpt>
      <trkpt lat="43.23746" lon="6.30864">
        <ele>151</ele>
        <time>2017-06-14T09:14:26Z</time>
      </trkpt>
      <trkpt lat="43.23734" lon="6.30878">
        <ele>148</ele>
        <time>2017-06-14T09:14:32Z</time>
      </trkpt>
      <trkpt lat="43.23733" lon="6.30886">
        <ele>146</ele>
        <time>2017-06-14T09:14:38Z</time>
      </trkpt>
      <trkpt lat="43.23736" lon="6.30894">
        <ele>152</ele>
        <time>2017-06-14T09:14:43Z</time>
      </trkpt>
      <trkpt lat="43.23734" lon="6.309">
        <ele>155</ele>
        <time>2017-06-14T09:14:48Z</time>
      </trkpt>
    </trkseg>
  </trk>
</gpx>